Darstellungsparameter: Aktuell verwendete Einstellungen:
Skalierung der Graphiken ... ?
xyx+y,   Skalierungsfaktor:      Skalierung: Modus: x, Faktor: 1
Darstellungszeitraum ... ?
Vom - - bis: - -   Zeitraum: 31.08.2008 - 30.11.2008
Min/Max/Avg-Anzeige ... ?
Zeige MMA aktuell
Zeige MMA Monat
Zeige MMA alles
Zeige --A aktuell
Zeige --A Monat
Zeige --A alles
Keine MMA-Anzeige
MMA:
Average (ber die Originaldaten)
MMA-Basis: 17.04.2019 - 19.05.2019
Quicknavigation für Darstellung... ?
Tage:      1T, 2T, 3T, 5T -1T -2T -3T -5T +1T +2T +3T +5T
Wochen: 1W, 2W, 3W -1W -2W -3W +1W +2W +3W
Monate: 1M, 3M, 6M -1M -3M -6M +1M +3M +6M
Jahre:    1J, 3J, 5J, 10J -1J -3J -5J -10J +1J +3J +5J +10J
Nutze für die Darstellung ... ?
Originaldaten oder Mittelwerte auf ...
Stundenbasis Tagesbasis Wochenbasis
Monatsbasis Jahresbasis      Datenbasis: Original-Daten
Darstellen als:
Statistik (Auto) Statistik J:M      Darstellung:
Zur Graphik,    zurück zur Übersicht aller Sensoren.
 
Tabellarische Datenbersicht: ?
 
Sensor: Nr:Datum:Temp:Abs-Feuchte:Windchill:Wind:
Aussen-T/F 1 31-08-2008 00:01:02 19.2 C 9.73 g/m*3 19.2 C 0 km/h
2 31-08-2008 00:13:02 19.1 C 9.67 g/m*3 19.1 C 0 km/h
3 31-08-2008 00:25:02 18.8 C 9.82 g/m*3 18.8 C 0 km/h
4 31-08-2008 00:37:02 18.6 C 10.03 g/m*3 18.6 C 0 km/h
5 31-08-2008 00:49:02 18.4 C 9.75 g/m*3 18.4 C 0 km/h
6 31-08-2008 01:01:02 18.2 C 9.79 g/m*3 18.2 C 0 km/h
7 31-08-2008 01:13:02 18.1 C 9.73 g/m*3 18.1 C 0 km/h
8 31-08-2008 01:25:02 17.9 C 9.92 g/m*3 17.9 C 0 km/h
9 31-08-2008 01:37:02 17.7 C 9.81 g/m*3 17.7 C 0 km/h
10 31-08-2008 01:49:02 17.5 C 9.69 g/m*3 17.5 C 0 km/h
11 31-08-2008 02:01:02 17.4 C 10.08 g/m*3 17.4 C 0 km/h
12 31-08-2008 02:13:02 17.1 C 10.19 g/m*3 17.1 C 0 km/h
13 31-08-2008 02:25:02 16.9 C 10.07 g/m*3 16.9 C 0 km/h
14 31-08-2008 02:37:03 16.8 C 10.29 g/m*3 16.8 C 0 km/h
15 31-08-2008 02:49:03 16.6 C 10.03 g/m*3 16.6 C 0 km/h
16 31-08-2008 03:01:03 16.4 C 9.91 g/m*3 16.4 C 0 km/h
17 31-08-2008 03:13:03 16.1 C 9.6 g/m*3 16.1 C 0 km/h
18 31-08-2008 03:25:03 16 C 9.67 g/m*3 16 C 0 km/h
19 31-08-2008 03:37:03 15.9 C 9.89 g/m*3 15.9 C 0 km/h
20 31-08-2008 03:49:03 15.8 C 10.1 g/m*3 15.8 C 0 km/h
21 31-08-2008 04:01:03 15.6 C 9.97 g/m*3 15.6 C 0 km/h
22 31-08-2008 04:13:03 15.6 C 10.11 g/m*3 15.6 C 0 km/h
23 31-08-2008 04:25:03 15.4 C 10.12 g/m*3 15.4 C 0 km/h
24 31-08-2008 04:37:03 15.2 C 9.99 g/m*3 15.2 C 0 km/h
25 31-08-2008 04:49:03 15.1 C 9.93 g/m*3 15.1 C 0 km/h
Sensor: Nr:Datum:Temp:Abs-Feuchte:Windchill:Wind:
Aussen-T/F 26 31-08-2008 05:01:03 14.9 C 9.81 g/m*3 14.9 C 0 km/h
27 31-08-2008 05:13:03 14.8 C 9.88 g/m*3 14.8 C 0 km/h
28 31-08-2008 05:25:03 14.7 C 9.69 g/m*3 14.7 C 0 km/h
29 31-08-2008 05:37:03 14.5 C 9.58 g/m*3 14.5 C 0 km/h
30 31-08-2008 05:49:03 14.5 C 9.58 g/m*3 14.5 C 0 km/h
31 31-08-2008 06:01:03 14.3 C 9.46 g/m*3 14.3 C 0 km/h
32 31-08-2008 06:13:03 14.2 C 9.4 g/m*3 14.2 C 0 km/h
33 31-08-2008 06:25:04 14.1 C 9.47 g/m*3 14.1 C 0 km/h
34 31-08-2008 06:37:04 14 C 9.41 g/m*3 14 C 0 km/h
35 31-08-2008 06:49:04 13.9 C 9.59 g/m*3 13.9 C 0 km/h
36 31-08-2008 07:01:04 14 C 9.65 g/m*3 14 C 0 km/h
37 31-08-2008 07:13:04 14 C 9.53 g/m*3 14 C 0 km/h
38 31-08-2008 07:25:04 14 C 9.53 g/m*3 14 C 0 km/h
39 31-08-2008 07:37:04 14 C 9.65 g/m*3 14 C 0 km/h
40 31-08-2008 07:49:04 14.1 C 9.71 g/m*3 14.1 C 0 km/h
41 31-08-2008 08:01:04 14.2 C 9.77 g/m*3 14.2 C 0 km/h
42 31-08-2008 08:13:04 14.4 C 9.77 g/m*3 14.4 C 0 km/h
43 31-08-2008 08:25:04 14.5 C 9.83 g/m*3 14.5 C 0 km/h
44 31-08-2008 08:37:04 14.6 C 9.89 g/m*3 14.6 C 0 km/h
45 31-08-2008 08:49:01 14.7 C 9.95 g/m*3 14.7 C 0 km/h
46 31-08-2008 09:01:02 15 C 10 g/m*3 15 C 0 km/h
47 31-08-2008 09:13:02 15.4 C 10.12 g/m*3 15.4 C 0 km/h
48 31-08-2008 09:25:02 15.8 C 10.36 g/m*3 15.8 C 0 km/h
49 31-08-2008 09:37:02 16.5 C 10.39 g/m*3 16.5 C 0 km/h
50 31-08-2008 09:49:03 17.1 C 10.19 g/m*3 17.1 C 0 km/h
Sensor: Nr:Datum:Temp:Abs-Feuchte:Windchill:Wind:
Aussen-T/F 51 31-08-2008 10:01:02 17.7 C 10.11 g/m*3 17.7 C 0 km/h
52 31-08-2008 10:13:02 18.4 C 9.91 g/m*3 18.4 C 0 km/h
53 31-08-2008 10:25:02 19 C 9.94 g/m*3 19 C 0 km/h
54 31-08-2008 10:37:02 19.3 C 10.12 g/m*3 19.3 C 0 km/h
55 31-08-2008 10:49:03 20 C 10.02 g/m*3 20 C 0 km/h
56 31-08-2008 11:01:02 20.7 C 10.44 g/m*3 20.7 C 0 km/h
57 31-08-2008 11:13:02 21.4 C 10.12 g/m*3 21.4 C 0 km/h
58 31-08-2008 11:25:03 22.1 C 9.76 g/m*3 22.1 C 0 km/h
59 31-08-2008 11:37:02 22.8 C 9.55 g/m*3 22.8 C 0 km/h
60 31-08-2008 11:49:02 23.5 C 9.31 g/m*3 23.5 C 0 km/h
61 31-08-2008 12:01:02 24.1 C 9.63 g/m*3 24.1 C 0 km/h
62 31-08-2008 12:13:02 24.9 C 8.93 g/m*3 24.9 C 0 km/h
63 31-08-2008 12:25:02 25.3 C 8.43 g/m*3 25.3 C 0 km/h
64 31-08-2008 12:37:02 25.6 C 8.33 g/m*3 25.6 C 0 km/h
65 31-08-2008 12:49:01 26 C 7.79 g/m*3 26 C 0 km/h
66 31-08-2008 13:01:02 26.1 C 7.83 g/m*3 26.1 C 0 km/h
67 31-08-2008 13:13:02 26.6 C 8.31 g/m*3 26.6 C 0 km/h
68 31-08-2008 13:25:01 26.8 C 8.4 g/m*3 26.8 C 0 km/h
69 31-08-2008 13:37:02 27.9 C 8.65 g/m*3 27.9 C 0 km/h
70 31-08-2008 13:49:02 28.3 C 8.29 g/m*3 28.3 C 0 km/h
71 31-08-2008 14:01:02 28.7 C 8.48 g/m*3 28.7 C 0 km/h
72 31-08-2008 14:13:02 28.7 C 8.48 g/m*3 28.7 C 0 km/h
73 31-08-2008 14:25:02 29.7 C 8.65 g/m*3 29.7 C 0 km/h
74 31-08-2008 14:37:02 30.1 C 8.54 g/m*3 30.1 C 0 km/h
75 31-08-2008 14:49:02 30.3 C 8.32 g/m*3 30.3 C 0 km/h
Sensor: Nr:Datum:Temp:Abs-Feuchte:Windchill:Wind:
Aussen-T/F 76 31-08-2008 15:01:01 30.4 C 8.06 g/m*3 30.4 C 0 km/h
77 31-08-2008 15:13:01 30.5 C 8.1 g/m*3 30.5 C 0 km/h
78 31-08-2008 15:25:02 31 C 8 g/m*3 31 C 0 km/h
79 31-08-2008 15:37:01 31.2 C 7.76 g/m*3 31.2 C 0 km/h
80 31-08-2008 15:49:02 31.8 C 7.35 g/m*3 31.8 C 0 km/h
81 31-08-2008 16:01:01 31.8 C 7.68 g/m*3 31.8 C 0 km/h
82 31-08-2008 16:13:01 32 C 7.09 g/m*3 32 C 0 km/h
83 31-08-2008 16:25:02 32 C 7.43 g/m*3 32 C 0 km/h
84 31-08-2008 16:37:01 32.3 C 7.2 g/m*3 32.3 C 0 km/h
85 31-08-2008 16:49:01 31.5 C 7.89 g/m*3 31.5 C 0 km/h
86 31-08-2008 17:01:02 31.8 C 7.68 g/m*3 31.8 C 0 km/h
87 31-08-2008 17:13:02 31.4 C 8.17 g/m*3 31.4 C 0 km/h
88 31-08-2008 17:25:01 31.4 C 8.17 g/m*3 31.4 C 0 km/h
89 31-08-2008 17:37:02 31.6 C 8.26 g/m*3 31.6 C 0 km/h
90 31-08-2008 17:49:02 31.9 C 8.06 g/m*3 31.9 C 0 km/h
91 31-08-2008 18:01:02 32.4 C 7.59 g/m*3 32.4 C 0 km/h
92 31-08-2008 18:13:02 32.3 C 7.55 g/m*3 32.3 C 0 km/h
93 31-08-2008 18:25:02 32.4 C 7.59 g/m*3 32.4 C 0 km/h
94 31-08-2008 18:37:02 32.1 C 7.81 g/m*3 32.1 C 0 km/h
95 31-08-2008 18:49:02 31.9 C 8.39 g/m*3 31.9 C 0 km/h
96 31-08-2008 19:01:02 31.2 C 8.73 g/m*3 31.2 C 0 km/h
97 31-08-2008 19:13:02 30.9 C 9.23 g/m*3 30.9 C 0 km/h
98 31-08-2008 19:25:02 30.6 C 9.4 g/m*3 30.6 C 0 km/h
99 31-08-2008 19:37:02 29.5 C 10.03 g/m*3 29.5 C 0 km/h
100 31-08-2008 19:49:02 28.2 C 10.17 g/m*3 28.2 C 0 km/h
Sensor: Nr:Datum:Temp:Abs-Feuchte:Windchill:Wind:
Aussen-T/F 101 31-08-2008 20:01:02 27.1 C 10.35 g/m*3 27.1 C 0 km/h
102 31-08-2008 20:13:03 26.2 C 10.34 g/m*3 26.2 C 0 km/h
103 31-08-2008 20:25:01 25.5 C 10.65 g/m*3 25.5 C 0 km/h
104 31-08-2008 20:37:02 25 C 10.59 g/m*3 25 C 0 km/h
105 31-08-2008 20:49:02 24.9 C 10.99 g/m*3 24.9 C 0 km/h
106 31-08-2008 21:01:02 24.8 C 11.15 g/m*3 24.8 C 0 km/h
107 31-08-2008 21:13:02 24.5 C 11.19 g/m*3 24.5 C 0 km/h
108 31-08-2008 21:25:02 24.5 C 11.41 g/m*3 24.5 C 0 km/h
109 31-08-2008 21:37:02 24.4 C 11.35 g/m*3 24.4 C 0 km/h
110 31-08-2008 21:49:02 24.3 C 11.29 g/m*3 24.3 C 0 km/h
111 31-08-2008 22:01:01 24.1 C 11.38 g/m*3 24.1 C 0 km/h
112 31-08-2008 22:13:01 23.7 C 11.55 g/m*3 23.7 C 0 km/h
113 31-08-2008 22:25:02 23.3 C 11.71 g/m*3 23.3 C 0 km/h
114 31-08-2008 22:37:02 23 C 11.92 g/m*3 23 C 0 km/h
115 31-08-2008 22:49:03 23 C 11.92 g/m*3 23 C 0 km/h
116 31-08-2008 23:01:02 22.9 C 11.85 g/m*3 22.9 C 0 km/h
117 31-08-2008 23:13:02 22.6 C 11.85 g/m*3 22.6 C 0 km/h
118 31-08-2008 23:25:03 22.8 C 11.99 g/m*3 22.8 C 0 km/h
119 31-08-2008 23:37:02 22.5 C 11.78 g/m*3 22.5 C 0 km/h
120 31-08-2008 23:49:03 22.3 C 11.85 g/m*3 22.3 C 0 km/h
121 01-09-2008 00:02:02 22.1 C 11.71 g/m*3 22.1 C 0 km/h
122 01-09-2008 00:14:02 22.1 C 11.91 g/m*3 22.1 C 0 km/h
123 01-09-2008 00:26:02 22 C 12.03 g/m*3 22 C 0 km/h
124 01-09-2008 00:38:02 22.2 C 12.17 g/m*3 22.2 C 0 km/h
125 01-09-2008 00:50:02 22 C 12.03 g/m*3 22 C 0 km/h
Sensor: Nr:Datum:Temp:Abs-Feuchte:Windchill:Wind:
Aussen-T/F 126 01-09-2008 01:02:03 22 C 12.03 g/m*3 22 C 0 km/h
127 01-09-2008 01:14:03 21.9 C 12.16 g/m*3 21.9 C 0 km/h
128 01-09-2008 01:26:03 21.8 C 12.09 g/m*3 21.8 C 0 km/h
129 01-09-2008 01:38:03 21.7 C 12.02 g/m*3 21.7 C 0 km/h
130 01-09-2008 01:50:03 21.8 C 11.9 g/m*3 21.8 C 0 km/h
131 01-09-2008 02:02:03 21.6 C 11.76 g/m*3 21.6 C 0 km/h
132 01-09-2008 02:14:03 21.7 C 11.83 g/m*3 21.7 C 0 km/h
133 01-09-2008 02:26:03 21.7 C 11.83 g/m*3 21.7 C 0 km/h
134 01-09-2008 02:38:03 21.3 C 12.49 g/m*3 21.3 C 0 km/h
135 01-09-2008 02:50:03 20.8 C 12.86 g/m*3 20.8 C 0 km/h
136 01-09-2008 03:02:03 20.6 C 12.35 g/m*3 20.6 C 0 km/h
137 01-09-2008 03:14:03 20.7 C 11.88 g/m*3 20.7 C 0 km/h
138 01-09-2008 03:26:03 20.9 C 11.47 g/m*3 20.9 C 0 km/h
139 01-09-2008 03:38:03 20.9 C 11.66 g/m*3 20.9 C 0 km/h
140 01-09-2008 03:50:03 20.9 C 11.84 g/m*3 20.9 C 0 km/h
141 01-09-2008 04:02:03 20.8 C 11.77 g/m*3 20.8 C 0 km/h
142 01-09-2008 04:14:03 20.8 C 11.59 g/m*3 20.8 C 0 km/h
143 01-09-2008 04:26:03 20.8 C 11.77 g/m*3 20.8 C 0 km/h
144 01-09-2008 04:38:03 20.8 C 11.59 g/m*3 20.8 C 0 km/h
145 01-09-2008 04:50:04 20.2 C 11.89 g/m*3 20.2 C 0 km/h
146 01-09-2008 05:02:04 20 C 12.1 g/m*3 20 C 0 km/h
147 01-09-2008 05:14:04 19.4 C 12.68 g/m*3 19.4 C 0 km/h
148 01-09-2008 05:26:04 19.1 C 12.95 g/m*3 19.1 C 0 km/h
149 01-09-2008 05:38:04 18.8 C 13.21 g/m*3 18.8 C 0 km/h
150 01-09-2008 05:50:04 18.9 C 13.45 g/m*3 18.9 C 0 km/h
Sensor: Nr:Datum:Temp:Abs-Feuchte:Windchill:Wind:
Aussen-T/F 151 01-09-2008 06:02:04 19.1 C 13.44 g/m*3 19.1 C 0 km/h
152 01-09-2008 06:14:04 19.3 C 13.44 g/m*3 19.3 C 0 km/h
153 01-09-2008 06:26:04 19.3 C 13.1 g/m*3 19.3 C 0 km/h
154 01-09-2008 06:38:04 19.1 C 13.11 g/m*3 19.1 C 0 km/h
155 01-09-2008 06:50:04 18.9 C 13.28 g/m*3 18.9 C 0 km/h
156 01-09-2008 07:02:04 18.7 C 13.45 g/m*3 18.7 C 0 km/h
157 01-09-2008 07:14:04 18.6 C 13.53 g/m*3 18.6 C 0 km/h
158 01-09-2008 07:26:04 18.7 C 13.61 g/m*3 18.7 C 0 km/h
159 01-09-2008 07:38:04 18.8 C 13.69 g/m*3 18.8 C 0 km/h
160 01-09-2008 07:50:04 18.9 C 13.77 g/m*3 18.9 C 0 km/h
161 01-09-2008 08:02:04 18.9 C 13.45 g/m*3 18.9 C 0 km/h
162 01-09-2008 08:14:04 19.1 C 13.44 g/m*3 19.1 C 0 km/h
163 01-09-2008 08:26:04 19.3 C 13.44 g/m*3 19.3 C 0 km/h
164 01-09-2008 08:38:05 19.1 C 13.11 g/m*3 19.1 C 0 km/h
165 01-09-2008 08:50:05 19.2 C 13.36 g/m*3 19.2 C 0 km/h
166 01-09-2008 09:02:05 19.3 C 13.44 g/m*3 19.3 C 0 km/h
167 01-09-2008 09:14:05 19.3 C 13.44 g/m*3 19.3 C 0 km/h
168 01-09-2008 09:26:05 19.4 C 13.18 g/m*3 19.4 C 0 km/h
169 01-09-2008 09:38:03 20.7 C 13.14 g/m*3 20.7 C 0 km/h
170 01-09-2008 09:50:02 21.2 C 12.23 g/m*3 21.2 C 0 km/h
171 01-09-2008 10:02:01 21.5 C 11.88 g/m*3 21.5 C 0 km/h
172 01-09-2008 10:14:01 21.4 C 11.81 g/m*3 21.4 C 0 km/h
173 01-09-2008 10:26:02 21.2 C 11.68 g/m*3 21.2 C 0 km/h
174 01-09-2008 10:38:01 21.3 C 11.74 g/m*3 21.3 C 0 km/h
175 01-09-2008 10:50:01 21.7 C 11.45 g/m*3 21.7 C 0 km/h
Sensor: Nr:Datum:Temp:Abs-Feuchte:Windchill:Wind:
Aussen-T/F 176 01-09-2008 11:02:01 22.1 C 10.93 g/m*3 22.1 C 0 km/h
177 01-09-2008 11:14:01 22.4 C 10.53 g/m*3 22.4 C 0 km/h
178 01-09-2008 11:26:01 22.4 C 10.53 g/m*3 22.4 C 0 km/h
179 01-09-2008 11:38:01 22.6 C 10.45 g/m*3 22.6 C 0 km/h
180 01-09-2008 11:50:01 22.6 C 9.84 g/m*3 22.6 C 0 km/h
181 01-09-2008 12:02:02 22.6 C 9.84 g/m*3 22.6 C 0 km/h
182 01-09-2008 12:14:02 22.5 C 9.99 g/m*3 22.5 C 0 km/h
183 01-09-2008 12:26:01 21.4 C 9.56 g/m*3 21.4 C 0 km/h
184 01-09-2008 12:38:02 21.5 C 9.81 g/m*3 21.5 C 0 km/h
185 01-09-2008 12:50:02 21.5 C 9.81 g/m*3 21.5 C 0 km/h
186 01-09-2008 13:02:02 22 C 9.9 g/m*3 22 C 0 km/h
187 01-09-2008 13:14:02 22.6 C 10.04 g/m*3 22.6 C 0 km/h
188 01-09-2008 13:26:02 24.1 C 9.63 g/m*3 24.1 C 0 km/h
189 01-09-2008 13:38:02 24.1 C 7.66 g/m*3 24.1 C 0 km/h
190 01-09-2008 13:50:02 24 C 7.4 g/m*3 24 C 0 km/h
191 01-09-2008 14:02:03 24.9 C 7.32 g/m*3 24.9 C 0 km/h
192 01-09-2008 14:14:03 24.8 C 7.74 g/m*3 24.8 C 0 km/h
193 01-09-2008 14:26:02 24.5 C 7.39 g/m*3 24.5 C 0 km/h
194 01-09-2008 14:38:03 24.1 C 7.22 g/m*3 24.1 C 0 km/h
195 01-09-2008 14:50:02 23.7 C 7.49 g/m*3 23.7 C 0 km/h
196 01-09-2008 15:02:01 23.5 C 7.82 g/m*3 23.5 C 0 km/h
197 01-09-2008 15:14:01 23.5 C 8.04 g/m*3 23.5 C 0 km/h
198 01-09-2008 15:26:02 23.9 C 7.57 g/m*3 23.9 C 0 km/h
199 01-09-2008 15:38:01 23.5 C 7.19 g/m*3 23.5 C 0 km/h
200 01-09-2008 15:50:02 23.4 C 7.36 g/m*3 23.4 C 0 km/h
Sensor: Nr:Datum:Temp:Abs-Feuchte:Windchill:Wind:
Aussen-T/F 201 01-09-2008 16:02:01 23.4 C 7.15 g/m*3 23.4 C 0 km/h
202 01-09-2008 16:14:01 23.4 C 7.36 g/m*3 23.4 C 0 km/h
203 01-09-2008 16:26:02 23.2 C 7.07 g/m*3 23.2 C 0 km/h
204 01-09-2008 16:38:01 23.3 C 6.9 g/m*3 23.3 C 0 km/h
205 01-09-2008 16:50:02 23.3 C 6.9 g/m*3 23.3 C 0 km/h
206 01-09-2008 17:02:01 23.2 C 6.86 g/m*3 23.2 C 0 km/h
207 01-09-2008 17:14:01 23.1 C 6.82 g/m*3 23.1 C 0 km/h
208 01-09-2008 17:26:02 22.9 C 6.95 g/m*3 22.9 C 0 km/h
209 01-09-2008 17:38:01 22.8 C 7.11 g/m*3 22.8 C 0 km/h
210 01-09-2008 17:50:01 22.5 C 6.99 g/m*3 22.5 C 0 km/h
211 01-09-2008 18:02:01 22.5 C 6.99 g/m*3 22.5 C 0 km/h
212 01-09-2008 18:14:01 22.7 C 7.07 g/m*3 22.7 C 0 km/h
213 01-09-2008 18:26:02 22.6 C 6.83 g/m*3 22.6 C 0 km/h
214 01-09-2008 18:38:01 22 C 6.79 g/m*3 22 C 0 km/h
215 01-09-2008 18:50:01 21.9 C 7.33 g/m*3 21.9 C 0 km/h
216 01-09-2008 19:02:02 21.6 C 7.21 g/m*3 21.6 C 0 km/h
217 01-09-2008 19:14:03 21.4 C 7.31 g/m*3 21.4 C 0 km/h
218 01-09-2008 19:26:01 21.3 C 7.64 g/m*3 21.3 C 0 km/h
219 01-09-2008 19:38:02 21 C 7.69 g/m*3 21 C 0 km/h
220 01-09-2008 19:50:02 20.6 C 7.87 g/m*3 20.6 C 0 km/h
221 01-09-2008 20:02:02 20 C 7.95 g/m*3 20 C 0 km/h
222 01-09-2008 20:14:02 19.6 C 7.93 g/m*3 19.6 C 0 km/h
223 01-09-2008 20:26:02 19.5 C 8.06 g/m*3 19.5 C 0 km/h
224 01-09-2008 20:38:02 19.4 C 8.18 g/m*3 19.4 C 0 km/h
225 01-09-2008 20:50:02 19.4 C 8.18 g/m*3 19.4 C 0 km/h
Sensor: Nr:Datum:Temp:Abs-Feuchte:Windchill:Wind:
Aussen-T/F 226 01-09-2008 21:02:02 19.3 C 8.29 g/m*3 19.3 C 0 km/h
227 01-09-2008 21:14:02 18.9 C 8.26 g/m*3 18.9 C 0 km/h
228 01-09-2008 21:26:02 18.6 C 8.59 g/m*3 18.6 C 0 km/h
229 01-09-2008 21:38:02 18.2 C 8.39 g/m*3 18.2 C 0 km/h
230 01-09-2008 21:50:02 18 C 8.45 g/m*3 18 C 0 km/h
231 01-09-2008 22:02:02 17.9 C 8.55 g/m*3 17.9 C 0 km/h
232 01-09-2008 22:14:02 17.7 C 8.6 g/m*3 17.7 C 0 km/h
233 01-09-2008 22:27:03 17.5 C 8.65 g/m*3 17.5 C 0 km/h
234 01-09-2008 22:39:03 17.3 C 8.69 g/m*3 17.3 C 0 km/h
235 01-09-2008 22:51:03 17.3 C 8.69 g/m*3 17.3 C 0 km/h
236 01-09-2008 23:03:03 17.2 C 8.79 g/m*3 17.2 C 0 km/h
237 01-09-2008 23:15:03 17 C 8.83 g/m*3 17 C 0 km/h
238 01-09-2008 23:27:03 17 C 8.83 g/m*3 17 C 0 km/h
239 01-09-2008 23:39:03 16.9 C 9.06 g/m*3 16.9 C 0 km/h
240 01-09-2008 23:51:03 16.8 C 9.15 g/m*3 16.8 C 0 km/h
241 02-09-2008 00:03:03 16.7 C 9.1 g/m*3 16.7 C 0 km/h
242 02-09-2008 00:15:03 16.6 C 9.18 g/m*3 16.6 C 0 km/h
243 02-09-2008 00:27:03 16.6 C 9.18 g/m*3 16.6 C 0 km/h
244 02-09-2008 00:39:03 16.6 C 9.18 g/m*3 16.6 C 0 km/h
245 02-09-2008 00:51:03 16.4 C 9.21 g/m*3 16.4 C 0 km/h
246 02-09-2008 01:03:04 16 C 9.26 g/m*3 16 C 0 km/h
247 02-09-2008 01:15:04 15.9 C 9.48 g/m*3 15.9 C 0 km/h
248 02-09-2008 01:27:04 15.7 C 9.5 g/m*3 15.7 C 0 km/h
249 02-09-2008 01:39:04 15.6 C 9.44 g/m*3 15.6 C 0 km/h
250 02-09-2008 01:51:04 15.7 C 9.5 g/m*3 15.7 C 0 km/h
Sensor: Nr:Datum:Temp:Abs-Feuchte:Windchill:Wind:
Aussen-T/F 251 02-09-2008 02:03:04 15.6 C 9.44 g/m*3 15.6 C 0 km/h
252 02-09-2008 02:15:04 15.4 C 9.33 g/m*3 15.4 C 0 km/h
253 02-09-2008 02:27:04 15.1 C 9.29 g/m*3 15.1 C 0 km/h
254 02-09-2008 02:39:04 14.9 C 9.43 g/m*3 14.9 C 0 km/h
255 02-09-2008 02:51:04 14.7 C 9.44 g/m*3 14.7 C 0 km/h
256 02-09-2008 03:03:04 14.2 C 9.16 g/m*3 14.2 C 0 km/h
257 02-09-2008 03:15:04 14.3 C 9.34 g/m*3 14.3 C 0 km/h
258 02-09-2008 03:27:04 14.2 C 9.4 g/m*3 14.2 C 0 km/h
259 02-09-2008 03:39:04 14 C 9.41 g/m*3 14 C 0 km/h
260 02-09-2008 03:51:04 14 C 9.53 g/m*3 14 C 0 km/h
261 02-09-2008 04:03:04 14 C 9.53 g/m*3 14 C 0 km/h
262 02-09-2008 04:15:04 13.9 C 9.47 g/m*3 13.9 C 0 km/h
263 02-09-2008 04:27:04 13.8 C 9.41 g/m*3 13.8 C 0 km/h
264 02-09-2008 04:39:04 13.5 C 9.36 g/m*3 13.5 C 0 km/h
265 02-09-2008 04:51:04 13.4 C 9.3 g/m*3 13.4 C 0 km/h
266 02-09-2008 05:03:05 13.4 C 9.42 g/m*3 13.4 C 0 km/h
267 02-09-2008 05:15:05 13.3 C 9.36 g/m*3 13.3 C 0 km/h
268 02-09-2008 05:27:05 13.3 C 9.36 g/m*3 13.3 C 0 km/h
269 02-09-2008 05:39:05 13.2 C 9.42 g/m*3 13.2 C 0 km/h
270 02-09-2008 05:51:05 13 C 9.3 g/m*3 13 C 0 km/h
271 02-09-2008 06:03:05 12.9 C 9.35 g/m*3 12.9 C 0 km/h
272 02-09-2008 06:15:05 12.8 C 9.3 g/m*3 12.8 C 0 km/h
273 02-09-2008 06:27:05 12.6 C 9.18 g/m*3 12.6 C 0 km/h
274 02-09-2008 06:39:05 12.5 C 9.24 g/m*3 12.5 C 0 km/h
275 02-09-2008 06:51:05 12.4 C 9.18 g/m*3 12.4 C 0 km/h
Sensor: Nr:Datum:Temp:Abs-Feuchte:Windchill:Wind:
Aussen-T/F 276 02-09-2008 07:03:02 12.4 C 9.18 g/m*3 12.4 C 0 km/h
277 02-09-2008 07:15:02 12.4 C 9.18 g/m*3 12.4 C 0 km/h
278 02-09-2008 07:27:02 12.5 C 9.24 g/m*3 12.5 C 0 km/h
279 02-09-2008 07:39:02 12.6 C 9.29 g/m*3 12.6 C 0 km/h
280 02-09-2008 07:51:01 12.7 C 9.35 g/m*3 12.7 C 0 km/h
281 02-09-2008 08:03:02 12.8 C 9.52 g/m*3 12.8 C 0 km/h
282 02-09-2008 08:15:01 13.2 C 9.64 g/m*3 13.2 C 0 km/h
283 02-09-2008 08:27:01 14 C 10.01 g/m*3 14 C 0 km/h
284 02-09-2008 08:39:01 14.6 C 10.26 g/m*3 14.6 C 0 km/h
285 02-09-2008 08:51:01 14.8 C 10.01 g/m*3 14.8 C 0 km/h
286 02-09-2008 09:03:01 14.6 C 9.64 g/m*3 14.6 C 0 km/h
287 02-09-2008 09:15:02 14.8 C 9.88 g/m*3 14.8 C 0 km/h
288 02-09-2008 09:27:02 15.4 C 9.99 g/m*3 15.4 C 0 km/h
289 02-09-2008 09:39:01 16.4 C 9.91 g/m*3 16.4 C 0 km/h
290 02-09-2008 09:51:02 17.2 C 9.81 g/m*3 17.2 C 0 km/h
291 02-09-2008 10:03:02 17.8 C 10.02 g/m*3 17.8 C 0 km/h
292 02-09-2008 10:15:02 18.3 C 10.01 g/m*3 18.3 C 0 km/h
293 02-09-2008 10:27:02 18.6 C 9.87 g/m*3 18.6 C 0 km/h
294 02-09-2008 10:39:02 19 C 10.1 g/m*3 19 C 0 km/h
295 02-09-2008 10:51:02 19.5 C 10.07 g/m*3 19.5 C 0 km/h
296 02-09-2008 11:03:03 20 C 9.68 g/m*3 20 C 0 km/h
297 02-09-2008 11:15:02 20.3 C 9.15 g/m*3 20.3 C 0 km/h
298 02-09-2008 11:27:02 20.8 C 9.05 g/m*3 20.8 C 0 km/h
299 02-09-2008 11:39:03 21.6 C 8.91 g/m*3 21.6 C 0 km/h
300 02-09-2008 11:51:02 21.9 C 8.88 g/m*3 21.9 C 0 km/h
Sensor: Nr:Datum:Temp:Abs-Feuchte:Windchill:Wind:
Aussen-T/F 301 02-09-2008 12:03:02 21.9 C 8.88 g/m*3 21.9 C 0 km/h
302 02-09-2008 12:15:02 22 C 8.54 g/m*3 22 C 0 km/h
303 02-09-2008 12:27:02 22.7 C 8.49 g/m*3 22.7 C 0 km/h
304 02-09-2008 12:39:01 23 C 8.22 g/m*3 23 C 0 km/h
305 02-09-2008 12:51:02 23.4 C 8.41 g/m*3 23.4 C 0 km/h
306 02-09-2008 13:03:02 23.7 C 8.13 g/m*3 23.7 C 0 km/h
307 02-09-2008 13:15:02 23.5 C 7.61 g/m*3 23.5 C 0 km/h
308 02-09-2008 13:27:02 23.4 C 7.57 g/m*3 23.4 C 0 km/h
309 02-09-2008 13:39:02 23.6 C 7.66 g/m*3 23.6 C 0 km/h
310 02-09-2008 13:51:02 23.6 C 7.44 g/m*3 23.6 C 0 km/h
311 02-09-2008 14:03:02 24.8 C 7.74 g/m*3 24.8 C 0 km/h
312 02-09-2008 14:15:02 24.5 C 7.39 g/m*3 24.5 C 0 km/h
313 02-09-2008 14:27:02 25.1 C 7.18 g/m*3 25.1 C 0 km/h
314 02-09-2008 14:39:02 24.8 C 7.28 g/m*3 24.8 C 0 km/h
315 02-09-2008 14:51:02 25.2 C 7.22 g/m*3 25.2 C 0 km/h
316 02-09-2008 15:03:02 24.7 C 7.24 g/m*3 24.7 C 0 km/h
317 02-09-2008 15:15:01 25.5 C 7.34 g/m*3 25.5 C 0 km/h
318 02-09-2008 15:27:01 25.5 C 7.1 g/m*3 25.5 C 0 km/h
319 02-09-2008 15:39:02 25.7 C 7.42 g/m*3 25.7 C 0 km/h
320 02-09-2008 15:51:02 24.9 C 7.32 g/m*3 24.9 C 0 km/h
321 02-09-2008 16:03:02 24.8 C 7.06 g/m*3 24.8 C 0 km/h
322 02-09-2008 16:15:02 24.6 C 7.2 g/m*3 24.6 C 0 km/h
323 02-09-2008 16:27:03 24.4 C 7.12 g/m*3 24.4 C 0 km/h
324 02-09-2008 16:39:02 24.5 C 7.16 g/m*3 24.5 C 0 km/h
325 02-09-2008 16:51:02 24.1 C 7.22 g/m*3 24.1 C 0 km/h
Sensor: Nr:Datum:Temp:Abs-Feuchte:Windchill:Wind:
Aussen-T/F 326 02-09-2008 17:03:02 24 C 7.18 g/m*3 24 C 0 km/h
327 02-09-2008 17:15:02 24 C 7.4 g/m*3 24 C 0 km/h
328 02-09-2008 17:27:02 24.1 C 7.44 g/m*3 24.1 C 0 km/h
329 02-09-2008 17:39:01 25.1 C 7.64 g/m*3 25.1 C 0 km/h
330 02-09-2008 17:51:01 24.8 C 7.74 g/m*3 24.8 C 0 km/h
331 02-09-2008 18:03:02 24.3 C 7.75 g/m*3 24.3 C 0 km/h
332 02-09-2008 18:15:02 24.1 C 7.88 g/m*3 24.1 C 0 km/h
333 02-09-2008 18:27:02 23.9 C 8 g/m*3 23.9 C 0 km/h
334 02-09-2008 18:39:02 23.7 C 8.13 g/m*3 23.7 C 0 km/h
335 02-09-2008 18:51:01 23.6 C 7.87 g/m*3 23.6 C 0 km/h
336 02-09-2008 19:03:02 23.9 C 8 g/m*3 23.9 C 0 km/h
337 02-09-2008 19:15:01 23.7 C 8.13 g/m*3 23.7 C 0 km/h
338 02-09-2008 19:27:01 23.3 C 7.95 g/m*3 23.3 C 0 km/h
339 02-09-2008 19:39:02 22.8 C 8.13 g/m*3 22.8 C 0 km/h
340 02-09-2008 19:51:02 22.5 C 8.19 g/m*3 22.5 C 0 km/h
341 02-09-2008 20:03:02 22.3 C 8.29 g/m*3 22.3 C 0 km/h
342 02-09-2008 20:15:02 22.1 C 8.2 g/m*3 22.1 C 0 km/h
343 02-09-2008 20:27:02 22 C 8.15 g/m*3 22 C 0 km/h
344 02-09-2008 20:39:02 21.8 C 8.63 g/m*3 21.8 C 0 km/h
345 02-09-2008 20:51:01 21.6 C 8.53 g/m*3 21.6 C 0 km/h
346 02-09-2008 21:03:02 21.4 C 8.62 g/m*3 21.4 C 0 km/h
347 02-09-2008 21:15:01 21.2 C 8.71 g/m*3 21.2 C 0 km/h
348 02-09-2008 21:27:01 21.1 C 8.84 g/m*3 21.1 C 0 km/h
349 02-09-2008 21:39:02 20.9 C 8.92 g/m*3 20.9 C 0 km/h
350 02-09-2008 21:51:02 20.8 C 9.05 g/m*3 20.8 C 0 km/h
Sensor: Nr:Datum:Temp:Abs-Feuchte:Windchill:Wind:
Aussen-T/F 351 02-09-2008 22:03:01 20.7 C 9 g/m*3 20.7 C 0 km/h
352 02-09-2008 22:16:05 20.2 C 9.09 g/m*3 20.2 C 0 km/h
353 02-09-2008 22:28:05 20 C 8.99 g/m*3 20 C 0 km/h
354 02-09-2008 22:40:05 20 C 9.16 g/m*3 20 C 0 km/h
355 02-09-2008 22:52:05 20.3 C 9.15 g/m*3 20.3 C 0 km/h
356 02-09-2008 23:04:05 20.2 C 9.27 g/m*3 20.2 C 0 km/h
357 02-09-2008 23:16:05 20.2 C 9.27 g/m*3 20.2 C 0 km/h
358 02-09-2008 23:28:05 20.1 C 9.39 g/m*3 20.1 C 0 km/h
359 02-09-2008 23:40:05 20.2 C 9.44 g/m*3 20.2 C 0 km/h
360 02-09-2008 23:52:05 20.4 C 9.38 g/m*3 20.4 C 0 km/h
361 03-09-2008 00:04:05 20.7 C 9.36 g/m*3 20.7 C 0 km/h
362 03-09-2008 00:16:05 20.8 C 9.42 g/m*3 20.8 C 0 km/h
363 03-09-2008 00:28:05 20.4 C 9.73 g/m*3 20.4 C 0 km/h
364 03-09-2008 00:40:05 18.4 C 11.17 g/m*3 18.4 C 0 km/h
365 03-09-2008 00:52:06 18 C 11.83 g/m*3 18 C 0 km/h
366 03-09-2008 01:04:06 17.8 C 12.29 g/m*3 17.8 C 0 km/h
367 03-09-2008 01:16:06 18 C 12.44 g/m*3 18 C 0 km/h
368 03-09-2008 01:28:06 18.4 C 12.58 g/m*3 18.4 C 0 km/h
369 03-09-2008 01:40:06 18.5 C 12.5 g/m*3 18.5 C 0 km/h
370 03-09-2008 01:52:06 18.6 C 12.41 g/m*3 18.6 C 0 km/h
371 03-09-2008 02:04:06 18.6 C 12.26 g/m*3 18.6 C 0 km/h
372 03-09-2008 02:16:06 18.4 C 12.11 g/m*3 18.4 C 0 km/h
373 03-09-2008 02:28:06 18.4 C 11.95 g/m*3 18.4 C 0 km/h
374 03-09-2008 02:40:06 18.3 C 11.88 g/m*3 18.3 C 0 km/h
375 03-09-2008 02:52:06 18.3 C 11.73 g/m*3 18.3 C 0 km/h
Sensor: Nr:Datum:Temp:Abs-Feuchte:Windchill:Wind:
Aussen-T/F 376 03-09-2008 03:04:06 18.5 C 11.87 g/m*3 18.5 C 0 km/h
377 03-09-2008 03:16:06 18.6 C 11.78 g/m*3 18.6 C 0 km/h
378 03-09-2008 03:28:06 18.5 C 11.71 g/m*3 18.5 C 0 km/h
379 03-09-2008 03:40:06 17.5 C 12.37 g/m*3 17.5 C 0 km/h
380 03-09-2008 03:52:06 17 C 12.3 g/m*3 17 C 0 km/h
381 03-09-2008 04:04:06 16.6 C 12.29 g/m*3 16.6 C 0 km/h
382 03-09-2008 04:16:06 16.4 C 12.42 g/m*3 16.4 C 0 km/h
383 03-09-2008 04:28:06 16.2 C 12.27 g/m*3 16.2 C 0 km/h
384 03-09-2008 04:40:06 16.2 C 12.41 g/m*3 16.2 C 0 km/h
385 03-09-2008 04:52:06 16 C 12.26 g/m*3 16 C 0 km/h
386 03-09-2008 05:04:07 15.9 C 12.32 g/m*3 15.9 C 0 km/h
387 03-09-2008 05:16:07 15.9 C 12.46 g/m*3 15.9 C 0 km/h
388 03-09-2008 05:28:07 15.8 C 12.38 g/m*3 15.8 C 0 km/h
389 03-09-2008 05:40:07 15.8 C 12.38 g/m*3 15.8 C 0 km/h
390 03-09-2008 05:52:07 15.7 C 12.31 g/m*3 15.7 C 0 km/h
391 03-09-2008 06:04:02 15.6 C 12.37 g/m*3 15.6 C 0 km/h
392 03-09-2008 06:16:02 15.5 C 12.29 g/m*3 15.5 C 0 km/h
393 03-09-2008 06:28:02 15.5 C 12.29 g/m*3 15.5 C 0 km/h
394 03-09-2008 06:40:02 15.5 C 12.29 g/m*3 15.5 C 0 km/h
395 03-09-2008 06:52:02 15.4 C 12.22 g/m*3 15.4 C 0 km/h
396 03-09-2008 07:04:02 15.1 C 11.87 g/m*3 15.1 C 0 km/h
397 03-09-2008 07:16:02 14.8 C 11.53 g/m*3 14.8 C 0 km/h
398 03-09-2008 07:28:02 14.8 C 11.53 g/m*3 14.8 C 0 km/h
399 03-09-2008 07:40:02 14.9 C 11.6 g/m*3 14.9 C 0 km/h
400 03-09-2008 07:52:02 14.8 C 11.4 g/m*3 14.8 C 0 km/h
Sensor: Nr:Datum:Temp:Abs-Feuchte:Windchill:Wind:
Aussen-T/F 401 03-09-2008 08:04:02 15 C 10.9 g/m*3 15 C 0 km/h
402 03-09-2008 08:16:02 15.1 C 10.71 g/m*3 15.1 C 0 km/h
403 03-09-2008 08:28:02 15 C 10.51 g/m*3 15 C 0 km/h
404 03-09-2008 08:40:02 15.1 C 10.06 g/m*3 15.1 C 0 km/h
405 03-09-2008 08:52:01 15.2 C 9.99 g/m*3 15.2 C 0 km/h
406 03-09-2008 09:04:02 15.6 C 10.24 g/m*3 15.6 C 0 km/h
407 03-09-2008 09:16:01 15.9 C 10.16 g/m*3 15.9 C 0 km/h
408 03-09-2008 09:28:01 15.8 C 9.83 g/m*3 15.8 C 0 km/h
409 03-09-2008 09:40:02 16.1 C 10.01 g/m*3 16.1 C 0 km/h
410 03-09-2008 09:52:01 16.1 C 9.6 g/m*3 16.1 C 0 km/h
411 03-09-2008 10:04:01 16 C 9.26 g/m*3 16 C 0 km/h
412 03-09-2008 10:16:02 16.2 C 9.24 g/m*3 16.2 C 0 km/h
413 03-09-2008 10:28:02 16.6 C 9.04 g/m*3 16.6 C 0 km/h
414 03-09-2008 10:40:01 16.7 C 9.24 g/m*3 16.7 C 0 km/h
415 03-09-2008 10:52:01 16.6 C 8.9 g/m*3 16.6 C 0 km/h
416 03-09-2008 11:04:02 16.8 C 9.01 g/m*3 16.8 C 0 km/h
417 03-09-2008 11:16:01 16.6 C 8.9 g/m*3 16.6 C 0 km/h
418 03-09-2008 11:28:01 16.8 C 8.86 g/m*3 16.8 C 0 km/h
419 03-09-2008 11:40:02 16.6 C 8.9 g/m*3 16.6 C 0 km/h
420 03-09-2008 11:52:02 16.5 C 8.57 g/m*3 16.5 C 0 km/h
421 03-09-2008 12:04:02 16.7 C 8.67 g/m*3 16.7 C 0 km/h
422 03-09-2008 12:16:02 16.9 C 8.77 g/m*3 16.9 C 0 km/h
423 03-09-2008 12:28:02 17 C 9.55 g/m*3 17 C 0 km/h
424 03-09-2008 12:40:02 17.2 C 9.37 g/m*3 17.2 C 0 km/h
425 03-09-2008 12:52:01 17.5 C 8.65 g/m*3 17.5 C 0 km/h
Sensor: Nr:Datum:Temp:Abs-Feuchte:Windchill:Wind:
Aussen-T/F 426 03-09-2008 13:04:02 17.7 C 8.3 g/m*3 17.7 C 0 km/h
427 03-09-2008 13:16:01 17.4 C 8.45 g/m*3 17.4 C 0 km/h
428 03-09-2008 13:28:01 17.3 C 8.25 g/m*3 17.3 C 0 km/h
429 03-09-2008 13:40:02 17 C 8.39 g/m*3 17 C 0 km/h
430 03-09-2008 13:52:02 15.9 C 9.34 g/m*3 15.9 C 0 km/h
431 03-09-2008 14:04:02 14.9 C 9.94 g/m*3 14.9 C 0 km/h
432 03-09-2008 14:16:02 14.9 C 10.32 g/m*3 14.9 C 0 km/h
433 03-09-2008 14:28:03 14.4 C 10.01 g/m*3 14.4 C 0 km/h
434 03-09-2008 14:40:02 13.6 C 9.42 g/m*3 13.6 C 0 km/h
435 03-09-2008 14:52:02 13.6 C 9.65 g/m*3 13.6 C 0 km/h
436 03-09-2008 15:04:02 13.8 C 10.01 g/m*3 13.8 C 0 km/h
437 03-09-2008 15:16:02 13.9 C 10.19 g/m*3 13.9 C 0 km/h
438 03-09-2008 15:28:02 13.8 C 10.25 g/m*3 13.8 C 0 km/h
439 03-09-2008 15:40:02 13.8 C 10.13 g/m*3 13.8 C 0 km/h
440 03-09-2008 15:52:01 13.7 C 10.18 g/m*3 13.7 C 0 km/h
441 03-09-2008 16:04:02 13.7 C 10.18 g/m*3 13.7 C 0 km/h
442 03-09-2008 16:16:02 13.5 C 10.06 g/m*3 13.5 C 0 km/h
443 03-09-2008 16:28:02 13.7 C 10.3 g/m*3 13.7 C 0 km/h
444 03-09-2008 16:40:02 14 C 10.49 g/m*3 14 C 0 km/h
445 03-09-2008 16:52:02 14 C 10.49 g/m*3 14 C 0 km/h
446 03-09-2008 17:04:02 13.6 C 10.36 g/m*3 13.6 C 0 km/h
447 03-09-2008 17:16:02 13.5 C 10.29 g/m*3 13.5 C 0 km/h
448 03-09-2008 17:28:02 14 C 10.61 g/m*3 14 C 0 km/h
449 03-09-2008 17:40:02 13.9 C 10.67 g/m*3 13.9 C 0 km/h
450 03-09-2008 17:52:01 14.1 C 10.68 g/m*3 14.1 C 0 km/h
Sensor: Nr:Datum:Temp:Abs-Feuchte:Windchill:Wind:
Aussen-T/F 451 03-09-2008 18:04:02 13.9 C 10.67 g/m*3 13.9 C 0 km/h
452 03-09-2008 18:16:01 13.7 C 10.54 g/m*3 13.7 C 0 km/h
453 03-09-2008 18:28:01 13.7 C 10.54 g/m*3 13.7 C 0 km/h
454 03-09-2008 18:40:02 13.5 C 10.41 g/m*3 13.5 C 0 km/h
455 03-09-2008 18:52:02 13.4 C 10.35 g/m*3 13.4 C 0 km/h
456 03-09-2008 19:04:02 13.3 C 10.28 g/m*3 13.3 C 0 km/h
457 03-09-2008 19:16:02 13 C 9.98 g/m*3 13 C 0 km/h
458 03-09-2008 19:28:02 12.8 C 9.86 g/m*3 12.8 C 0 km/h
459 03-09-2008 19:40:02 12.8 C 9.97 g/m*3 12.8 C 0 km/h
460 03-09-2008 19:52:02 12.7 C 9.8 g/m*3 12.7 C 0 km/h
461 03-09-2008 20:04:01 12.8 C 9.97 g/m*3 12.8 C 0 km/h
462 03-09-2008 20:16:02 12.7 C 9.8 g/m*3 12.7 C 0 km/h
463 03-09-2008 20:28:02 12.5 C 9.57 g/m*3 12.5 C 0 km/h
464 03-09-2008 20:40:02 12.4 C 9.4 g/m*3 12.4 C 0 km/h
465 03-09-2008 20:52:02 12.4 C 9.4 g/m*3 12.4 C 0 km/h
466 03-09-2008 21:04:02 12.4 C 9.4 g/m*3 12.4 C 0 km/h
467 03-09-2008 21:16:01 12.2 C 9.28 g/m*3 12.2 C 0 km/h
468 03-09-2008 21:28:01 12.1 C 9.22 g/m*3 12.1 C 0 km/h
469 03-09-2008 21:40:02 12.1 C 9.22 g/m*3 12.1 C 0 km/h
470 03-09-2008 21:52:02 12.1 C 9.12 g/m*3 12.1 C 0 km/h
471 03-09-2008 22:04:02 12 C 9.06 g/m*3 12 C 0 km/h
472 03-09-2008 22:16:02 11.8 C 8.95 g/m*3 11.8 C 0 km/h
473 03-09-2008 22:28:02 11.7 C 8.89 g/m*3 11.7 C 0 km/h
474 03-09-2008 22:41:02 11.6 C 8.73 g/m*3 11.6 C 0 km/h
475 03-09-2008 22:53:02 11.5 C 8.68 g/m*3 11.5 C 0 km/h
Sensor: Nr:Datum:Temp:Abs-Feuchte:Windchill:Wind:
Aussen-T/F 476 03-09-2008 23:05:02 11.4 C 8.72 g/m*3 11.4 C 0 km/h
477 03-09-2008 23:17:02 11.3 C 8.77 g/m*3 11.3 C 0 km/h
478 03-09-2008 23:29:02 11.3 C 8.77 g/m*3 11.3 C 0 km/h
479 03-09-2008 23:41:02 11.4 C 8.83 g/m*3 11.4 C 0 km/h
480 03-09-2008 23:53:02 11.4 C 8.72 g/m*3 11.4 C 0 km/h
481 04-09-2008 00:05:02 11.2 C 8.51 g/m*3 11.2 C 0 km/h
482 04-09-2008 00:17:02 11.1 C 8.46 g/m*3 11.1 C 0 km/h
483 04-09-2008 00:29:02 11 C 8.51 g/m*3 11 C 0 km/h
484 04-09-2008 00:41:02 10.8 C 8.4 g/m*3 10.8 C 0 km/h
485 04-09-2008 00:53:02 10.5 C 8.34 g/m*3 10.5 C 0 km/h
486 04-09-2008 01:05:02 10.1 C 8.13 g/m*3 10.1 C 0 km/h
487 04-09-2008 01:17:02 10 C 8.17 g/m*3 10 C 0 km/h
488 04-09-2008 01:29:03 10.1 C 8.32 g/m*3 10.1 C 0 km/h
489 04-09-2008 01:41:03 10.1 C 8.32 g/m*3 10.1 C 0 km/h
490 04-09-2008 01:53:03 10.4 C 8.58 g/m*3 10.4 C 0 km/h
491 04-09-2008 02:05:03 10.4 C 8.48 g/m*3 10.4 C 0 km/h
492 04-09-2008 02:17:03 10.4 C 8.48 g/m*3 10.4 C 0 km/h
493 04-09-2008 02:29:03 10.3 C 8.33 g/m*3 10.3 C 0 km/h
494 04-09-2008 02:41:03 10.1 C 8.23 g/m*3 10.1 C 0 km/h
495 04-09-2008 02:53:03 10 C 8.17 g/m*3 10 C 0 km/h
496 04-09-2008 03:05:03 9.7 C 8.2 g/m*3 9.7 C 0 km/h
497 04-09-2008 03:17:03 9.6 C 8.15 g/m*3 9.6 C 0 km/h
498 04-09-2008 03:29:03 9.5 C 8.1 g/m*3 9.5 C 0 km/h
499 04-09-2008 03:41:03 9.5 C 8.19 g/m*3 9.5 C 0 km/h
500 04-09-2008 03:53:03 9.4 C 8.14 g/m*3 9.4 C 0 km/h
Sensor: Nr:Datum:Temp:Abs-Feuchte:Windchill:Wind:
Aussen-T/F 501 04-09-2008 04:05:03 9.4 C 8.14 g/m*3 9.4 C 0 km/h
502 04-09-2008 04:17:03 9.4 C 8.14 g/m*3 9.4 C 0 km/h
503 04-09-2008 04:29:03 9.4 C 8.14 g/m*3 9.4 C 0 km/h
504 04-09-2008 04:41:03 9.3 C 8.09 g/m*3 9.3 C 0 km/h
505 04-09-2008 04:53:03 9.2 C 8.04 g/m*3 9.2 C 0 km/h
506 04-09-2008 05:05:03 9.2 C 8.13 g/m*3 9.2 C 0 km/h
507 04-09-2008 05:17:03 9.2 C 8.13 g/m*3 9.2 C 0 km/h
508 04-09-2008 05:29:04 9.1 C 8.07 g/m*3 9.1 C 0 km/h
509 04-09-2008 05:41:04 9 C 8.02 g/m*3 9 C 0 km/h
510 04-09-2008 05:53:04 8.9 C 8.06 g/m*3 8.9 C 0 km/h
511 04-09-2008 06:05:04 8.7 C 7.96 g/m*3 8.7 C 0 km/h
512 04-09-2008 06:17:04 8.6 C 7.91 g/m*3 8.6 C 0 km/h
513 04-09-2008 06:29:04 8.5 C 7.85 g/m*3 8.5 C 0 km/h
514 04-09-2008 06:41:04 8.6 C 7.91 g/m*3 8.6 C 0 km/h
515 04-09-2008 06:53:04 8.8 C 8.09 g/m*3 8.8 C 0 km/h
516 04-09-2008 07:05:02 9.1 C 8.16 g/m*3 9.1 C 0 km/h
517 04-09-2008 07:17:01 9.3 C 8.27 g/m*3 9.3 C 0 km/h
518 04-09-2008 07:29:01 9.4 C 8.32 g/m*3 9.4 C 0 km/h
519 04-09-2008 07:41:02 9.5 C 8.37 g/m*3 9.5 C 0 km/h
520 04-09-2008 07:53:02 9.5 C 8.28 g/m*3 9.5 C 0 km/h
521 04-09-2008 08:05:02 9.5 C 8.28 g/m*3 9.5 C 0 km/h
522 04-09-2008 08:17:02 9.8 C 8.44 g/m*3 9.8 C 0 km/h
523 04-09-2008 08:29:02 9.9 C 8.5 g/m*3 9.9 C 0 km/h
524 04-09-2008 08:41:02 10.1 C 8.42 g/m*3 10.1 C 0 km/h
525 04-09-2008 08:53:01 10.4 C 8.58 g/m*3 10.4 C 0 km/h
Sensor: Nr:Datum:Temp:Abs-Feuchte:Windchill:Wind:
Aussen-T/F 526 04-09-2008 09:05:02 10.6 C 8.69 g/m*3 10.6 C 0 km/h
527 04-09-2008 09:17:01 10.8 C 8.8 g/m*3 10.8 C 0 km/h
528 04-09-2008 09:29:01 11.2 C 8.92 g/m*3 11.2 C 0 km/h
529 04-09-2008 09:41:02 12 C 9.06 g/m*3 12 C 0 km/h
530 04-09-2008 09:53:02 12.6 C 8.96 g/m*3 12.6 C 0 km/h
531 04-09-2008 10:05:02 13.5 C 8.54 g/m*3 13.5 C 0 km/h
532 04-09-2008 10:17:02 14 C 8.2 g/m*3 14 C 0 km/h
533 04-09-2008 10:29:02 14.5 C 8.21 g/m*3 14.5 C 0 km/h
534 04-09-2008 10:41:02 14.8 C 8.11 g/m*3 14.8 C 0 km/h
535 04-09-2008 10:53:02 14.7 C 7.93 g/m*3 14.7 C 0 km/h
536 04-09-2008 11:05:03 15.2 C 7.79 g/m*3 15.2 C 0 km/h
537 04-09-2008 11:17:02 14.5 C 7.59 g/m*3 14.5 C 0 km/h
538 04-09-2008 11:29:02 14.5 C 7.59 g/m*3 14.5 C 0 km/h
539 04-09-2008 11:41:03 14.7 C 7.68 g/m*3 14.7 C 0 km/h
540 04-09-2008 11:53:02 15.6 C 7.58 g/m*3 15.6 C 0 km/h
541 04-09-2008 12:05:02 16.2 C 7.45 g/m*3 16.2 C 0 km/h
542 04-09-2008 12:17:02 16.4 C 7.54 g/m*3 16.4 C 0 km/h
543 04-09-2008 12:29:02 16.6 C 7.63 g/m*3 16.6 C 0 km/h
544 04-09-2008 12:41:02 17.1 C 7.42 g/m*3 17.1 C 0 km/h
545 04-09-2008 12:53:02 16.8 C 7.58 g/m*3 16.8 C 0 km/h
546 04-09-2008 13:05:01 17.2 C 7.32 g/m*3 17.2 C 0 km/h
547 04-09-2008 13:17:02 17.6 C 7.5 g/m*3 17.6 C 0 km/h
548 04-09-2008 13:29:03 17.7 C 7.24 g/m*3 17.7 C 0 km/h
549 04-09-2008 13:41:01 18 C 7.07 g/m*3 18 C 0 km/h
550 04-09-2008 13:53:03 17.2 C 6.88 g/m*3 17.2 C 0 km/h
Sensor: Nr:Datum:Temp:Abs-Feuchte:Windchill:Wind:
Aussen-T/F 551 04-09-2008 14:05:02 17.1 C 6.84 g/m*3 17.1 C 0 km/h
552 04-09-2008 14:17:02 17.2 C 6.74 g/m*3 17.2 C 0 km/h
553 04-09-2008 14:29:02 17.2 C 6.59 g/m*3 17.2 C 0 km/h
554 04-09-2008 14:41:02 17.2 C 6.59 g/m*3 17.2 C 0 km/h
555 04-09-2008 14:53:03 17.1 C 6.55 g/m*3 17.1 C 0 km/h
556 04-09-2008 15:05:02 17.5 C 6.86 g/m*3 17.5 C 0 km/h
557 04-09-2008 15:17:02 17.6 C 6.75 g/m*3 17.6 C 0 km/h
558 04-09-2008 15:29:02 17.4 C 6.52 g/m*3 17.4 C 0 km/h
559 04-09-2008 15:41:02 18 C 6.45 g/m*3 18 C 0 km/h
560 04-09-2008 15:53:02 19 C 6.52 g/m*3 19 C 0 km/h
561 04-09-2008 16:05:02 19.9 C 6.53 g/m*3 19.9 C 0 km/h
562 04-09-2008 16:17:02 18.8 C 6.28 g/m*3 18.8 C 0 km/h
563 04-09-2008 16:29:02 18.6 C 6.05 g/m*3 18.6 C 0 km/h
564 04-09-2008 16:41:03 19.2 C 6.27 g/m*3 19.2 C 0 km/h
565 04-09-2008 16:53:02 19 C 5.87 g/m*3 19 C 0 km/h
566 04-09-2008 17:05:02 19.8 C 5.81 g/m*3 19.8 C 0 km/h
567 04-09-2008 17:17:02 20 C 5.88 g/m*3 20 C 0 km/h
568 04-09-2008 17:29:02 19.8 C 5.81 g/m*3 19.8 C 0 km/h
569 04-09-2008 17:41:02 19.6 C 5.91 g/m*3 19.6 C 0 km/h
570 04-09-2008 17:53:02 19.3 C 5.81 g/m*3 19.3 C 0 km/h
571 04-09-2008 18:05:01 19.3 C 6.14 g/m*3 19.3 C 0 km/h
572 04-09-2008 18:17:01 19.1 C 5.9 g/m*3 19.1 C 0 km/h
573 04-09-2008 18:29:01 18.8 C 6.12 g/m*3 18.8 C 0 km/h
574 04-09-2008 18:41:01 18.3 C 5.94 g/m*3 18.3 C 0 km/h
575 04-09-2008 18:53:02 17.8 C 6.07 g/m*3 17.8 C 0 km/h
Sensor: Nr:Datum:Temp:Abs-Feuchte:Windchill:Wind:
Aussen-T/F 576 04-09-2008 19:05:02 17.7 C 6.34 g/m*3 17.7 C 0 km/h
577 04-09-2008 19:17:02 17.3 C 6.33 g/m*3 17.3 C 0 km/h
578 04-09-2008 19:29:02 16.8 C 6.58 g/m*3 16.8 C 0 km/h
579 04-09-2008 19:41:02 16.5 C 6.88 g/m*3 16.5 C 0 km/h
580 04-09-2008 19:53:03 16.1 C 6.99 g/m*3 16.1 C 0 km/h
581 04-09-2008 20:05:02 15.6 C 7.31 g/m*3 15.6 C 0 km/h
582 04-09-2008 20:17:02 15.2 C 7.4 g/m*3 15.2 C 0 km/h
583 04-09-2008 20:29:02 14.9 C 7.52 g/m*3 14.9 C 0 km/h
584 04-09-2008 20:41:02 14.7 C 7.3 g/m*3 14.7 C 0 km/h
585 04-09-2008 20:53:02 14.3 C 7.13 g/m*3 14.3 C 0 km/h
586 04-09-2008 21:05:02 14.3 C 7.13 g/m*3 14.3 C 0 km/h
587 04-09-2008 21:17:02 14.4 C 7.17 g/m*3 14.4 C 0 km/h
588 04-09-2008 21:29:02 14.7 C 6.8 g/m*3 14.7 C 0 km/h
589 04-09-2008 21:41:02 14.7 C 6.92 g/m*3 14.7 C 0 km/h
590 04-09-2008 21:54:03 14.4 C 7.05 g/m*3 14.4 C 0 km/h
591 04-09-2008 22:06:03 14.4 C 7.29 g/m*3 14.4 C 0 km/h
592 04-09-2008 22:18:03 14.3 C 7.37 g/m*3 14.3 C 0 km/h
593 04-09-2008 22:30:03 14.2 C 7.57 g/m*3 14.2 C 0 km/h
594 04-09-2008 22:42:03 14 C 7.72 g/m*3 14 C 0 km/h
595 04-09-2008 22:54:03 14 C 7.84 g/m*3 14 C 0 km/h
596 04-09-2008 23:06:03 13.9 C 8.03 g/m*3 13.9 C 0 km/h
597 04-09-2008 23:18:03 13.9 C 8.15 g/m*3 13.9 C 0 km/h
598 04-09-2008 23:30:03 13.8 C 8.34 g/m*3 13.8 C 0 km/h
599 04-09-2008 23:42:03 13.8 C 8.34 g/m*3 13.8 C 0 km/h
600 04-09-2008 23:54:04 13.8 C 8.34 g/m*3 13.8 C 0 km/h
Sensor: Nr:Datum:Temp:Abs-Feuchte:Windchill:Wind:
Aussen-T/F 601 05-09-2008 00:06:04 13.8 C 8.34 g/m*3 13.8 C 0 km/h
602 05-09-2008 00:18:04 13.7 C 8.29 g/m*3 13.7 C 0 km/h
603 05-09-2008 00:30:04 13.6 C 8.36 g/m*3 13.6 C 0 km/h
604 05-09-2008 00:42:04 13.6 C 8.47 g/m*3 13.6 C 0 km/h
605 05-09-2008 00:54:04 13.3 C 8.55 g/m*3 13.3 C 0 km/h
606 05-09-2008 01:06:04 13.2 C 8.84 g/m*3 13.2 C 0 km/h
607 05-09-2008 01:18:04 13.2 C 8.96 g/m*3 13.2 C 0 km/h
608 05-09-2008 01:30:04 13.3 C 9.01 g/m*3 13.3 C 0 km/h
609 05-09-2008 01:42:04 13.3 C 9.01 g/m*3 13.3 C 0 km/h
610 05-09-2008 01:54:04 13.2 C 8.84 g/m*3 13.2 C 0 km/h
611 05-09-2008 02:06:04 13.2 C 8.84 g/m*3 13.2 C 0 km/h
612 05-09-2008 02:18:04 13.3 C 8.9 g/m*3 13.3 C 0 km/h
613 05-09-2008 02:30:04 13.2 C 8.84 g/m*3 13.2 C 0 km/h
614 05-09-2008 02:42:04 13.2 C 8.96 g/m*3 13.2 C 0 km/h
615 05-09-2008 02:54:04 13 C 8.96 g/m*3 13 C 0 km/h
616 05-09-2008 03:06:04 13 C 9.19 g/m*3 13 C 0 km/h
617 05-09-2008 03:18:04 13 C 9.19 g/m*3 13 C 0 km/h
618 05-09-2008 03:30:04 12.8 C 9.3 g/m*3 12.8 C 0 km/h
619 05-09-2008 03:42:04 12.7 C 9.35 g/m*3 12.7 C 0 km/h
620 05-09-2008 03:54:04 12.7 C 9.46 g/m*3 12.7 C 0 km/h
621 05-09-2008 04:06:05 12.8 C 9.52 g/m*3 12.8 C 0 km/h
622 05-09-2008 04:18:05 12.7 C 9.46 g/m*3 12.7 C 0 km/h
623 05-09-2008 04:30:05 12.5 C 9.35 g/m*3 12.5 C 0 km/h
624 05-09-2008 04:42:05 12.3 C 9.23 g/m*3 12.3 C 0 km/h
625 05-09-2008 04:54:05 12.1 C 9.22 g/m*3 12.1 C 0 km/h
Sensor: Nr:Datum:Temp:Abs-Feuchte:Windchill:Wind:
Aussen-T/F 626 05-09-2008 05:06:05 12.1 C 9.22 g/m*3 12.1 C 0 km/h
627 05-09-2008 05:18:05 12.1 C 9.22 g/m*3 12.1 C 0 km/h
628 05-09-2008 05:30:05 12.3 C 9.45 g/m*3 12.3 C 0 km/h
629 05-09-2008 05:42:05 12.3 C 9.45 g/m*3 12.3 C 0 km/h
630 05-09-2008 05:54:05 12.4 C 9.29 g/m*3 12.4 C 0 km/h
631 05-09-2008 06:06:05 12.3 C 9.23 g/m*3 12.3 C 0 km/h
632 05-09-2008 06:18:05 12.4 C 9.29 g/m*3 12.4 C 0 km/h
633 05-09-2008 06:30:05 12.5 C 9.35 g/m*3 12.5 C 0 km/h
634 05-09-2008 06:42:05 12.8 C 9.63 g/m*3 12.8 C 0 km/h
635 05-09-2008 06:54:05 13 C 9.53 g/m*3 13 C 0 km/h
636 05-09-2008 07:06:04 13.1 C 9.47 g/m*3 13.1 C 0 km/h
637 05-09-2008 07:18:04 13 C 9.41 g/m*3 13 C 0 km/h
638 05-09-2008 07:30:04 13 C 9.41 g/m*3 13 C 0 km/h
639 05-09-2008 07:42:04 13.4 C 9.65 g/m*3 13.4 C 0 km/h
640 05-09-2008 07:54:03 13.4 C 9.53 g/m*3 13.4 C 0 km/h
641 05-09-2008 08:06:02 13.5 C 9.59 g/m*3 13.5 C 0 km/h
642 05-09-2008 08:18:02 13.6 C 9.53 g/m*3 13.6 C 0 km/h
643 05-09-2008 08:30:03 13.5 C 9.59 g/m*3 13.5 C 0 km/h
644 05-09-2008 08:42:02 13.4 C 9.53 g/m*3 13.4 C 0 km/h
645 05-09-2008 08:54:02 13.4 C 9.65 g/m*3 13.4 C 0 km/h
646 05-09-2008 09:06:02 13.7 C 9.95 g/m*3 13.7 C 0 km/h
647 05-09-2008 09:18:02 14.3 C 10.2 g/m*3 14.3 C 0 km/h
648 05-09-2008 09:30:02 15.2 C 9.99 g/m*3 15.2 C 0 km/h
649 05-09-2008 09:42:03 15.8 C 10.23 g/m*3 15.8 C 0 km/h
650 05-09-2008 09:54:02 16.4 C 10.05 g/m*3 16.4 C 0 km/h
Sensor: Nr:Datum:Temp:Abs-Feuchte:Windchill:Wind:
Aussen-T/F 651 05-09-2008 10:06:03 16.7 C 9.95 g/m*3 16.7 C 0 km/h
652 05-09-2008 10:18:02 17.2 C 9.81 g/m*3 17.2 C 0 km/h
653 05-09-2008 10:30:02 17.6 C 9.75 g/m*3 17.6 C 0 km/h
654 05-09-2008 10:42:02 17.8 C 9.71 g/m*3 17.8 C 0 km/h
655 05-09-2008 10:54:02 18.1 C 9.58 g/m*3 18.1 C 0 km/h
656 05-09-2008 11:06:02 18.3 C 9.38 g/m*3 18.3 C 0 km/h
657 05-09-2008 11:18:01 18.3 C 9.54 g/m*3 18.3 C 0 km/h
658 05-09-2008 11:30:01 18.5 C 9.65 g/m*3 18.5 C 0 km/h
659 05-09-2008 11:42:02 19.4 C 9.84 g/m*3 19.4 C 0 km/h
660 05-09-2008 11:54:02 19.8 C 9.57 g/m*3 19.8 C 0 km/h
661 05-09-2008 12:06:03 20.1 C 9.56 g/m*3 20.1 C 0 km/h
662 05-09-2008 12:18:02 19.9 C 9.62 g/m*3 19.9 C 0 km/h
663 05-09-2008 12:30:02 21.1 C 9.58 g/m*3 21.1 C 0 km/h
664 05-09-2008 12:42:02 21.4 C 9.56 g/m*3 21.4 C 0 km/h
665 05-09-2008 12:54:02 21.2 C 9.45 g/m*3 21.2 C 0 km/h
666 05-09-2008 13:06:01 21.2 C 9.45 g/m*3 21.2 C 0 km/h
667 05-09-2008 13:18:02 22.1 C 9.56 g/m*3 22.1 C 0 km/h
668 05-09-2008 13:30:03 22.5 C 9.79 g/m*3 22.5 C 0 km/h
669 05-09-2008 13:42:01 22.5 C 9.79 g/m*3 22.5 C 0 km/h
670 05-09-2008 13:54:02 21.9 C 9.84 g/m*3 21.9 C 0 km/h
671 05-09-2008 14:06:01 22.3 C 9.68 g/m*3 22.3 C 0 km/h
672 05-09-2008 14:18:02 22.2 C 9.82 g/m*3 22.2 C 0 km/h
673 05-09-2008 14:30:02 22.1 C 9.96 g/m*3 22.1 C 0 km/h
674 05-09-2008 14:42:01 21.9 C 10.03 g/m*3 21.9 C 0 km/h
675 05-09-2008 14:54:02 21.6 C 10.24 g/m*3 21.6 C 0 km/h
Sensor: Nr:Datum:Temp:Abs-Feuchte:Windchill:Wind:
Aussen-T/F 676 05-09-2008 15:06:02 20.9 C 10.2 g/m*3 20.9 C 0 km/h
677 05-09-2008 15:18:02 20.8 C 10.5 g/m*3 20.8 C 0 km/h
678 05-09-2008 15:30:02 20.8 C 10.5 g/m*3 20.8 C 0 km/h
679 05-09-2008 15:42:02 20.9 C 10.56 g/m*3 20.9 C 0 km/h
680 05-09-2008 15:54:01 21.2 C 10.56 g/m*3 21.2 C 0 km/h
681 05-09-2008 16:06:02 21.7 C 10.68 g/m*3 21.7 C 0 km/h
682 05-09-2008 16:18:01 22.1 C 10.35 g/m*3 22.1 C 0 km/h
683 05-09-2008 16:30:01 22 C 10.48 g/m*3 22 C 0 km/h
684 05-09-2008 16:42:02 22.1 C 10.54 g/m*3 22.1 C 0 km/h
685 05-09-2008 16:54:02 22.6 C 10.65 g/m*3 22.6 C 0 km/h
686 05-09-2008 17:06:01 22.5 C 10.99 g/m*3 22.5 C 0 km/h
687 05-09-2008 17:18:02 21.8 C 10.74 g/m*3 21.8 C 0 km/h
688 05-09-2008 17:30:02 21.9 C 10.81 g/m*3 21.9 C 0 km/h
689 05-09-2008 17:42:02 21.7 C 10.49 g/m*3 21.7 C 0 km/h
690 05-09-2008 17:54:03 21.6 C 10.43 g/m*3 21.6 C 0 km/h
691 05-09-2008 18:06:02 21.6 C 10.62 g/m*3 21.6 C 0 km/h
692 05-09-2008 18:18:03 21.6 C 10.81 g/m*3 21.6 C 0 km/h
693 05-09-2008 18:30:03 21.5 C 10.94 g/m*3 21.5 C 0 km/h
694 05-09-2008 18:42:02 21.4 C 10.87 g/m*3 21.4 C 0 km/h
695 05-09-2008 18:54:02 21.5 C 11.13 g/m*3 21.5 C 0 km/h
696 05-09-2008 19:06:02 21.5 C 11.13 g/m*3 21.5 C 0 km/h
697 05-09-2008 19:18:02 21 C 11.36 g/m*3 21 C 0 km/h
698 05-09-2008 19:30:02 20 C 11.92 g/m*3 20 C 0 km/h
699 05-09-2008 19:42:02 19.5 C 12.25 g/m*3 19.5 C 0 km/h
700 05-09-2008 19:54:01 18.1 C 11.43 g/m*3 18.1 C 0 km/h
Sensor: Nr:Datum:Temp:Abs-Feuchte:Windchill:Wind:
Aussen-T/F 701 05-09-2008 20:06:02 17.2 C 12.15 g/m*3 17.2 C 0 km/h
702 05-09-2008 20:18:01 17 C 12.3 g/m*3 17 C 0 km/h
703 05-09-2008 20:30:01 16.9 C 12.66 g/m*3 16.9 C 0 km/h
704 05-09-2008 20:42:02 16.9 C 12.8 g/m*3 16.9 C 0 km/h
705 05-09-2008 20:54:02 16.9 C 12.94 g/m*3 16.9 C 0 km/h
706 05-09-2008 21:06:02 16.9 C 12.94 g/m*3 16.9 C 0 km/h
707 05-09-2008 21:18:02 16.9 C 13.09 g/m*3 16.9 C 0 km/h
708 05-09-2008 21:30:02 17 C 13.17 g/m*3 17 C 0 km/h
709 05-09-2008 21:42:02 17 C 13.17 g/m*3 17 C 0 km/h
710 05-09-2008 21:54:02 17.1 C 13.39 g/m*3 17.1 C 0 km/h
711 05-09-2008 22:06:02 17.1 C 13.39 g/m*3 17.1 C 0 km/h
712 05-09-2008 22:19:02 17.1 C 13.39 g/m*3 17.1 C 0 km/h
713 05-09-2008 22:31:02 17.2 C 13.62 g/m*3 17.2 C 0 km/h
714 05-09-2008 22:43:02 17.2 C 13.62 g/m*3 17.2 C 0 km/h
715 05-09-2008 22:55:02 17.1 C 13.54 g/m*3 17.1 C 0 km/h
716 05-09-2008 23:07:02 17 C 13.46 g/m*3 17 C 0 km/h
717 05-09-2008 23:19:02 16.9 C 13.52 g/m*3 16.9 C 0 km/h
718 05-09-2008 23:31:02 16.8 C 13.44 g/m*3 16.8 C 0 km/h
719 05-09-2008 23:43:03 16.8 C 13.44 g/m*3 16.8 C 0 km/h
720 05-09-2008 23:55:03 16.7 C 13.36 g/m*3 16.7 C 0 km/h
721 06-09-2008 00:07:03 16.5 C 13.2 g/m*3 16.5 C 0 km/h
722 06-09-2008 00:19:03 16.4 C 13.12 g/m*3 16.4 C 0 km/h
723 06-09-2008 00:31:03 16.4 C 13.12 g/m*3 16.4 C 0 km/h
724 06-09-2008 00:43:03 16.4 C 13.12 g/m*3 16.4 C 0 km/h
725 06-09-2008 00:55:03 16.4 C 13.26 g/m*3 16.4 C 0 km/h
Sensor: Nr:Datum:Temp:Abs-Feuchte:Windchill:Wind:
Aussen-T/F 726 06-09-2008 01:07:03 16.1 C 12.88 g/m*3 16.1 C 0 km/h
727 06-09-2008 01:19:03 16 C 12.81 g/m*3 16 C 0 km/h
728 06-09-2008 01:31:03 15.9 C 12.87 g/m*3 15.9 C 0 km/h
729 06-09-2008 01:43:03 15.7 C 12.71 g/m*3 15.7 C 0 km/h
730 06-09-2008 01:55:03 15.6 C 12.63 g/m*3 15.6 C 0 km/h
731 06-09-2008 02:07:03 15.6 C 12.63 g/m*3 15.6 C 0 km/h
732 06-09-2008 02:19:03 15.7 C 12.71 g/m*3 15.7 C 0 km/h
733 06-09-2008 02:31:03 15.7 C 12.71 g/m*3 15.7 C 0 km/h
734 06-09-2008 02:43:03 15.7 C 12.71 g/m*3 15.7 C 0 km/h
735 06-09-2008 02:55:03 15.7 C 12.71 g/m*3 15.7 C 0 km/h
736 06-09-2008 03:07:03 15.6 C 12.5 g/m*3 15.6 C 0 km/h
737 06-09-2008 03:19:03 15.6 C 12.5 g/m*3 15.6 C 0 km/h
738 06-09-2008 03:31:04 15.6 C 12.5 g/m*3 15.6 C 0 km/h
739 06-09-2008 03:43:04 15.6 C 12.5 g/m*3 15.6 C 0 km/h
740 06-09-2008 03:55:04 15.5 C 12.56 g/m*3 15.5 C 0 km/h
741 06-09-2008 04:07:04 15.5 C 12.56 g/m*3 15.5 C 0 km/h
742 06-09-2008 04:19:04 15.5 C 12.56 g/m*3 15.5 C 0 km/h
743 06-09-2008 04:31:04 15.4 C 12.48 g/m*3 15.4 C 0 km/h
744 06-09-2008 04:43:04 15.4 C 12.48 g/m*3 15.4 C 0 km/h
745 06-09-2008 04:55:04 15.2 C 12.33 g/m*3 15.2 C 0 km/h
746 06-09-2008 05:07:04 15.2 C 12.33 g/m*3 15.2 C 0 km/h
747 06-09-2008 05:19:04 15.2 C 12.33 g/m*3 15.2 C 0 km/h
748 06-09-2008 05:31:04 15.3 C 12.41 g/m*3 15.3 C 0 km/h
749 06-09-2008 05:43:04 15.3 C 12.41 g/m*3 15.3 C 0 km/h
750 06-09-2008 05:55:04 15.4 C 12.48 g/m*3 15.4 C 0 km/h
Sensor: Nr:Datum:Temp:Abs-Feuchte:Windchill:Wind:
Aussen-T/F 751 06-09-2008 06:07:04 15.6 C 12.63 g/m*3 15.6 C 0 km/h
752 06-09-2008 06:19:04 15.7 C 12.71 g/m*3 15.7 C 0 km/h
753 06-09-2008 06:31:04 15.8 C 12.79 g/m*3 15.8 C 0 km/h
754 06-09-2008 06:43:04 15.8 C 12.79 g/m*3 15.8 C 0 km/h
755 06-09-2008 06:55:04 15.7 C 12.71 g/m*3 15.7 C 0 km/h
756 06-09-2008 07:07:04 15.8 C 12.79 g/m*3 15.8 C 0 km/h
757 06-09-2008 07:19:05 15.7 C 12.71 g/m*3 15.7 C 0 km/h
758 06-09-2008 07:31:05 16 C 12.81 g/m*3 16 C 0 km/h
759 06-09-2008 07:43:05 16.2 C 12.82 g/m*3 16.2 C 0 km/h
760 06-09-2008 07:55:05 16.3 C 12.62 g/m*3 16.3 C 0 km/h
761 06-09-2008 08:07:02 16.3 C 12.35 g/m*3 16.3 C 0 km/h
762 06-09-2008 08:19:02 16.3 C 12.35 g/m*3 16.3 C 0 km/h
763 06-09-2008 08:31:02 16.6 C 12.57 g/m*3 16.6 C 0 km/h
764 06-09-2008 08:43:02 17 C 12.44 g/m*3 17 C 0 km/h
765 06-09-2008 08:55:02 17.1 C 12.23 g/m*3 17.1 C 0 km/h
766 06-09-2008 09:07:03 17.4 C 12.45 g/m*3 17.4 C 0 km/h
767 06-09-2008 09:19:02 18 C 12.13 g/m*3 18 C 0 km/h
768 06-09-2008 09:31:02 18.5 C 12.02 g/m*3 18.5 C 0 km/h
769 06-09-2008 09:43:02 18.5 C 11.71 g/m*3 18.5 C 0 km/h
770 06-09-2008 09:55:02 19.1 C 11.47 g/m*3 19.1 C 0 km/h
771 06-09-2008 10:07:02 19.5 C 11.24 g/m*3 19.5 C 0 km/h
772 06-09-2008 10:19:02 19.6 C 10.97 g/m*3 19.6 C 0 km/h
773 06-09-2008 10:31:02 20.2 C 10.84 g/m*3 20.2 C 0 km/h
774 06-09-2008 10:43:02 20 C 10.54 g/m*3 20 C 0 km/h
775 06-09-2008 10:55:02 20.3 C 10.73 g/m*3 20.3 C 0 km/h
Sensor: Nr:Datum:Temp:Abs-Feuchte:Windchill:Wind:
Aussen-T/F 776 06-09-2008 11:07:01 20.4 C 10.61 g/m*3 20.4 C 0 km/h
777 06-09-2008 11:19:01 20.9 C 10.56 g/m*3 20.9 C 0 km/h
778 06-09-2008 11:31:02 20.9 C 10.38 g/m*3 20.9 C 0 km/h
779 06-09-2008 11:43:02 21.3 C 10.25 g/m*3 21.3 C 0 km/h
780 06-09-2008 11:55:02 21.7 C 10.3 g/m*3 21.7 C 0 km/h
781 06-09-2008 12:07:02 21.2 C 10.01 g/m*3 21.2 C 0 km/h
782 06-09-2008 12:19:02 21.3 C 10.25 g/m*3 21.3 C 0 km/h
783 06-09-2008 12:31:02 21 C 9.89 g/m*3 21 C 0 km/h
784 06-09-2008 12:43:02 20.8 C 10.14 g/m*3 20.8 C 0 km/h
785 06-09-2008 12:55:02 20.8 C 10.32 g/m*3 20.8 C 0 km/h
786 06-09-2008 13:07:02 20.8 C 10.32 g/m*3 20.8 C 0 km/h
787 06-09-2008 13:19:02 20.8 C 9.6 g/m*3 20.8 C 0 km/h
788 06-09-2008 13:31:02 20.9 C 9.47 g/m*3 20.9 C 0 km/h
789 06-09-2008 13:43:02 20.8 C 9.6 g/m*3 20.8 C 0 km/h
790 06-09-2008 13:55:01 20.6 C 9.66 g/m*3 20.6 C 0 km/h
791 06-09-2008 14:07:02 20.3 C 9.5 g/m*3 20.3 C 0 km/h
792 06-09-2008 14:19:02 20.4 C 9.38 g/m*3 20.4 C 0 km/h
793 06-09-2008 14:31:02 20.2 C 9.79 g/m*3 20.2 C 0 km/h
794 06-09-2008 14:43:02 20 C 9.85 g/m*3 20 C 0 km/h
795 06-09-2008 14:55:02 19.8 C 9.57 g/m*3 19.8 C 0 km/h
796 06-09-2008 15:07:02 19.8 C 8.71 g/m*3 19.8 C 0 km/h
797 06-09-2008 15:19:02 19.7 C 8.32 g/m*3 19.7 C 0 km/h
798 06-09-2008 15:31:02 19.8 C 8.03 g/m*3 19.8 C 0 km/h
799 06-09-2008 15:43:03 19.8 C 8.03 g/m*3 19.8 C 0 km/h
800 06-09-2008 15:55:01 19.5 C 8.06 g/m*3 19.5 C 0 km/h
Sensor: Nr:Datum:Temp:Abs-Feuchte:Windchill:Wind:
Aussen-T/F 801 06-09-2008 16:07:02 19.4 C 8.18 g/m*3 19.4 C 0 km/h
802 06-09-2008 16:19:01 19.3 C 8.79 g/m*3 19.3 C 0 km/h
803 06-09-2008 16:31:02 19.3 C 8.79 g/m*3 19.3 C 0 km/h
804 06-09-2008 16:43:02 19.2 C 9.23 g/m*3 19.2 C 0 km/h
805 06-09-2008 16:55:02 19.2 C 9.56 g/m*3 19.2 C 0 km/h
806 06-09-2008 17:07:02 19 C 9.61 g/m*3 19 C 0 km/h
807 06-09-2008 17:19:02 18.1 C 10.66 g/m*3 18.1 C 0 km/h
808 06-09-2008 17:31:02 17.9 C 11.3 g/m*3 17.9 C 0 km/h
809 06-09-2008 17:43:02 18 C 10.91 g/m*3 18 C 0 km/h
810 06-09-2008 17:55:02 18.1 C 11.12 g/m*3 18.1 C 0 km/h
811 06-09-2008 18:07:01 18.3 C 10.94 g/m*3 18.3 C 0 km/h
812 06-09-2008 18:19:02 18.5 C 10.76 g/m*3 18.5 C 0 km/h
813 06-09-2008 18:31:01 18.5 C 10.76 g/m*3 18.5 C 0 km/h
814 06-09-2008 18:43:01 18.4 C 10.85 g/m*3 18.4 C 0 km/h
815 06-09-2008 18:55:03 18 C 10.75 g/m*3 18 C 0 km/h
816 06-09-2008 19:07:02 17.9 C 10.99 g/m*3 17.9 C 0 km/h
817 06-09-2008 19:19:02 17.7 C 11.01 g/m*3 17.7 C 0 km/h
818 06-09-2008 19:31:02 17.5 C 11.03 g/m*3 17.5 C 0 km/h
819 06-09-2008 19:43:02 17.4 C 10.82 g/m*3 17.4 C 0 km/h
820 06-09-2008 19:55:02 17.5 C 10.88 g/m*3 17.5 C 0 km/h
821 06-09-2008 20:07:02 17.2 C 10.98 g/m*3 17.2 C 0 km/h
822 06-09-2008 20:19:02 17.1 C 10.92 g/m*3 17.1 C 0 km/h
823 06-09-2008 20:31:02 16.9 C 10.93 g/m*3 16.9 C 0 km/h
824 06-09-2008 20:43:02 16.8 C 10.87 g/m*3 16.8 C 0 km/h
825 06-09-2008 20:55:02 16.8 C 10.58 g/m*3 16.8 C 0 km/h
Sensor: Nr:Datum:Temp:Abs-Feuchte:Windchill:Wind:
Aussen-T/F 826 06-09-2008 21:07:02 16.7 C 10.23 g/m*3 16.7 C 0 km/h
827 06-09-2008 21:19:02 16.6 C 10.31 g/m*3 16.6 C 0 km/h
828 06-09-2008 21:31:02 16.4 C 10.33 g/m*3 16.4 C 0 km/h
829 06-09-2008 21:43:02 16.2 C 10.34 g/m*3 16.2 C 0 km/h
830 06-09-2008 21:55:01 16 C 10.49 g/m*3 16 C 0 km/h
831 06-09-2008 22:07:01 15.9 C 10.56 g/m*3 15.9 C 0 km/h
832 06-09-2008 22:20:02 15.9 C 10.56 g/m*3 15.9 C 0 km/h
833 06-09-2008 22:32:02 15.7 C 10.57 g/m*3 15.7 C 0 km/h
834 06-09-2008 22:44:02 15.6 C 10.51 g/m*3 15.6 C 0 km/h
835 06-09-2008 22:56:02 15.5 C 10.44 g/m*3 15.5 C 0 km/h
836 06-09-2008 23:08:02 15.4 C 10.38 g/m*3 15.4 C 0 km/h
837 06-09-2008 23:20:02 15.4 C 10.51 g/m*3 15.4 C 0 km/h
838 06-09-2008 23:32:02 15.4 C 10.38 g/m*3 15.4 C 0 km/h
839 06-09-2008 23:44:02 15.6 C 10.51 g/m*3 15.6 C 0 km/h
840 06-09-2008 23:56:02 15.6 C 10.51 g/m*3 15.6 C 0 km/h
841 07-09-2008 00:08:02 15.3 C 10.19 g/m*3 15.3 C 0 km/h
842 07-09-2008 00:20:02 15.2 C 10.25 g/m*3 15.2 C 0 km/h
843 07-09-2008 00:32:02 15.2 C 10.25 g/m*3 15.2 C 0 km/h
844 07-09-2008 00:44:02 15.3 C 10.32 g/m*3 15.3 C 0 km/h
845 07-09-2008 00:56:02 15.3 C 10.32 g/m*3 15.3 C 0 km/h
846 07-09-2008 01:08:02 15.3 C 10.32 g/m*3 15.3 C 0 km/h
847 07-09-2008 01:20:02 15.2 C 10.25 g/m*3 15.2 C 0 km/h
848 07-09-2008 01:32:03 15.3 C 10.19 g/m*3 15.3 C 0 km/h
849 07-09-2008 01:44:03 15.3 C 10.06 g/m*3 15.3 C 0 km/h
850 07-09-2008 01:56:03 15.2 C 9.99 g/m*3 15.2 C 0 km/h
Sensor: Nr:Datum:Temp:Abs-Feuchte:Windchill:Wind:
Aussen-T/F 851 07-09-2008 02:08:03 15.3 C 10.06 g/m*3 15.3 C 0 km/h
852 07-09-2008 02:20:03 15.3 C 9.92 g/m*3 15.3 C 0 km/h
853 07-09-2008 02:32:03 15.1 C 9.8 g/m*3 15.1 C 0 km/h
854 07-09-2008 02:44:03 15 C 9.87 g/m*3 15 C 0 km/h
855 07-09-2008 02:56:03 14.7 C 9.82 g/m*3 14.7 C 0 km/h
856 07-09-2008 03:08:03 14.4 C 9.64 g/m*3 14.4 C 0 km/h
857 07-09-2008 03:20:03 14.3 C 9.71 g/m*3 14.3 C 0 km/h
858 07-09-2008 03:32:03 14.4 C 9.77 g/m*3 14.4 C 0 km/h
859 07-09-2008 03:44:03 14.3 C 9.58 g/m*3 14.3 C 0 km/h
860 07-09-2008 03:56:03 14.1 C 9.47 g/m*3 14.1 C 0 km/h
861 07-09-2008 04:08:03 14.1 C 9.59 g/m*3 14.1 C 0 km/h
862 07-09-2008 04:20:03 14.1 C 9.47 g/m*3 14.1 C 0 km/h
863 07-09-2008 04:32:03 13.8 C 9.53 g/m*3 13.8 C 0 km/h
864 07-09-2008 04:44:03 14.1 C 9.59 g/m*3 14.1 C 0 km/h
865 07-09-2008 04:56:03 14.2 C 9.65 g/m*3 14.2 C 0 km/h
866 07-09-2008 05:08:03 13.9 C 9.47 g/m*3 13.9 C 0 km/h
867 07-09-2008 05:20:04 13.7 C 9.47 g/m*3 13.7 C 0 km/h
868 07-09-2008 05:32:04 13.5 C 9.47 g/m*3 13.5 C 0 km/h
869 07-09-2008 05:44:04 13.2 C 9.42 g/m*3 13.2 C 0 km/h
870 07-09-2008 05:56:04 13.1 C 9.47 g/m*3 13.1 C 0 km/h
871 07-09-2008 06:08:04 13.1 C 9.47 g/m*3 13.1 C 0 km/h
872 07-09-2008 06:20:04 13.1 C 9.47 g/m*3 13.1 C 0 km/h
873 07-09-2008 06:32:04 13.2 C 9.42 g/m*3 13.2 C 0 km/h
874 07-09-2008 06:44:04 13.5 C 9.59 g/m*3 13.5 C 0 km/h
875 07-09-2008 06:56:04 13.7 C 9.47 g/m*3 13.7 C 0 km/h
Sensor: Nr:Datum:Temp:Abs-Feuchte:Windchill:Wind:
Aussen-T/F 876 07-09-2008 07:08:04 13.8 C 9.29 g/m*3 13.8 C 0 km/h
877 07-09-2008 07:20:04 13.8 C 9.17 g/m*3 13.8 C 0 km/h
878 07-09-2008 07:32:04 13.8 C 9.17 g/m*3 13.8 C 0 km/h
879 07-09-2008 07:44:04 14.1 C 9.1 g/m*3 14.1 C 0 km/h
880 07-09-2008 07:56:04 14.3 C 8.97 g/m*3 14.3 C 0 km/h
881 07-09-2008 08:08:04 14.3 C 9.09 g/m*3 14.3 C 0 km/h
882 07-09-2008 08:20:04 14.5 C 9.2 g/m*3 14.5 C 0 km/h
883 07-09-2008 08:32:04 14.6 C 9.26 g/m*3 14.6 C 0 km/h
884 07-09-2008 08:44:04 14.7 C 9.07 g/m*3 14.7 C 0 km/h
885 07-09-2008 08:56:04 15.3 C 9.27 g/m*3 15.3 C 0 km/h
886 07-09-2008 09:08:01 15.8 C 9.42 g/m*3 15.8 C 0 km/h
887 07-09-2008 09:20:02 16.1 C 8.5 g/m*3 16.1 C 0 km/h
888 07-09-2008 09:32:02 16.1 C 8.5 g/m*3 16.1 C 0 km/h
889 07-09-2008 09:44:02 15.9 C 8.4 g/m*3 15.9 C 0 km/h
890 07-09-2008 09:56:03 16.3 C 8.46 g/m*3 16.3 C 0 km/h
891 07-09-2008 10:08:02 17.3 C 8.4 g/m*3 17.3 C 0 km/h
892 07-09-2008 10:20:03 18.2 C 8.39 g/m*3 18.2 C 0 km/h
893 07-09-2008 10:32:02 18.2 C 8.24 g/m*3 18.2 C 0 km/h
894 07-09-2008 10:44:02 17.9 C 8.4 g/m*3 17.9 C 0 km/h
895 07-09-2008 10:56:03 17.6 C 8.4 g/m*3 17.6 C 0 km/h
896 07-09-2008 11:08:02 17.1 C 8.73 g/m*3 17.1 C 0 km/h
897 07-09-2008 11:20:03 16.9 C 8.63 g/m*3 16.9 C 0 km/h
898 07-09-2008 11:32:02 17.6 C 8.4 g/m*3 17.6 C 0 km/h
899 07-09-2008 11:44:02 17.9 C 8.24 g/m*3 17.9 C 0 km/h
900 07-09-2008 11:56:01 18.2 C 8.08 g/m*3 18.2 C 0 km/h
Sensor: Nr:Datum:Temp:Abs-Feuchte:Windchill:Wind:
Aussen-T/F 901 07-09-2008 12:08:02 18.3 C 7.82 g/m*3 18.3 C 0 km/h
902 07-09-2008 12:20:01 18.6 C 8.12 g/m*3 18.6 C 0 km/h
903 07-09-2008 12:32:01 18.7 C 8.33 g/m*3 18.7 C 0 km/h
904 07-09-2008 12:44:01 19.1 C 8.03 g/m*3 19.1 C 0 km/h
905 07-09-2008 12:56:01 19.4 C 8.34 g/m*3 19.4 C 0 km/h
906 07-09-2008 13:08:02 19 C 8.15 g/m*3 19 C 0 km/h
907 07-09-2008 13:20:01 19.1 C 8.36 g/m*3 19.1 C 0 km/h
908 07-09-2008 13:32:02 19.3 C 8.29 g/m*3 19.3 C 0 km/h
909 07-09-2008 13:44:02 20 C 8.3 g/m*3 20 C 0 km/h
910 07-09-2008 13:56:02 20.7 C 8.46 g/m*3 20.7 C 0 km/h
911 07-09-2008 14:08:02 20 C 8.12 g/m*3 20 C 0 km/h
912 07-09-2008 14:20:02 20.4 C 8.31 g/m*3 20.4 C 0 km/h
913 07-09-2008 14:32:02 20.6 C 8.05 g/m*3 20.6 C 0 km/h
914 07-09-2008 14:44:02 20.6 C 8.23 g/m*3 20.6 C 0 km/h
915 07-09-2008 14:56:02 20 C 8.12 g/m*3 20 C 0 km/h
916 07-09-2008 15:08:01 19.2 C 8.24 g/m*3 19.2 C 0 km/h
917 07-09-2008 15:20:02 18.9 C 8.75 g/m*3 18.9 C 0 km/h
918 07-09-2008 15:32:02 19.3 C 8.96 g/m*3 19.3 C 0 km/h
919 07-09-2008 15:44:02 20.3 C 8.44 g/m*3 20.3 C 0 km/h
920 07-09-2008 15:56:03 20 C 8.47 g/m*3 20 C 0 km/h
921 07-09-2008 16:08:02 18.4 C 9.12 g/m*3 18.4 C 0 km/h
922 07-09-2008 16:20:02 16.7 C 11.08 g/m*3 16.7 C 0 km/h
923 07-09-2008 16:32:02 17.8 C 11.99 g/m*3 17.8 C 0 km/h
924 07-09-2008 16:44:02 18.7 C 11.53 g/m*3 18.7 C 0 km/h
925 07-09-2008 16:56:03 19.5 C 10.74 g/m*3 19.5 C 0 km/h
Sensor: Nr:Datum:Temp:Abs-Feuchte:Windchill:Wind:
Aussen-T/F 926 07-09-2008 17:08:02 19.3 C 9.79 g/m*3 19.3 C 0 km/h
927 07-09-2008 17:20:02 19 C 9.61 g/m*3 19 C 0 km/h
928 07-09-2008 17:32:02 19.6 C 9.28 g/m*3 19.6 C 0 km/h
929 07-09-2008 17:44:02 20.8 C 9.05 g/m*3 20.8 C 0 km/h
930 07-09-2008 17:56:02 21 C 8.43 g/m*3 21 C 0 km/h
931 07-09-2008 18:08:02 21.3 C 8.57 g/m*3 21.3 C 0 km/h
932 07-09-2008 18:20:02 21.4 C 8.62 g/m*3 21.4 C 0 km/h
933 07-09-2008 18:32:01 21.7 C 8.97 g/m*3 21.7 C 0 km/h
934 07-09-2008 18:44:01 20.6 C 8.23 g/m*3 20.6 C 0 km/h
935 07-09-2008 18:56:02 20.7 C 8.28 g/m*3 20.7 C 0 km/h
936 07-09-2008 19:08:02 20.1 C 8 g/m*3 20.1 C 0 km/h
937 07-09-2008 19:20:02 19.4 C 8.18 g/m*3 19.4 C 0 km/h
938 07-09-2008 19:32:02 19 C 9.13 g/m*3 19 C 0 km/h
939 07-09-2008 19:44:02 18.7 C 9.13 g/m*3 18.7 C 0 km/h
940 07-09-2008 19:56:02 18.4 C 9.44 g/m*3 18.4 C 0 km/h
941 07-09-2008 20:08:01 18.2 C 9.17 g/m*3 18.2 C 0 km/h
942 07-09-2008 20:20:01 18 C 9.22 g/m*3 18 C 0 km/h
943 07-09-2008 20:32:02 17.8 C 9.26 g/m*3 17.8 C 0 km/h
944 07-09-2008 20:44:02 17.6 C 9 g/m*3 17.6 C 0 km/h
945 07-09-2008 20:56:02 17.4 C 9.04 g/m*3 17.4 C 0 km/h
946 07-09-2008 21:08:02 17.2 C 8.93 g/m*3 17.2 C 0 km/h
947 07-09-2008 21:20:02 16.9 C 9.06 g/m*3 16.9 C 0 km/h
948 07-09-2008 21:32:02 16.7 C 9.38 g/m*3 16.7 C 0 km/h
949 07-09-2008 21:44:02 16.7 C 9.38 g/m*3 16.7 C 0 km/h
950 07-09-2008 21:56:02 16.4 C 9.35 g/m*3 16.4 C 0 km/h
Sensor: Nr:Datum:Temp:Abs-Feuchte:Windchill:Wind:
Aussen-T/F 951 07-09-2008 22:09:02 16.3 C 9.43 g/m*3 16.3 C 0 km/h
952 07-09-2008 22:21:02 16.3 C 9.43 g/m*3 16.3 C 0 km/h
953 07-09-2008 22:33:02 16.1 C 9.46 g/m*3 16.1 C 0 km/h
954 07-09-2008 22:45:02 16 C 9.54 g/m*3 16 C 0 km/h
955 07-09-2008 22:57:02 15.9 C 9.62 g/m*3 15.9 C 0 km/h
956 07-09-2008 23:09:02 15.8 C 9.56 g/m*3 15.8 C 0 km/h
957 07-09-2008 23:21:03 15.8 C 9.69 g/m*3 15.8 C 0 km/h
958 07-09-2008 23:33:03 15.9 C 9.62 g/m*3 15.9 C 0 km/h
959 07-09-2008 23:45:03 15.8 C 9.56 g/m*3 15.8 C 0 km/h
960 07-09-2008 23:57:03 15.8 C 9.56 g/m*3 15.8 C 0 km/h
961 08-09-2008 00:09:03 15.8 C 9.56 g/m*3 15.8 C 0 km/h
962 08-09-2008 00:21:03 15.7 C 9.5 g/m*3 15.7 C 0 km/h
963 08-09-2008 00:33:03 15.5 C 9.39 g/m*3 15.5 C 0 km/h
964 08-09-2008 00:45:03 15.6 C 9.44 g/m*3 15.6 C 0 km/h
965 08-09-2008 00:57:03 15.6 C 9.44 g/m*3 15.6 C 0 km/h
966 08-09-2008 01:09:03 15.5 C 9.39 g/m*3 15.5 C 0 km/h
967 08-09-2008 01:21:03 15.6 C 9.44 g/m*3 15.6 C 0 km/h
968 08-09-2008 01:33:03 15.5 C 9.39 g/m*3 15.5 C 0 km/h
969 08-09-2008 01:45:03 15.2 C 9.35 g/m*3 15.2 C 0 km/h
970 08-09-2008 01:57:03 15.1 C 9.42 g/m*3 15.1 C 0 km/h
971 08-09-2008 02:09:03 14.9 C 9.56 g/m*3 14.9 C 0 km/h
972 08-09-2008 02:21:03 14.9 C 9.56 g/m*3 14.9 C 0 km/h
973 08-09-2008 02:33:03 15.1 C 9.55 g/m*3 15.1 C 0 km/h
974 08-09-2008 02:45:03 15 C 9.36 g/m*3 15 C 0 km/h
975 08-09-2008 02:57:03 14.8 C 9.37 g/m*3 14.8 C 0 km/h
Sensor: Nr:Datum:Temp:Abs-Feuchte:Windchill:Wind:
Aussen-T/F 976 08-09-2008 03:09:04 14.4 C 9.27 g/m*3 14.4 C 0 km/h
977 08-09-2008 03:21:04 14.3 C 9.34 g/m*3 14.3 C 0 km/h
978 08-09-2008 03:33:04 14.2 C 9.4 g/m*3 14.2 C 0 km/h
979 08-09-2008 03:45:04 14.3 C 9.34 g/m*3 14.3 C 0 km/h
980 08-09-2008 03:57:04 14.2 C 9.4 g/m*3 14.2 C 0 km/h
981 08-09-2008 04:09:04 14.1 C 9.47 g/m*3 14.1 C 0 km/h
982 08-09-2008 04:21:04 14.2 C 9.52 g/m*3 14.2 C 0 km/h
983 08-09-2008 04:33:04 14.4 C 9.39 g/m*3 14.4 C 0 km/h
984 08-09-2008 04:45:04 14.5 C 9.33 g/m*3 14.5 C 0 km/h
985 08-09-2008 04:57:04 14.5 C 9.33 g/m*3 14.5 C 0 km/h
986 08-09-2008 05:09:04 14.4 C 9.27 g/m*3 14.4 C 0 km/h
987 08-09-2008 05:21:04 14.1 C 8.98 g/m*3 14.1 C 0 km/h
988 08-09-2008 05:33:04 14.1 C 8.86 g/m*3 14.1 C 0 km/h
989 08-09-2008 05:45:04 14 C 8.81 g/m*3 14 C 0 km/h
990 08-09-2008 05:57:04 13.9 C 8.99 g/m*3 13.9 C 0 km/h
991 08-09-2008 06:09:04 13.5 C 8.89 g/m*3 13.5 C 0 km/h
992 08-09-2008 06:21:04 13.2 C 8.96 g/m*3 13.2 C 0 km/h
993 08-09-2008 06:33:04 13.1 C 9.01 g/m*3 13.1 C 0 km/h
994 08-09-2008 06:45:04 13 C 9.07 g/m*3 13 C 0 km/h
995 08-09-2008 06:57:05 12.8 C 9.07 g/m*3 12.8 C 0 km/h
996 08-09-2008 07:09:02 12.8 C 9.18 g/m*3 12.8 C 0 km/h
997 08-09-2008 07:21:02 12.8 C 9.3 g/m*3 12.8 C 0 km/h
998 08-09-2008 07:33:02 13.1 C 9.36 g/m*3 13.1 C 0 km/h
999 08-09-2008 07:45:02 13.7 C 9.71 g/m*3 13.7 C 0 km/h
1000 08-09-2008 07:57:02 14.2 C 9.65 g/m*3 14.2 C 0 km/h
Sensor: Nr:Datum:Temp:Abs-Feuchte:Windchill:Wind:
Aussen-T/F 1001 08-09-2008 08:09:02 14.4 C 9.52 g/m*3 14.4 C 0 km/h
1002 08-09-2008 08:21:02 14.5 C 9.58 g/m*3 14.5 C 0 km/h
1003 08-09-2008 08:33:02 14.7 C 9.57 g/m*3 14.7 C 0 km/h
1004 08-09-2008 08:45:02 14.8 C 9.63 g/m*3 14.8 C 0 km/h
1005 08-09-2008 08:57:02 14.9 C 9.56 g/m*3 14.9 C 0 km/h
1006 08-09-2008 09:09:02 15.2 C 9.61 g/m*3 15.2 C 0 km/h
1007 08-09-2008 09:21:03 15.3 C 9.53 g/m*3 15.3 C 0 km/h
1008 08-09-2008 09:33:02 15.5 C 9.39 g/m*3 15.5 C 0 km/h
1009 08-09-2008 09:45:02 15.8 C 9.29 g/m*3 15.8 C 0 km/h
1010 08-09-2008 09:57:02 16.1 C 9.18 g/m*3 16.1 C 0 km/h
1011 08-09-2008 10:09:02 16.3 C 9.16 g/m*3 16.3 C 0 km/h
1012 08-09-2008 10:21:02 16.6 C 9.04 g/m*3 16.6 C 0 km/h
1013 08-09-2008 10:33:02 16.9 C 9.06 g/m*3 16.9 C 0 km/h
1014 08-09-2008 10:45:02 17.1 C 8.73 g/m*3 17.1 C 0 km/h
1015 08-09-2008 10:57:02 17.3 C 8.4 g/m*3 17.3 C 0 km/h
1016 08-09-2008 11:09:02 17.6 C 8.4 g/m*3 17.6 C 0 km/h
1017 08-09-2008 11:21:02 17.6 C 8.55 g/m*3 17.6 C 0 km/h
1018 08-09-2008 11:33:02 17.3 C 8.4 g/m*3 17.3 C 0 km/h
1019 08-09-2008 11:45:01 18.2 C 8.24 g/m*3 18.2 C 0 km/h
1020 08-09-2008 11:57:01 18.7 C 8.01 g/m*3 18.7 C 0 km/h
1021 08-09-2008 12:09:02 18.9 C 7.94 g/m*3 18.9 C 0 km/h
1022 08-09-2008 12:21:01 19.4 C 7.84 g/m*3 19.4 C 0 km/h
1023 08-09-2008 12:33:02 19.7 C 7.64 g/m*3 19.7 C 0 km/h
1024 08-09-2008 12:45:02 19.8 C 7.52 g/m*3 19.8 C 0 km/h
1025 08-09-2008 12:57:02 19.6 C 7.43 g/m*3 19.6 C 0 km/h
Sensor: Nr:Datum:Temp:Abs-Feuchte:Windchill:Wind:
Aussen-T/F 1026 08-09-2008 13:09:01 20.7 C 7.56 g/m*3 20.7 C 0 km/h
1027 08-09-2008 13:21:02 20.8 C 7.42 g/m*3 20.8 C 0 km/h
1028 08-09-2008 13:33:01 20.5 C 7.3 g/m*3 20.5 C 0 km/h
1029 08-09-2008 13:45:02 20.7 C 7.38 g/m*3 20.7 C 0 km/h
1030 08-09-2008 13:57:02 21.6 C 7.4 g/m*3 21.6 C 0 km/h
1031 08-09-2008 14:09:01 22 C 6.79 g/m*3 22 C 0 km/h
1032 08-09-2008 14:21:02 21.9 C 7.14 g/m*3 21.9 C 0 km/h
1033 08-09-2008 14:33:01 22.1 C 6.83 g/m*3 22.1 C 0 km/h
1034 08-09-2008 14:45:01 22.3 C 6.71 g/m*3 22.3 C 0 km/h
1035 08-09-2008 14:57:01 23 C 6.58 g/m*3 23 C 0 km/h
1036 08-09-2008 15:09:02 23.2 C 6.44 g/m*3 23.2 C 0 km/h
1037 08-09-2008 15:21:01 23.7 C 6.63 g/m*3 23.7 C 0 km/h
1038 08-09-2008 15:33:01 23.7 C 6.42 g/m*3 23.7 C 0 km/h
1039 08-09-2008 15:49:01 23.1 C 6.41 g/m*3 23.1 C 0 km/h
1040 08-09-2008 16:01:07 24 C 6.53 g/m*3 24 C 0 km/h
1041 08-09-2008 16:13:02 24.1 C 5.91 g/m*3 24.1 C 0 km/h
1042 08-09-2008 16:25:01 23.8 C 6.24 g/m*3 23.8 C 0 km/h
1043 08-09-2008 16:37:02 23.7 C 6.42 g/m*3 23.7 C 0 km/h
1044 08-09-2008 16:49:02 24 C 5.87 g/m*3 24 C 0 km/h
1045 08-09-2008 17:01:02 23.3 C 6.27 g/m*3 23.3 C 0 km/h
1046 08-09-2008 17:13:02 24.1 C 6.13 g/m*3 24.1 C 0 km/h
1047 08-09-2008 17:20:03 24.1 C 4.38 g/m*3 24.1 C 0 km/h
1048 08-09-2008 17:25:03 24.3 C 5.97 g/m*3 24.3 C 0 km/h
1049 08-09-2008 17:30:03 24.2 C 5.94 g/m*3 24.2 C 0 km/h
1050 08-09-2008 17:35:03 24.2 C 5.72 g/m*3 24.2 C 0 km/h
Sensor: Nr:Datum:Temp:Abs-Feuchte:Windchill:Wind:
Aussen-T/F 1051 08-09-2008 17:40:03 23.8 C 5.81 g/m*3 23.8 C 0 km/h
1052 08-09-2008 17:45:02 23.4 C 6.1 g/m*3 23.4 C 0 km/h
1053 08-09-2008 17:50:02 23.2 C 6.24 g/m*3 23.2 C 0 km/h
1054 08-09-2008 17:55:02 22.9 C 6.34 g/m*3 22.9 C 0 km/h
1055 08-09-2008 18:00:02 23.5 C 6.56 g/m*3 23.5 C 0 km/h
1056 08-09-2008 18:05:01 24.2 C 6.38 g/m*3 24.2 C 0 km/h
1057 08-09-2008 18:10:01 23.7 C 6.42 g/m*3 23.7 C 0 km/h
1058 08-09-2008 18:15:02 23.2 C 6.24 g/m*3 23.2 C 0 km/h
1059 08-09-2008 18:20:02 22.9 C 6.54 g/m*3 22.9 C 0 km/h
1060 08-09-2008 18:25:02 23.3 C 6.48 g/m*3 23.3 C 0 km/h
1061 08-09-2008 18:30:02 22.9 C 6.34 g/m*3 22.9 C 0 km/h
1062 08-09-2008 18:35:01 23 C 6.37 g/m*3 23 C 0 km/h
1063 08-09-2008 18:40:01 23.2 C 6.44 g/m*3 23.2 C 0 km/h
1064 08-09-2008 18:45:01 23 C 6.37 g/m*3 23 C 0 km/h
1065 08-09-2008 18:50:01 23 C 6.58 g/m*3 23 C 0 km/h
1066 08-09-2008 18:55:01 22.6 C 6.63 g/m*3 22.6 C 0 km/h
1067 08-09-2008 19:00:01 22.5 C 6.99 g/m*3 22.5 C 0 km/h
1068 08-09-2008 19:05:02 22.6 C 7.43 g/m*3 22.6 C 0 km/h
1069 08-09-2008 19:10:02 22.7 C 7.07 g/m*3 22.7 C 0 km/h
1070 08-09-2008 19:15:02 22.4 C 7.15 g/m*3 22.4 C 0 km/h
1071 08-09-2008 19:20:02 22.3 C 7.11 g/m*3 22.3 C 0 km/h
1072 08-09-2008 19:25:02 22.1 C 7.22 g/m*3 22.1 C 0 km/h
1073 08-09-2008 19:30:02 21.7 C 7.25 g/m*3 21.7 C 0 km/h
1074 08-09-2008 19:35:02 21.4 C 7.31 g/m*3 21.4 C 0 km/h
1075 08-09-2008 19:40:02 20.7 C 7.38 g/m*3 20.7 C 0 km/h
Sensor: Nr:Datum:Temp:Abs-Feuchte:Windchill:Wind:
Aussen-T/F 1076 08-09-2008 19:45:02 20.1 C 7.3 g/m*3 20.1 C 0 km/h
1077 08-09-2008 19:50:02 19.9 C 7.39 g/m*3 19.9 C 0 km/h
1078 08-09-2008 19:55:02 19.6 C 7.43 g/m*3 19.6 C 0 km/h
1079 08-09-2008 20:00:02 19.1 C 7.38 g/m*3 19.1 C 0 km/h
1080 08-09-2008 20:05:01 18.9 C 7.29 g/m*3 18.9 C 0 km/h
1081 08-09-2008 20:10:01 18.8 C 7.57 g/m*3 18.8 C 0 km/h
1082 08-09-2008 20:15:02 18.6 C 7.32 g/m*3 18.6 C 0 km/h
1083 08-09-2008 20:20:02 18.5 C 7.59 g/m*3 18.5 C 0 km/h
1084 08-09-2008 20:25:02 18.4 C 7.71 g/m*3 18.4 C 0 km/h
1085 08-09-2008 20:30:02 18.2 C 7.46 g/m*3 18.2 C 0 km/h
1086 08-09-2008 20:35:01 17.9 C 7.48 g/m*3 17.9 C 0 km/h
1087 08-09-2008 20:40:01 17.8 C 7.59 g/m*3 17.8 C 0 km/h
1088 08-09-2008 20:45:01 17.7 C 7.85 g/m*3 17.7 C 0 km/h
1089 08-09-2008 20:50:01 17.5 C 7.9 g/m*3 17.5 C 0 km/h
1090 08-09-2008 20:55:01 17.4 C 7.85 g/m*3 17.4 C 0 km/h
1091 08-09-2008 21:00:01 17.4 C 7.85 g/m*3 17.4 C 0 km/h
1092 08-09-2008 21:05:02 17.4 C 8 g/m*3 17.4 C 0 km/h
1093 08-09-2008 21:10:02 17.3 C 7.81 g/m*3 17.3 C 0 km/h
1094 08-09-2008 21:16:03 17.2 C 7.76 g/m*3 17.2 C 0 km/h
1095 08-09-2008 21:21:03 17.4 C 8 g/m*3 17.4 C 0 km/h
1096 08-09-2008 21:26:03 16.9 C 8.05 g/m*3 16.9 C 0 km/h
1097 08-09-2008 21:31:03 16.9 C 8.05 g/m*3 16.9 C 0 km/h
1098 08-09-2008 21:36:03 16.6 C 8.19 g/m*3 16.6 C 0 km/h
1099 08-09-2008 21:41:03 16.5 C 8 g/m*3 16.5 C 0 km/h
1100 08-09-2008 21:46:03 16.5 C 8.14 g/m*3 16.5 C 0 km/h
Sensor: Nr:Datum:Temp:Abs-Feuchte:Windchill:Wind:
Aussen-T/F 1101 08-09-2008 21:51:03 16.4 C 8.37 g/m*3 16.4 C 0 km/h
1102 08-09-2008 21:56:03 16.2 C 8.27 g/m*3 16.2 C 0 km/h
1103 08-09-2008 22:01:03 16.1 C 8.22 g/m*3 16.1 C 0 km/h
1104 08-09-2008 22:06:03 15.9 C 8.26 g/m*3 15.9 C 0 km/h
1105 08-09-2008 22:11:03 15.8 C 8.35 g/m*3 15.8 C 0 km/h
1106 08-09-2008 22:16:04 15.6 C 8.25 g/m*3 15.6 C 0 km/h
1107 08-09-2008 22:21:04 15.5 C 8.2 g/m*3 15.5 C 0 km/h
1108 08-09-2008 22:26:04 15.5 C 8.2 g/m*3 15.5 C 0 km/h
1109 08-09-2008 22:31:04 15.4 C 8.15 g/m*3 15.4 C 0 km/h
1110 08-09-2008 22:36:04 15.3 C 8.1 g/m*3 15.3 C 0 km/h
1111 08-09-2008 22:41:04 15.4 C 8.28 g/m*3 15.4 C 0 km/h
1112 08-09-2008 22:46:04 15.3 C 8.23 g/m*3 15.3 C 0 km/h
1113 08-09-2008 22:51:04 15.2 C 8.18 g/m*3 15.2 C 0 km/h
1114 08-09-2008 22:56:04 15.1 C 8.26 g/m*3 15.1 C 0 km/h
1115 08-09-2008 23:01:04 15 C 8.21 g/m*3 15 C 0 km/h
1116 08-09-2008 23:06:04 14.9 C 8.41 g/m*3 14.9 C 0 km/h
1117 08-09-2008 23:11:04 14.8 C 8.36 g/m*3 14.8 C 0 km/h
1118 08-09-2008 23:16:04 14.7 C 8.44 g/m*3 14.7 C 0 km/h
1119 08-09-2008 23:21:04 14.7 C 8.44 g/m*3 14.7 C 0 km/h
1120 08-09-2008 23:26:04 14.7 C 8.44 g/m*3 14.7 C 0 km/h
1121 08-09-2008 23:31:04 14.7 C 8.44 g/m*3 14.7 C 0 km/h
1122 08-09-2008 23:36:04 14.7 C 8.44 g/m*3 14.7 C 0 km/h
1123 08-09-2008 23:41:04 14.5 C 8.33 g/m*3 14.5 C 0 km/h
1124 08-09-2008 23:46:04 14.3 C 8.35 g/m*3 14.3 C 0 km/h
1125 08-09-2008 23:51:04 14.2 C 8.3 g/m*3 14.2 C 0 km/h
Sensor: Nr:Datum:Temp:Abs-Feuchte:Windchill:Wind:
Aussen-T/F 1126 08-09-2008 23:56:05 14.2 C 8.43 g/m*3 14.2 C 0 km/h
1127 09-09-2008 00:01:05 14 C 8.32 g/m*3 14 C 0 km/h
1128 09-09-2008 00:06:05 13.9 C 8.51 g/m*3 13.9 C 0 km/h
1129 09-09-2008 00:11:05 13.8 C 8.58 g/m*3 13.8 C 0 km/h
1130 09-09-2008 00:16:05 13.7 C 8.53 g/m*3 13.7 C 0 km/h
1131 09-09-2008 00:21:05 13.6 C 8.59 g/m*3 13.6 C 0 km/h
1132 09-09-2008 00:26:05 13.6 C 8.59 g/m*3 13.6 C 0 km/h
1133 09-09-2008 00:31:05 13.5 C 8.54 g/m*3 13.5 C 0 km/h
1134 09-09-2008 00:36:05 13.5 C 8.54 g/m*3 13.5 C 0 km/h
1135 09-09-2008 00:41:05 13.4 C 8.6 g/m*3 13.4 C 0 km/h
1136 09-09-2008 00:46:05 13.3 C 8.55 g/m*3 13.3 C 0 km/h
1137 09-09-2008 00:51:05 13.2 C 8.5 g/m*3 13.2 C 0 km/h
1138 09-09-2008 00:56:05 13.1 C 8.44 g/m*3 13.1 C 0 km/h
1139 09-09-2008 01:01:05 13.1 C 8.44 g/m*3 13.1 C 0 km/h
1140 09-09-2008 01:06:05 13 C 8.51 g/m*3 13 C 0 km/h
1141 09-09-2008 01:11:05 12.9 C 8.57 g/m*3 12.9 C 0 km/h
1142 09-09-2008 01:16:05 12.8 C 8.51 g/m*3 12.8 C 0 km/h
1143 09-09-2008 01:21:05 12.7 C 8.46 g/m*3 12.7 C 0 km/h
1144 09-09-2008 01:26:05 12.7 C 8.57 g/m*3 12.7 C 0 km/h
1145 09-09-2008 01:31:06 12.7 C 8.57 g/m*3 12.7 C 0 km/h
1146 09-09-2008 01:36:06 12.6 C 8.52 g/m*3 12.6 C 0 km/h
1147 09-09-2008 01:41:06 12.6 C 8.52 g/m*3 12.6 C 0 km/h
1148 09-09-2008 01:46:06 12.5 C 8.47 g/m*3 12.5 C 0 km/h
1149 09-09-2008 01:51:06 12.5 C 8.47 g/m*3 12.5 C 0 km/h
1150 09-09-2008 01:56:06 12.4 C 8.41 g/m*3 12.4 C 0 km/h
Sensor: Nr:Datum:Temp:Abs-Feuchte:Windchill:Wind:
Aussen-T/F 1151 09-09-2008 02:01:06 12.4 C 8.52 g/m*3 12.4 C 0 km/h
1152 09-09-2008 02:06:06 12.3 C 8.58 g/m*3 12.3 C 0 km/h
1153 09-09-2008 02:11:06 12.3 C 8.58 g/m*3 12.3 C 0 km/h
1154 09-09-2008 02:16:06 12.2 C 8.52 g/m*3 12.2 C 0 km/h
1155 09-09-2008 02:21:06 12.3 C 8.58 g/m*3 12.3 C 0 km/h
1156 09-09-2008 02:26:06 12.1 C 8.47 g/m*3 12.1 C 0 km/h
1157 09-09-2008 02:31:06 12.4 C 8.63 g/m*3 12.4 C 0 km/h
1158 09-09-2008 02:36:06 12 C 8.42 g/m*3 12 C 0 km/h
1159 09-09-2008 02:41:06 12 C 8.42 g/m*3 12 C 0 km/h
1160 09-09-2008 02:46:06 11.8 C 8.42 g/m*3 11.8 C 0 km/h
1161 09-09-2008 02:51:06 11.8 C 8.42 g/m*3 11.8 C 0 km/h
1162 09-09-2008 02:56:06 11.7 C 8.37 g/m*3 11.7 C 0 km/h
1163 09-09-2008 03:01:06 11.7 C 8.37 g/m*3 11.7 C 0 km/h
1164 09-09-2008 03:06:06 11.7 C 8.37 g/m*3 11.7 C 0 km/h
1165 09-09-2008 03:11:07 11.7 C 8.37 g/m*3 11.7 C 0 km/h
1166 09-09-2008 03:16:07 11.7 C 8.37 g/m*3 11.7 C 0 km/h
1167 09-09-2008 03:21:07 11.6 C 8.42 g/m*3 11.6 C 0 km/h
1168 09-09-2008 03:26:07 11.5 C 8.37 g/m*3 11.5 C 0 km/h
1169 09-09-2008 03:31:07 11.4 C 8.42 g/m*3 11.4 C 0 km/h
1170 09-09-2008 03:36:07 11.4 C 8.42 g/m*3 11.4 C 0 km/h
1171 09-09-2008 03:41:07 11.3 C 8.36 g/m*3 11.3 C 0 km/h
1172 09-09-2008 03:46:07 11.2 C 8.31 g/m*3 11.2 C 0 km/h
1173 09-09-2008 03:51:07 11.2 C 8.31 g/m*3 11.2 C 0 km/h
1174 09-09-2008 03:56:07 11.2 C 8.31 g/m*3 11.2 C 0 km/h
1175 09-09-2008 04:01:07 11.2 C 8.31 g/m*3 11.2 C 0 km/h
Sensor: Nr:Datum:Temp:Abs-Feuchte:Windchill:Wind:
Aussen-T/F 1176 09-09-2008 04:06:07 11.1 C 8.26 g/m*3 11.1 C 0 km/h
1177 09-09-2008 04:11:07 11.1 C 8.26 g/m*3 11.1 C 0 km/h
1178 09-09-2008 04:16:07 11.1 C 8.26 g/m*3 11.1 C 0 km/h
1179 09-09-2008 04:21:07 11.1 C 8.26 g/m*3 11.1 C 0 km/h
1180 09-09-2008 04:26:07 11.1 C 8.26 g/m*3 11.1 C 0 km/h
1181 09-09-2008 04:31:07 11 C 8.31 g/m*3 11 C 0 km/h
1182 09-09-2008 04:36:07 11 C 8.31 g/m*3 11 C 0 km/h
1183 09-09-2008 04:41:07 10.9 C 8.26 g/m*3 10.9 C 0 km/h
1184 09-09-2008 04:46:08 10.8 C 8.2 g/m*3 10.8 C 0 km/h
1185 09-09-2008 04:51:08 10.8 C 8.2 g/m*3 10.8 C 0 km/h
1186 09-09-2008 04:56:08 10.7 C 8.15 g/m*3 10.7 C 0 km/h
1187 09-09-2008 05:01:08 10.7 C 8.15 g/m*3 10.7 C 0 km/h
1188 09-09-2008 05:06:08 10.6 C 8.1 g/m*3 10.6 C 0 km/h
1189 09-09-2008 05:11:08 10.6 C 8.1 g/m*3 10.6 C 0 km/h
1190 09-09-2008 05:16:08 10.6 C 8.1 g/m*3 10.6 C 0 km/h
1191 09-09-2008 05:21:08 10.5 C 8.05 g/m*3 10.5 C 0 km/h
1192 09-09-2008 05:26:08 10.4 C 8 g/m*3 10.4 C 0 km/h
1193 09-09-2008 05:31:08 10.4 C 8 g/m*3 10.4 C 0 km/h
1194 09-09-2008 05:36:08 10.3 C 7.95 g/m*3 10.3 C 0 km/h
1195 09-09-2008 05:41:08 10.3 C 7.95 g/m*3 10.3 C 0 km/h
1196 09-09-2008 05:46:08 10.2 C 7.9 g/m*3 10.2 C 0 km/h
1197 09-09-2008 05:51:08 10.2 C 7.9 g/m*3 10.2 C 0 km/h
1198 09-09-2008 05:56:08 10.2 C 7.99 g/m*3 10.2 C 0 km/h
1199 09-09-2008 06:01:08 10 C 7.89 g/m*3 10 C 0 km/h
1200 09-09-2008 06:06:08 10 C 7.89 g/m*3 10 C 0 km/h
Sensor: Nr:Datum:Temp:Abs-Feuchte:Windchill:Wind:
Aussen-T/F 1201 09-09-2008 06:11:08 10 C 7.89 g/m*3 10 C 0 km/h
1202 09-09-2008 06:16:08 10 C 7.89 g/m*3 10 C 0 km/h
1203 09-09-2008 06:21:09 10 C 7.89 g/m*3 10 C 0 km/h
1204 09-09-2008 06:26:09 10 C 7.89 g/m*3 10 C 0 km/h
1205 09-09-2008 06:31:09 10.1 C 8.04 g/m*3 10.1 C 0 km/h
1206 09-09-2008 06:36:09 10.1 C 8.04 g/m*3 10.1 C 0 km/h
1207 09-09-2008 06:41:09 10.1 C 8.13 g/m*3 10.1 C 0 km/h
1208 09-09-2008 06:46:09 10.1 C 8.13 g/m*3 10.1 C 0 km/h
1209 09-09-2008 06:51:09 10.1 C 8.13 g/m*3 10.1 C 0 km/h
1210 09-09-2008 06:56:09 10.2 C 8.18 g/m*3 10.2 C 0 km/h
1211 09-09-2008 07:01:02 10.3 C 8.24 g/m*3 10.3 C 0 km/h
1212 09-09-2008 07:06:02 10.2 C 8.18 g/m*3 10.2 C 0 km/h
1213 09-09-2008 07:11:02 10.1 C 8.13 g/m*3 10.1 C 0 km/h
1214 09-09-2008 07:16:02 10.1 C 8.13 g/m*3 10.1 C 0 km/h
1215 09-09-2008 07:21:02 10.2 C 8.18 g/m*3 10.2 C 0 km/h
1216 09-09-2008 07:26:02 10.1 C 8.13 g/m*3 10.1 C 0 km/h
1217 09-09-2008 07:31:02 10.1 C 8.13 g/m*3 10.1 C 0 km/h
1218 09-09-2008 07:36:02 10 C 8.08 g/m*3 10 C 0 km/h
1219 09-09-2008 07:41:02 10 C 8.08 g/m*3 10 C 0 km/h
1220 09-09-2008 07:46:02 10.1 C 8.23 g/m*3 10.1 C 0 km/h
1221 09-09-2008 07:51:02 10.2 C 8.28 g/m*3 10.2 C 0 km/h
1222 09-09-2008 07:56:02 10.2 C 8.28 g/m*3 10.2 C 0 km/h
1223 09-09-2008 08:01:01 10.3 C 8.33 g/m*3 10.3 C 0 km/h
1224 09-09-2008 08:06:01 10.3 C 8.33 g/m*3 10.3 C 0 km/h
1225 09-09-2008 08:11:01 10.3 C 8.33 g/m*3 10.3 C 0 km/h
Sensor: Nr:Datum:Temp:Abs-Feuchte:Windchill:Wind:
Aussen-T/F 1226 09-09-2008 08:16:02 10.3 C 8.33 g/m*3 10.3 C 0 km/h
1227 09-09-2008 08:21:02 10.4 C 8.38 g/m*3 10.4 C 0 km/h
1228 09-09-2008 08:26:02 10.5 C 8.44 g/m*3 10.5 C 0 km/h
1229 09-09-2008 08:31:02 10.6 C 8.49 g/m*3 10.6 C 0 km/h
1230 09-09-2008 08:36:02 10.6 C 8.39 g/m*3 10.6 C 0 km/h
1231 09-09-2008 08:41:02 10.7 C 8.45 g/m*3 10.7 C 0 km/h
1232 09-09-2008 08:46:01 10.7 C 8.55 g/m*3 10.7 C 0 km/h
1233 09-09-2008 08:51:01 10.8 C 8.5 g/m*3 10.8 C 0 km/h
1234 09-09-2008 08:56:01 10.9 C 8.55 g/m*3 10.9 C 0 km/h
1235 09-09-2008 09:01:02 11.2 C 8.62 g/m*3 11.2 C 0 km/h
1236 09-09-2008 09:06:02 11.3 C 8.67 g/m*3 11.3 C 0 km/h
1237 09-09-2008 09:11:02 11.4 C 8.62 g/m*3 11.4 C 0 km/h
1238 09-09-2008 09:16:02 11.6 C 8.73 g/m*3 11.6 C 0 km/h
1239 09-09-2008 09:21:02 11.7 C 8.68 g/m*3 11.7 C 0 km/h
1240 09-09-2008 09:26:02 11.7 C 8.58 g/m*3 11.7 C 0 km/h
1241 09-09-2008 09:31:02 11.9 C 8.68 g/m*3 11.9 C 0 km/h
1242 09-09-2008 09:36:02 12 C 8.63 g/m*3 12 C 0 km/h
1243 09-09-2008 09:41:02 12.3 C 8.8 g/m*3 12.3 C 0 km/h
1244 09-09-2008 09:46:02 12.5 C 8.8 g/m*3 12.5 C 0 km/h
1245 09-09-2008 09:51:02 12.7 C 8.91 g/m*3 12.7 C 0 km/h
1246 09-09-2008 09:56:02 12.7 C 8.79 g/m*3 12.7 C 0 km/h
1247 09-09-2008 10:01:02 12.5 C 8.69 g/m*3 12.5 C 0 km/h
1248 09-09-2008 10:06:02 12.4 C 8.74 g/m*3 12.4 C 0 km/h
1249 09-09-2008 10:11:02 12.4 C 8.74 g/m*3 12.4 C 0 km/h
1250 09-09-2008 10:16:02 12.5 C 8.91 g/m*3 12.5 C 0 km/h
Sensor: Nr:Datum:Temp:Abs-Feuchte:Windchill:Wind:
Aussen-T/F 1251 09-09-2008 10:21:02 12.7 C 9.13 g/m*3 12.7 C 0 km/h
1252 09-09-2008 10:26:02 12.7 C 9.13 g/m*3 12.7 C 0 km/h
1253 09-09-2008 10:31:02 12.9 C 9.24 g/m*3 12.9 C 0 km/h
1254 09-09-2008 10:36:02 13 C 9.19 g/m*3 13 C 0 km/h
1255 09-09-2008 10:41:02 13.1 C 9.13 g/m*3 13.1 C 0 km/h
1256 09-09-2008 10:46:02 13.4 C 9.3 g/m*3 13.4 C 0 km/h
1257 09-09-2008 10:51:02 13.8 C 9.53 g/m*3 13.8 C 0 km/h
1258 09-09-2008 10:56:02 14.2 C 9.65 g/m*3 14.2 C 0 km/h
1259 09-09-2008 11:01:02 14.5 C 9.83 g/m*3 14.5 C 0 km/h
1260 09-09-2008 11:06:02 14.9 C 9.94 g/m*3 14.9 C 0 km/h
1261 09-09-2008 11:11:02 15.2 C 9.99 g/m*3 15.2 C 0 km/h
1262 09-09-2008 11:16:02 15.5 C 10.05 g/m*3 15.5 C 0 km/h
1263 09-09-2008 11:21:02 15.9 C 10.16 g/m*3 15.9 C 0 km/h
1264 09-09-2008 11:26:02 16.4 C 10.19 g/m*3 16.4 C 0 km/h
1265 09-09-2008 11:31:02 16.6 C 10.17 g/m*3 16.6 C 0 km/h
1266 09-09-2008 11:36:02 17.1 C 10.04 g/m*3 17.1 C 0 km/h
1267 09-09-2008 11:41:02 17.5 C 10.29 g/m*3 17.5 C 0 km/h
1268 09-09-2008 11:46:02 17.6 C 10.35 g/m*3 17.6 C 0 km/h
1269 09-09-2008 11:51:02 17.8 C 10.47 g/m*3 17.8 C 0 km/h
1270 09-09-2008 11:56:02 18.2 C 10.41 g/m*3 18.2 C 0 km/h
1271 09-09-2008 12:01:02 18.5 C 10.6 g/m*3 18.5 C 0 km/h
1272 09-09-2008 12:06:02 18.6 C 10.66 g/m*3 18.6 C 0 km/h
1273 09-09-2008 12:11:02 19.1 C 10.49 g/m*3 19.1 C 0 km/h
1274 09-09-2008 12:16:02 19.5 C 10.57 g/m*3 19.5 C 0 km/h
1275 09-09-2008 12:21:02 19.7 C 10.7 g/m*3 19.7 C 0 km/h
Sensor: Nr:Datum:Temp:Abs-Feuchte:Windchill:Wind:
Aussen-T/F 1276 09-09-2008 12:26:02 19.8 C 10.59 g/m*3 19.8 C 0 km/h
1277 09-09-2008 12:31:02 20.4 C 9.91 g/m*3 20.4 C 0 km/h
1278 09-09-2008 12:36:02 20.7 C 10.62 g/m*3 20.7 C 0 km/h
1279 09-09-2008 12:41:02 21 C 10.44 g/m*3 21 C 0 km/h
1280 09-09-2008 12:46:02 21.2 C 10.38 g/m*3 21.2 C 0 km/h
1281 09-09-2008 12:51:02 21.3 C 10.44 g/m*3 21.3 C 0 km/h
1282 09-09-2008 12:56:02 21.7 C 9.16 g/m*3 21.7 C 0 km/h
1283 09-09-2008 13:01:02 22.3 C 9.08 g/m*3 22.3 C 0 km/h
1284 09-09-2008 13:06:02 22.5 C 9.39 g/m*3 22.5 C 0 km/h
1285 09-09-2008 13:11:02 22.5 C 8.99 g/m*3 22.5 C 0 km/h
1286 09-09-2008 13:16:02 23 C 8.43 g/m*3 23 C 0 km/h
1287 09-09-2008 13:21:02 23.3 C 8.36 g/m*3 23.3 C 0 km/h
1288 09-09-2008 13:26:02 23.6 C 8.93 g/m*3 23.6 C 0 km/h
1289 09-09-2008 13:31:02 23.7 C 8.56 g/m*3 23.7 C 0 km/h
1290 09-09-2008 13:36:02 24.1 C 7.66 g/m*3 24.1 C 0 km/h
1291 09-09-2008 13:41:02 24.2 C 7.92 g/m*3 24.2 C 0 km/h
1292 09-09-2008 13:46:02 24.4 C 7.57 g/m*3 24.4 C 0 km/h
1293 09-09-2008 13:51:02 24.6 C 7.88 g/m*3 24.6 C 0 km/h
1294 09-09-2008 13:56:02 25.1 C 7.41 g/m*3 25.1 C 0 km/h
1295 09-09-2008 14:01:02 25.2 C 7.45 g/m*3 25.2 C 0 km/h
1296 09-09-2008 14:06:02 25.6 C 7.38 g/m*3 25.6 C 0 km/h
1297 09-09-2008 14:11:02 25.6 C 6.9 g/m*3 25.6 C 0 km/h
1298 09-09-2008 14:16:02 25.8 C 7.22 g/m*3 25.8 C 0 km/h
1299 09-09-2008 14:21:02 26.1 C 7.1 g/m*3 26.1 C 0 km/h
1300 09-09-2008 14:26:02 26.5 C 7.76 g/m*3 26.5 C 0 km/h
Sensor: Nr:Datum:Temp:Abs-Feuchte:Windchill:Wind:
Aussen-T/F 1301 09-09-2008 14:31:02 26.6 C 7.3 g/m*3 26.6 C 0 km/h
1302 09-09-2008 14:36:02 26.8 C 6.87 g/m*3 26.8 C 0 km/h
1303 09-09-2008 14:41:02 27 C 6.43 g/m*3 27 C 0 km/h
1304 09-09-2008 14:46:02 27 C 6.69 g/m*3 27 C 0 km/h
1305 09-09-2008 14:51:02 27.1 C 6.73 g/m*3 27.1 C 0 km/h
1306 09-09-2008 14:56:02 27.3 C 6.8 g/m*3 27.3 C 0 km/h
1307 09-09-2008 15:01:01 27.4 C 6.58 g/m*3 27.4 C 0 km/h
1308 09-09-2008 15:06:01 27.5 C 6.61 g/m*3 27.5 C 0 km/h
1309 09-09-2008 15:11:01 27.8 C 6.72 g/m*3 27.8 C 0 km/h
1310 09-09-2008 15:16:02 28 C 5.98 g/m*3 28 C 0 km/h
1311 09-09-2008 15:21:02 28.2 C 6.05 g/m*3 28.2 C 0 km/h
1312 09-09-2008 15:26:02 28.1 C 6.02 g/m*3 28.1 C 0 km/h
1313 09-09-2008 15:31:01 27.8 C 5.65 g/m*3 27.8 C 0 km/h
1314 09-09-2008 15:36:01 27.6 C 5.59 g/m*3 27.6 C 0 km/h
1315 09-09-2008 15:41:01 27.9 C 5.95 g/m*3 27.9 C 0 km/h
1316 09-09-2008 15:46:02 28.4 C 5.84 g/m*3 28.4 C 0 km/h
1317 09-09-2008 15:51:02 28.9 C 6.28 g/m*3 28.9 C 0 km/h
1318 09-09-2008 15:56:02 29.2 C 6.97 g/m*3 29.2 C 0 km/h
1319 09-09-2008 16:01:02 29.2 C 6.1 g/m*3 29.2 C 0 km/h
1320 09-09-2008 16:06:02 29.3 C 6.13 g/m*3 29.3 C 0 km/h
1321 09-09-2008 16:11:02 29.4 C 6.16 g/m*3 29.4 C 0 km/h
1322 09-09-2008 16:16:02 29.6 C 6.53 g/m*3 29.6 C 0 km/h
1323 09-09-2008 16:21:02 29.5 C 6.79 g/m*3 29.5 C 0 km/h
1324 09-09-2008 16:26:02 29.7 C 6.56 g/m*3 29.7 C 0 km/h
1325 09-09-2008 16:31:02 29.9 C 6.64 g/m*3 29.9 C 0 km/h
Sensor: Nr:Datum:Temp:Abs-Feuchte:Windchill:Wind:
Aussen-T/F 1326 09-09-2008 16:36:02 30 C 6.37 g/m*3 30 C 0 km/h
1327 09-09-2008 16:41:02 30.1 C 6.4 g/m*3 30.1 C 0 km/h
1328 09-09-2008 16:46:02 30.3 C 6.16 g/m*3 30.3 C 0 km/h
1329 09-09-2008 16:51:02 30.1 C 6.1 g/m*3 30.1 C 0 km/h
1330 09-09-2008 16:56:02 30 C 6.06 g/m*3 30 C 0 km/h
1331 09-09-2008 17:01:01 29.5 C 5.9 g/m*3 29.5 C 0 km/h
1332 09-09-2008 17:06:01 29.5 C 5.9 g/m*3 29.5 C 0 km/h
1333 09-09-2008 17:11:01 30.1 C 6.4 g/m*3 30.1 C 0 km/h
1334 09-09-2008 17:16:02 30 C 6.06 g/m*3 30 C 0 km/h
1335 09-09-2008 17:21:02 30.1 C 6.1 g/m*3 30.1 C 0 km/h
1336 09-09-2008 17:26:02 30 C 6.06 g/m*3 30 C 0 km/h
1337 09-09-2008 17:31:01 30 C 6.06 g/m*3 30 C 0 km/h
1338 09-09-2008 17:36:01 30 C 6.06 g/m*3 30 C 0 km/h
1339 09-09-2008 17:41:02 30.1 C 6.1 g/m*3 30.1 C 0 km/h
1340 09-09-2008 17:46:02 30.3 C 6.16 g/m*3 30.3 C 0 km/h
1341 09-09-2008 17:51:02 30.3 C 6.16 g/m*3 30.3 C 0 km/h
1342 09-09-2008 17:56:02 30.1 C 6.1 g/m*3 30.1 C 0 km/h
1343 09-09-2008 18:01:02 30.2 C 6.74 g/m*3 30.2 C 0 km/h
1344 09-09-2008 18:06:02 30.2 C 6.13 g/m*3 30.2 C 0 km/h
1345 09-09-2008 18:11:02 30 C 6.06 g/m*3 30 C 0 km/h
1346 09-09-2008 18:16:02 29.9 C 6.03 g/m*3 29.9 C 0 km/h
1347 09-09-2008 18:21:02 29.7 C 6.27 g/m*3 29.7 C 0 km/h
1348 09-09-2008 18:26:02 29.4 C 5.87 g/m*3 29.4 C 0 km/h
1349 09-09-2008 18:31:01 29 C 6.03 g/m*3 29 C 0 km/h
1350 09-09-2008 18:36:01 28.8 C 6.25 g/m*3 28.8 C 0 km/h
Sensor: Nr:Datum:Temp:Abs-Feuchte:Windchill:Wind:
Aussen-T/F 1351 09-09-2008 18:41:01 28.5 C 6.71 g/m*3 28.5 C 0 km/h
1352 09-09-2008 18:46:02 28 C 6.8 g/m*3 28 C 0 km/h
1353 09-09-2008 18:51:02 27.4 C 6.58 g/m*3 27.4 C 0 km/h
1354 09-09-2008 18:56:02 27.2 C 6.77 g/m*3 27.2 C 0 km/h
1355 09-09-2008 19:01:02 27 C 6.69 g/m*3 27 C 0 km/h
1356 09-09-2008 19:06:02 25.9 C 7.26 g/m*3 25.9 C 0 km/h
1357 09-09-2008 19:11:02 25.5 C 6.87 g/m*3 25.5 C 0 km/h
1358 09-09-2008 19:16:01 24.9 C 6.87 g/m*3 24.9 C 0 km/h
1359 09-09-2008 19:21:01 24.6 C 6.75 g/m*3 24.6 C 0 km/h
1360 09-09-2008 19:26:01 24.3 C 6.86 g/m*3 24.3 C 0 km/h
1361 09-09-2008 19:31:02 23.9 C 7.14 g/m*3 23.9 C 0 km/h
1362 09-09-2008 19:36:02 23.3 C 6.9 g/m*3 23.3 C 0 km/h
1363 09-09-2008 19:41:03 22.9 C 7.15 g/m*3 22.9 C 0 km/h
1364 09-09-2008 19:46:02 22.6 C 7.03 g/m*3 22.6 C 0 km/h
1365 09-09-2008 19:51:02 22.5 C 7.19 g/m*3 22.5 C 0 km/h
1366 09-09-2008 19:56:02 22.1 C 7.42 g/m*3 22.1 C 0 km/h
1367 09-09-2008 20:01:03 22.1 C 7.42 g/m*3 22.1 C 0 km/h
1368 09-09-2008 20:06:03 21.7 C 7.44 g/m*3 21.7 C 0 km/h
1369 09-09-2008 20:11:03 21.5 C 7.17 g/m*3 21.5 C 0 km/h
1370 09-09-2008 20:16:02 21.4 C 7.31 g/m*3 21.4 C 0 km/h
1371 09-09-2008 20:21:02 21.1 C 7 g/m*3 21.1 C 0 km/h
1372 09-09-2008 20:26:03 20.8 C 7.42 g/m*3 20.8 C 0 km/h
1373 09-09-2008 20:31:02 20.7 C 7.38 g/m*3 20.7 C 0 km/h
1374 09-09-2008 20:36:02 20.4 C 7.25 g/m*3 20.4 C 0 km/h
1375 09-09-2008 20:41:02 20.4 C 7.25 g/m*3 20.4 C 0 km/h
Sensor: Nr:Datum:Temp:Abs-Feuchte:Windchill:Wind:
Aussen-T/F 1376 09-09-2008 20:46:02 20.3 C 7.39 g/m*3 20.3 C 0 km/h
1377 09-09-2008 20:51:02 20.2 C 7.52 g/m*3 20.2 C 0 km/h
1378 09-09-2008 20:56:02 20.2 C 7.52 g/m*3 20.2 C 0 km/h
1379 09-09-2008 21:01:02 20.1 C 7.65 g/m*3 20.1 C 0 km/h
1380 09-09-2008 21:06:02 20.1 C 7.65 g/m*3 20.1 C 0 km/h
1381 09-09-2008 21:11:02 20 C 7.6 g/m*3 20 C 0 km/h
1382 09-09-2008 21:16:01 19.9 C 7.73 g/m*3 19.9 C 0 km/h
1383 09-09-2008 21:21:01 19.9 C 7.56 g/m*3 19.9 C 0 km/h
1384 09-09-2008 21:26:01 19.9 C 7.73 g/m*3 19.9 C 0 km/h
1385 09-09-2008 21:31:02 19.7 C 7.81 g/m*3 19.7 C 0 km/h
1386 09-09-2008 21:36:03 20.1 C 8 g/m*3 20.1 C 0 km/h
1387 09-09-2008 21:41:03 19.8 C 8.2 g/m*3 19.8 C 0 km/h
1388 09-09-2008 21:46:02 19.7 C 8.15 g/m*3 19.7 C 0 km/h
1389 09-09-2008 21:51:02 19.8 C 8.2 g/m*3 19.8 C 0 km/h
1390 09-09-2008 21:56:02 19.8 C 8.2 g/m*3 19.8 C 0 km/h
1391 09-09-2008 22:01:03 20 C 8.12 g/m*3 20 C 0 km/h
1392 09-09-2008 22:06:03 20.1 C 8 g/m*3 20.1 C 0 km/h
1393 09-09-2008 22:11:03 20.1 C 8 g/m*3 20.1 C 0 km/h
1394 09-09-2008 22:16:02 20.1 C 8.17 g/m*3 20.1 C 0 km/h
1395 09-09-2008 22:21:02 20.1 C 8.34 g/m*3 20.1 C 0 km/h
1396 09-09-2008 22:26:03 19.9 C 8.59 g/m*3 19.9 C 0 km/h
1397 09-09-2008 22:32:03 19.8 C 8.54 g/m*3 19.8 C 0 km/h
1398 09-09-2008 22:37:03 19.7 C 8.15 g/m*3 19.7 C 0 km/h
1399 09-09-2008 22:42:03 19.9 C 8.59 g/m*3 19.9 C 0 km/h
1400 09-09-2008 22:47:03 19.9 C 8.59 g/m*3 19.9 C 0 km/h
Sensor: Nr:Datum:Temp:Abs-Feuchte:Windchill:Wind:
Aussen-T/F 1401 09-09-2008 22:52:04 19.9 C 8.76 g/m*3 19.9 C 0 km/h
1402 09-09-2008 22:57:04 19.8 C 8.71 g/m*3 19.8 C 0 km/h
1403 09-09-2008 23:02:04 19.8 C 8.88 g/m*3 19.8 C 0 km/h
1404 09-09-2008 23:07:04 19.8 C 8.88 g/m*3 19.8 C 0 km/h
1405 09-09-2008 23:12:04 19.8 C 8.88 g/m*3 19.8 C 0 km/h
1406 09-09-2008 23:17:04 19.8 C 8.88 g/m*3 19.8 C 0 km/h
1407 09-09-2008 23:22:04 19.8 C 9.22 g/m*3 19.8 C 0 km/h
1408 09-09-2008 23:27:04 19.8 C 9.05 g/m*3 19.8 C 0 km/h
1409 09-09-2008 23:32:04 19.8 C 8.88 g/m*3 19.8 C 0 km/h
1410 09-09-2008 23:37:04 19.8 C 9.05 g/m*3 19.8 C 0 km/h
1411 09-09-2008 23:42:04 19.7 C 9 g/m*3 19.7 C 0 km/h
1412 09-09-2008 23:47:04 19.7 C 9.17 g/m*3 19.7 C 0 km/h
1413 09-09-2008 23:52:04 19.7 C 9.17 g/m*3 19.7 C 0 km/h
1414 09-09-2008 23:57:04 19.7 C 9.17 g/m*3 19.7 C 0 km/h
1415 10-09-2008 00:02:04 19.5 C 9.06 g/m*3 19.5 C 0 km/h
1416 10-09-2008 00:07:04 19.5 C 8.89 g/m*3 19.5 C 0 km/h
1417 10-09-2008 00:12:04 19.6 C 9.12 g/m*3 19.6 C 0 km/h
1418 10-09-2008 00:17:04 19.4 C 9.34 g/m*3 19.4 C 0 km/h
1419 10-09-2008 00:22:04 19.2 C 9.4 g/m*3 19.2 C 0 km/h
1420 10-09-2008 00:27:04 18.9 C 10.04 g/m*3 18.9 C 0 km/h
1421 10-09-2008 00:32:04 18.9 C 10.04 g/m*3 18.9 C 0 km/h
1422 10-09-2008 00:37:05 18.8 C 9.82 g/m*3 18.8 C 0 km/h
1423 10-09-2008 00:42:05 18.8 C 9.66 g/m*3 18.8 C 0 km/h
1424 10-09-2008 00:47:05 18.9 C 9.56 g/m*3 18.9 C 0 km/h
1425 10-09-2008 00:52:05 18.9 C 9.72 g/m*3 18.9 C 0 km/h
Sensor: Nr:Datum:Temp:Abs-Feuchte:Windchill:Wind:
Aussen-T/F 1426 10-09-2008 00:57:05 18.8 C 9.66 g/m*3 18.8 C 0 km/h
1427 10-09-2008 01:02:05 18.7 C 9.45 g/m*3 18.7 C 0 km/h
1428 10-09-2008 01:07:05 18.5 C 9.65 g/m*3 18.5 C 0 km/h
1429 10-09-2008 01:12:05 18.4 C 9.75 g/m*3 18.4 C 0 km/h
1430 10-09-2008 01:17:05 18.2 C 9.64 g/m*3 18.2 C 0 km/h
1431 10-09-2008 01:22:05 18 C 9.68 g/m*3 18 C 0 km/h
1432 10-09-2008 01:27:05 17.9 C 9.92 g/m*3 17.9 C 0 km/h
1433 10-09-2008 01:32:05 17.8 C 9.87 g/m*3 17.8 C 0 km/h
1434 10-09-2008 01:37:05 17.9 C 9.92 g/m*3 17.9 C 0 km/h
1435 10-09-2008 01:42:05 18 C 9.83 g/m*3 18 C 0 km/h
1436 10-09-2008 01:47:05 18 C 9.83 g/m*3 18 C 0 km/h
1437 10-09-2008 01:52:05 18 C 9.83 g/m*3 18 C 0 km/h
1438 10-09-2008 01:57:05 18.1 C 9.73 g/m*3 18.1 C 0 km/h
1439 10-09-2008 02:02:05 18.1 C 9.73 g/m*3 18.1 C 0 km/h
1440 10-09-2008 02:07:05 18.1 C 9.58 g/m*3 18.1 C 0 km/h
1441 10-09-2008 02:12:05 17.9 C 9.62 g/m*3 17.9 C 0 km/h
1442 10-09-2008 02:17:06 17.8 C 9.71 g/m*3 17.8 C 0 km/h
1443 10-09-2008 02:22:06 17.7 C 9.66 g/m*3 17.7 C 0 km/h
1444 10-09-2008 02:27:06 17.5 C 9.54 g/m*3 17.5 C 0 km/h
1445 10-09-2008 02:32:06 17.4 C 9.48 g/m*3 17.4 C 0 km/h
1446 10-09-2008 02:37:06 17.3 C 9.58 g/m*3 17.3 C 0 km/h
1447 10-09-2008 02:42:06 17.2 C 9.67 g/m*3 17.2 C 0 km/h
1448 10-09-2008 02:47:06 17.2 C 9.67 g/m*3 17.2 C 0 km/h
1449 10-09-2008 02:52:06 17 C 9.55 g/m*3 17 C 0 km/h
1450 10-09-2008 02:57:06 16.9 C 9.78 g/m*3 16.9 C 0 km/h
Sensor: Nr:Datum:Temp:Abs-Feuchte:Windchill:Wind:
Aussen-T/F 1451 10-09-2008 03:02:06 16.9 C 9.78 g/m*3 16.9 C 0 km/h
1452 10-09-2008 03:07:06 16.9 C 9.78 g/m*3 16.9 C 0 km/h
1453 10-09-2008 03:12:06 16.7 C 9.81 g/m*3 16.7 C 0 km/h
1454 10-09-2008 03:17:06 16.6 C 9.75 g/m*3 16.6 C 0 km/h
1455 10-09-2008 03:22:06 16.6 C 9.75 g/m*3 16.6 C 0 km/h
1456 10-09-2008 03:27:06 16.6 C 9.75 g/m*3 16.6 C 0 km/h
1457 10-09-2008 03:32:06 16.4 C 9.77 g/m*3 16.4 C 0 km/h
1458 10-09-2008 03:37:06 16.4 C 9.77 g/m*3 16.4 C 0 km/h
1459 10-09-2008 03:42:06 16.3 C 9.71 g/m*3 16.3 C 0 km/h
1460 10-09-2008 03:47:06 16.2 C 9.65 g/m*3 16.2 C 0 km/h
1461 10-09-2008 03:52:06 16.2 C 9.79 g/m*3 16.2 C 0 km/h
1462 10-09-2008 03:57:06 16.2 C 9.79 g/m*3 16.2 C 0 km/h
1463 10-09-2008 04:02:07 16 C 9.81 g/m*3 16 C 0 km/h
1464 10-09-2008 04:07:07 15.9 C 10.02 g/m*3 15.9 C 0 km/h
1465 10-09-2008 04:12:07 15.9 C 10.02 g/m*3 15.9 C 0 km/h
1466 10-09-2008 04:17:07 15.9 C 10.02 g/m*3 15.9 C 0 km/h
1467 10-09-2008 04:22:07 15.8 C 9.96 g/m*3 15.8 C 0 km/h
1468 10-09-2008 04:27:07 15.8 C 9.96 g/m*3 15.8 C 0 km/h
1469 10-09-2008 04:32:07 15.8 C 9.96 g/m*3 15.8 C 0 km/h
1470 10-09-2008 04:37:07 15.8 C 9.96 g/m*3 15.8 C 0 km/h
1471 10-09-2008 04:42:07 15.8 C 10.1 g/m*3 15.8 C 0 km/h
1472 10-09-2008 04:47:07 15.8 C 10.1 g/m*3 15.8 C 0 km/h
1473 10-09-2008 04:52:07 15.7 C 10.17 g/m*3 15.7 C 0 km/h
1474 10-09-2008 04:57:07 15.7 C 10.17 g/m*3 15.7 C 0 km/h
1475 10-09-2008 05:02:07 15.6 C 10.11 g/m*3 15.6 C 0 km/h
Sensor: Nr:Datum:Temp:Abs-Feuchte:Windchill:Wind:
Aussen-T/F 1476 10-09-2008 05:07:07 15.6 C 10.11 g/m*3 15.6 C 0 km/h
1477 10-09-2008 05:12:07 15.6 C 10.24 g/m*3 15.6 C 0 km/h
1478 10-09-2008 05:17:07 15.5 C 10.31 g/m*3 15.5 C 0 km/h
1479 10-09-2008 05:22:07 15.5 C 10.31 g/m*3 15.5 C 0 km/h
1480 10-09-2008 05:27:07 15.5 C 10.31 g/m*3 15.5 C 0 km/h
1481 10-09-2008 05:32:07 15.5 C 10.57 g/m*3 15.5 C 0 km/h
1482 10-09-2008 05:37:07 15.6 C 10.77 g/m*3 15.6 C 0 km/h
1483 10-09-2008 05:42:07 15.8 C 11.04 g/m*3 15.8 C 0 km/h
1484 10-09-2008 05:47:08 15.8 C 11.04 g/m*3 15.8 C 0 km/h
1485 10-09-2008 05:52:08 16 C 11.04 g/m*3 16 C 0 km/h
1486 10-09-2008 05:57:08 16 C 10.9 g/m*3 16 C 0 km/h
1487 10-09-2008 06:02:08 15.9 C 10.83 g/m*3 15.9 C 0 km/h
1488 10-09-2008 06:07:08 16 C 10.76 g/m*3 16 C 0 km/h
1489 10-09-2008 06:12:08 16.1 C 10.83 g/m*3 16.1 C 0 km/h
1490 10-09-2008 06:17:08 16.1 C 10.69 g/m*3 16.1 C 0 km/h
1491 10-09-2008 06:22:08 16.1 C 10.69 g/m*3 16.1 C 0 km/h
1492 10-09-2008 06:27:08 15.9 C 10.56 g/m*3 15.9 C 0 km/h
1493 10-09-2008 06:32:08 15.7 C 10.57 g/m*3 15.7 C 0 km/h
1494 10-09-2008 06:37:08 15.7 C 10.57 g/m*3 15.7 C 0 km/h
1495 10-09-2008 06:42:08 15.6 C 10.51 g/m*3 15.6 C 0 km/h
1496 10-09-2008 06:47:02 15.6 C 10.64 g/m*3 15.6 C 0 km/h
1497 10-09-2008 06:52:02 15.6 C 10.64 g/m*3 15.6 C 0 km/h
1498 10-09-2008 06:57:02 15.8 C 10.9 g/m*3 15.8 C 0 km/h
1499 10-09-2008 07:02:02 15.8 C 10.9 g/m*3 15.8 C 0 km/h
1500 10-09-2008 07:07:02 15.7 C 10.84 g/m*3 15.7 C 0 km/h
Sensor: Nr:Datum:Temp:Abs-Feuchte:Windchill:Wind:
Aussen-T/F 1501 10-09-2008 07:12:02 15.7 C 10.84 g/m*3 15.7 C 0 km/h
1502 10-09-2008 07:17:02 15.8 C 10.9 g/m*3 15.8 C 0 km/h
1503 10-09-2008 07:22:02 15.8 C 10.9 g/m*3 15.8 C 0 km/h
1504 10-09-2008 07:27:02 15.8 C 10.9 g/m*3 15.8 C 0 km/h
1505 10-09-2008 07:32:02 16.2 C 11.03 g/m*3 16.2 C 0 km/h
1506 10-09-2008 07:37:02 16.2 C 10.89 g/m*3 16.2 C 0 km/h
1507 10-09-2008 07:42:02 16.2 C 10.89 g/m*3 16.2 C 0 km/h
1508 10-09-2008 07:47:01 16.5 C 11.09 g/m*3 16.5 C 0 km/h
1509 10-09-2008 07:52:01 16.5 C 11.09 g/m*3 16.5 C 0 km/h
1510 10-09-2008 07:57:01 16.8 C 11.01 g/m*3 16.8 C 0 km/h
1511 10-09-2008 08:02:02 17 C 10.85 g/m*3 17 C 0 km/h
1512 10-09-2008 08:07:02 17.1 C 10.77 g/m*3 17.1 C 0 km/h
1513 10-09-2008 08:12:02 17.2 C 10.84 g/m*3 17.2 C 0 km/h
1514 10-09-2008 08:17:01 17.1 C 10.77 g/m*3 17.1 C 0 km/h
1515 10-09-2008 08:22:01 17.9 C 11.3 g/m*3 17.9 C 0 km/h
1516 10-09-2008 08:27:01 17.2 C 10.84 g/m*3 17.2 C 0 km/h
1517 10-09-2008 08:32:02 17.4 C 10.82 g/m*3 17.4 C 0 km/h
1518 10-09-2008 08:37:02 17.5 C 10.88 g/m*3 17.5 C 0 km/h
1519 10-09-2008 08:42:02 17.5 C 10.88 g/m*3 17.5 C 0 km/h
1520 10-09-2008 08:47:02 17.5 C 10.88 g/m*3 17.5 C 0 km/h
1521 10-09-2008 08:52:02 17.5 C 10.88 g/m*3 17.5 C 0 km/h
1522 10-09-2008 08:57:02 17.6 C 10.95 g/m*3 17.6 C 0 km/h
1523 10-09-2008 09:02:01 17.8 C 11.08 g/m*3 17.8 C 0 km/h
1524 10-09-2008 09:07:01 17.9 C 10.99 g/m*3 17.9 C 0 km/h
1525 10-09-2008 09:12:01 18 C 11.06 g/m*3 18 C 0 km/h
Sensor: Nr:Datum:Temp:Abs-Feuchte:Windchill:Wind:
Aussen-T/F 1526 10-09-2008 09:17:02 18.1 C 11.12 g/m*3 18.1 C 0 km/h
1527 10-09-2008 09:22:02 18.3 C 11.1 g/m*3 18.3 C 0 km/h
1528 10-09-2008 09:27:02 18.4 C 11.17 g/m*3 18.4 C 0 km/h
1529 10-09-2008 09:32:01 18.5 C 11.08 g/m*3 18.5 C 0 km/h
1530 10-09-2008 09:37:01 18.8 C 11.27 g/m*3 18.8 C 0 km/h
1531 10-09-2008 09:42:02 19 C 10.92 g/m*3 19 C 0 km/h
1532 10-09-2008 09:47:02 19 C 10.92 g/m*3 19 C 0 km/h
1533 10-09-2008 09:52:02 19.4 C 11.18 g/m*3 19.4 C 0 km/h
1534 10-09-2008 09:57:02 20 C 11.23 g/m*3 20 C 0 km/h
1535 10-09-2008 10:02:02 20.1 C 11.13 g/m*3 20.1 C 0 km/h
1536 10-09-2008 10:07:02 20.5 C 11.03 g/m*3 20.5 C 0 km/h
1537 10-09-2008 10:12:02 20.8 C 11.23 g/m*3 20.8 C 0 km/h
1538 10-09-2008 10:17:01 21 C 10.99 g/m*3 21 C 0 km/h
1539 10-09-2008 10:22:01 21.3 C 11.18 g/m*3 21.3 C 0 km/h
1540 10-09-2008 10:27:01 21.4 C 11.25 g/m*3 21.4 C 0 km/h
1541 10-09-2008 10:32:02 21.5 C 11.31 g/m*3 21.5 C 0 km/h
1542 10-09-2008 10:37:02 21.6 C 11.19 g/m*3 21.6 C 0 km/h
1543 10-09-2008 10:42:02 21.5 C 11.13 g/m*3 21.5 C 0 km/h
1544 10-09-2008 10:47:02 21.5 C 11.13 g/m*3 21.5 C 0 km/h
1545 10-09-2008 10:52:02 21.5 C 11.13 g/m*3 21.5 C 0 km/h
1546 10-09-2008 10:57:03 21.4 C 11.06 g/m*3 21.4 C 0 km/h
1547 10-09-2008 11:02:02 21.4 C 11.25 g/m*3 21.4 C 0 km/h
1548 10-09-2008 11:07:02 21.6 C 11.19 g/m*3 21.6 C 0 km/h
1549 10-09-2008 11:12:02 21.9 C 11.19 g/m*3 21.9 C 0 km/h
1550 10-09-2008 11:17:02 22.1 C 10.93 g/m*3 22.1 C 0 km/h
Sensor: Nr:Datum:Temp:Abs-Feuchte:Windchill:Wind:
Aussen-T/F 1551 10-09-2008 11:22:02 22.2 C 10.99 g/m*3 22.2 C 0 km/h
1552 10-09-2008 11:27:02 22.5 C 10.99 g/m*3 22.5 C 0 km/h
1553 10-09-2008 11:32:02 22.6 C 11.05 g/m*3 22.6 C 0 km/h
1554 10-09-2008 11:37:02 22.7 C 11.31 g/m*3 22.7 C 0 km/h
1555 10-09-2008 11:42:02 22.7 C 11.11 g/m*3 22.7 C 0 km/h
1556 10-09-2008 11:47:02 22.6 C 11.25 g/m*3 22.6 C 0 km/h
1557 10-09-2008 11:52:02 22.6 C 11.25 g/m*3 22.6 C 0 km/h
1558 10-09-2008 11:57:02 22.7 C 11.31 g/m*3 22.7 C 0 km/h
1559 10-09-2008 12:02:02 23 C 11.1 g/m*3 23 C 0 km/h
1560 10-09-2008 12:07:03 23.2 C 11.02 g/m*3 23.2 C 0 km/h
1561 10-09-2008 12:12:03 23.2 C 11.02 g/m*3 23.2 C 0 km/h
1562 10-09-2008 12:17:02 23.5 C 11.21 g/m*3 23.5 C 0 km/h
1563 10-09-2008 12:22:02 23.4 C 11.14 g/m*3 23.4 C 0 km/h
1564 10-09-2008 12:27:02 23.2 C 11.23 g/m*3 23.2 C 0 km/h
1565 10-09-2008 12:32:02 23.2 C 11.23 g/m*3 23.2 C 0 km/h
1566 10-09-2008 12:37:02 23.5 C 11.42 g/m*3 23.5 C 0 km/h
1567 10-09-2008 12:42:02 24 C 11.1 g/m*3 24 C 0 km/h
1568 10-09-2008 12:47:02 24 C 10.88 g/m*3 24 C 0 km/h
1569 10-09-2008 12:52:02 24.2 C 11 g/m*3 24.2 C 0 km/h
1570 10-09-2008 12:57:03 24.4 C 10.9 g/m*3 24.4 C 0 km/h
1571 10-09-2008 13:02:01 24.5 C 10.97 g/m*3 24.5 C 0 km/h
1572 10-09-2008 13:07:01 24.9 C 10.76 g/m*3 24.9 C 0 km/h
1573 10-09-2008 13:12:01 25 C 10.59 g/m*3 25 C 0 km/h
1574 10-09-2008 13:17:02 24.9 C 10.53 g/m*3 24.9 C 0 km/h
1575 10-09-2008 13:22:02 24.8 C 10.7 g/m*3 24.8 C 0 km/h
Sensor: Nr:Datum:Temp:Abs-Feuchte:Windchill:Wind:
Aussen-T/F 1576 10-09-2008 13:27:02 24.7 C 10.41 g/m*3 24.7 C 0 km/h
1577 10-09-2008 13:32:02 24.9 C 10.99 g/m*3 24.9 C 0 km/h
1578 10-09-2008 13:37:02 24.9 C 10.76 g/m*3 24.9 C 0 km/h
1579 10-09-2008 13:42:02 24.6 C 10.58 g/m*3 24.6 C 0 km/h
1580 10-09-2008 13:47:01 24.4 C 10.46 g/m*3 24.4 C 0 km/h
1581 10-09-2008 13:52:01 24.4 C 10.46 g/m*3 24.4 C 0 km/h
1582 10-09-2008 13:57:01 24.6 C 10.8 g/m*3 24.6 C 0 km/h
1583 10-09-2008 14:02:02 25.4 C 10.83 g/m*3 25.4 C 0 km/h
1584 10-09-2008 14:07:02 25.7 C 10.29 g/m*3 25.7 C 0 km/h
1585 10-09-2008 14:12:02 26 C 10.23 g/m*3 26 C 0 km/h
1586 10-09-2008 14:17:02 26.1 C 9.79 g/m*3 26.1 C 0 km/h
1587 10-09-2008 14:22:02 25.9 C 9.93 g/m*3 25.9 C 0 km/h
1588 10-09-2008 14:27:02 25.9 C 9.93 g/m*3 25.9 C 0 km/h
1589 10-09-2008 14:32:02 25.8 C 9.87 g/m*3 25.8 C 0 km/h
1590 10-09-2008 14:37:02 25.5 C 9.71 g/m*3 25.5 C 0 km/h
1591 10-09-2008 14:42:02 25.6 C 9.76 g/m*3 25.6 C 0 km/h
1592 10-09-2008 14:47:02 25.6 C 10 g/m*3 25.6 C 0 km/h
1593 10-09-2008 14:52:03 25.7 C 9.82 g/m*3 25.7 C 0 km/h
1594 10-09-2008 14:57:03 25.9 C 9.68 g/m*3 25.9 C 0 km/h
1595 10-09-2008 15:02:01 26.5 C 9.51 g/m*3 26.5 C 0 km/h
1596 10-09-2008 15:07:01 26.6 C 9.57 g/m*3 26.6 C 0 km/h
1597 10-09-2008 15:12:01 26.8 C 9.67 g/m*3 26.8 C 0 km/h
1598 10-09-2008 15:17:02 26.9 C 9.47 g/m*3 26.9 C 0 km/h
1599 10-09-2008 15:22:02 27.3 C 9.42 g/m*3 27.3 C 0 km/h
1600 10-09-2008 15:27:02 27.3 C 9.16 g/m*3 27.3 C 0 km/h
Sensor: Nr:Datum:Temp:Abs-Feuchte:Windchill:Wind:
Aussen-T/F 1601 10-09-2008 15:32:01 27.2 C 9.11 g/m*3 27.2 C 0 km/h
1602 10-09-2008 15:37:01 27.3 C 9.42 g/m*3 27.3 C 0 km/h
1603 10-09-2008 15:42:01 27.1 C 9.32 g/m*3 27.1 C 0 km/h
1604 10-09-2008 15:47:01 26.9 C 9.21 g/m*3 26.9 C 0 km/h
1605 10-09-2008 15:52:01 27 C 9.26 g/m*3 27 C 0 km/h
1606 10-09-2008 15:57:01 26.7 C 9.37 g/m*3 26.7 C 0 km/h
1607 10-09-2008 16:02:02 26.9 C 9.73 g/m*3 26.9 C 0 km/h
1608 10-09-2008 16:07:02 26.8 C 9.42 g/m*3 26.8 C 0 km/h
1609 10-09-2008 16:12:02 27 C 9.01 g/m*3 27 C 0 km/h
1610 10-09-2008 16:17:01 27 C 9.01 g/m*3 27 C 0 km/h
1611 10-09-2008 16:22:01 27.4 C 9.21 g/m*3 27.4 C 0 km/h
1612 10-09-2008 16:27:01 27.7 C 9.36 g/m*3 27.7 C 0 km/h
1613 10-09-2008 16:32:02 27.7 C 9.09 g/m*3 27.7 C 0 km/h
1614 10-09-2008 16:37:02 27.5 C 8.73 g/m*3 27.5 C 0 km/h
1615 10-09-2008 16:42:02 27.8 C 9.15 g/m*3 27.8 C 0 km/h
1616 10-09-2008 16:47:02 27.9 C 8.92 g/m*3 27.9 C 0 km/h
1617 10-09-2008 16:52:03 27.8 C 8.88 g/m*3 27.8 C 0 km/h
1618 10-09-2008 16:57:03 27.8 C 8.88 g/m*3 27.8 C 0 km/h
1619 10-09-2008 17:02:02 27.6 C 8.78 g/m*3 27.6 C 0 km/h
1620 10-09-2008 17:07:02 27.6 C 9.04 g/m*3 27.6 C 0 km/h
1621 10-09-2008 17:12:02 27.3 C 8.9 g/m*3 27.3 C 0 km/h
1622 10-09-2008 17:17:02 27.7 C 9.09 g/m*3 27.7 C 0 km/h
1623 10-09-2008 17:22:02 27.8 C 8.88 g/m*3 27.8 C 0 km/h
1624 10-09-2008 17:27:02 27.8 C 8.88 g/m*3 27.8 C 0 km/h
1625 10-09-2008 17:32:02 28 C 8.7 g/m*3 28 C 0 km/h
Sensor: Nr:Datum:Temp:Abs-Feuchte:Windchill:Wind:
Aussen-T/F 1626 10-09-2008 17:37:02 28.3 C 8.57 g/m*3 28.3 C 0 km/h
1627 10-09-2008 17:42:02 28 C 8.43 g/m*3 28 C 0 km/h
1628 10-09-2008 17:47:02 28.2 C 8.52 g/m*3 28.2 C 0 km/h
1629 10-09-2008 17:52:02 27.7 C 8.83 g/m*3 27.7 C 0 km/h
1630 10-09-2008 17:57:02 27.6 C 8.78 g/m*3 27.6 C 0 km/h
1631 10-09-2008 18:02:02 27.5 C 9 g/m*3 27.5 C 0 km/h
1632 10-09-2008 18:07:02 27.5 C 9 g/m*3 27.5 C 0 km/h
1633 10-09-2008 18:12:02 27.7 C 8.83 g/m*3 27.7 C 0 km/h
1634 10-09-2008 18:17:02 27.9 C 8.92 g/m*3 27.9 C 0 km/h
1635 10-09-2008 18:22:02 27.3 C 8.63 g/m*3 27.3 C 0 km/h
1636 10-09-2008 18:27:02 27.4 C 8.95 g/m*3 27.4 C 0 km/h
1637 10-09-2008 18:32:02 27.2 C 9.11 g/m*3 27.2 C 0 km/h
1638 10-09-2008 18:37:02 27.5 C 9.26 g/m*3 27.5 C 0 km/h
1639 10-09-2008 18:42:02 27.7 C 9.36 g/m*3 27.7 C 0 km/h
1640 10-09-2008 18:47:02 27.5 C 9 g/m*3 27.5 C 0 km/h
1641 10-09-2008 18:52:02 27.4 C 8.95 g/m*3 27.4 C 0 km/h
1642 10-09-2008 18:57:02 27.2 C 8.85 g/m*3 27.2 C 0 km/h
1643 10-09-2008 19:02:01 26.6 C 8.81 g/m*3 26.6 C 0 km/h
1644 10-09-2008 19:07:01 26.5 C 9.01 g/m*3 26.5 C 0 km/h
1645 10-09-2008 19:12:01 26.4 C 9.46 g/m*3 26.4 C 0 km/h
1646 10-09-2008 19:17:02 26.3 C 9.41 g/m*3 26.3 C 0 km/h
1647 10-09-2008 19:22:02 26 C 9.25 g/m*3 26 C 0 km/h
1648 10-09-2008 19:27:02 25.8 C 9.63 g/m*3 25.8 C 0 km/h
1649 10-09-2008 19:32:01 25.3 C 9.6 g/m*3 25.3 C 0 km/h
1650 10-09-2008 19:37:01 24.7 C 9.51 g/m*3 24.7 C 0 km/h
Sensor: Nr:Datum:Temp:Abs-Feuchte:Windchill:Wind:
Aussen-T/F 1651 10-09-2008 19:42:01 24.4 C 9.79 g/m*3 24.4 C 0 km/h
1652 10-09-2008 19:47:01 23.9 C 9.95 g/m*3 23.9 C 0 km/h
1653 10-09-2008 19:52:01 23.7 C 9.84 g/m*3 23.7 C 0 km/h
1654 10-09-2008 19:57:01 23.6 C 10 g/m*3 23.6 C 0 km/h
1655 10-09-2008 20:02:02 23.3 C 10.04 g/m*3 23.3 C 0 km/h
1656 10-09-2008 20:07:02 23.1 C 10.13 g/m*3 23.1 C 0 km/h
1657 10-09-2008 20:12:02 22.9 C 10.42 g/m*3 22.9 C 0 km/h
1658 10-09-2008 20:17:01 22.7 C 10.51 g/m*3 22.7 C 0 km/h
1659 10-09-2008 20:22:01 22.5 C 10.39 g/m*3 22.5 C 0 km/h
1660 10-09-2008 20:27:01 22.5 C 10.59 g/m*3 22.5 C 0 km/h
1661 10-09-2008 20:32:02 22.3 C 10.66 g/m*3 22.3 C 0 km/h
1662 10-09-2008 20:37:02 22.2 C 10.6 g/m*3 22.2 C 0 km/h
1663 10-09-2008 20:42:02 22.1 C 10.74 g/m*3 22.1 C 0 km/h
1664 10-09-2008 20:47:02 21.9 C 11 g/m*3 21.9 C 0 km/h
1665 10-09-2008 20:52:02 21.7 C 10.87 g/m*3 21.7 C 0 km/h
1666 10-09-2008 20:57:02 21.7 C 11.06 g/m*3 21.7 C 0 km/h
1667 10-09-2008 21:02:02 21.6 C 11 g/m*3 21.6 C 0 km/h
1668 10-09-2008 21:07:02 21.4 C 11.06 g/m*3 21.4 C 0 km/h
1669 10-09-2008 21:12:02 21.4 C 11.06 g/m*3 21.4 C 0 km/h
1670 10-09-2008 21:18:02 21.2 C 10.93 g/m*3 21.2 C 0 km/h
1671 10-09-2008 21:23:02 21.1 C 11.06 g/m*3 21.1 C 0 km/h
1672 10-09-2008 21:28:02 21 C 11.17 g/m*3 21 C 0 km/h
1673 10-09-2008 21:33:02 20.9 C 11.29 g/m*3 20.9 C 0 km/h
1674 10-09-2008 21:38:03 20.9 C 11.29 g/m*3 20.9 C 0 km/h
1675 10-09-2008 21:43:03 20.8 C 11.23 g/m*3 20.8 C 0 km/h
Sensor: Nr:Datum:Temp:Abs-Feuchte:Windchill:Wind:
Aussen-T/F 1676 10-09-2008 21:48:03 20.7 C 11.34 g/m*3 20.7 C 0 km/h
1677 10-09-2008 21:53:03 20.6 C 11.28 g/m*3 20.6 C 0 km/h
1678 10-09-2008 21:58:03 20.6 C 11.28 g/m*3 20.6 C 0 km/h
1679 10-09-2008 22:03:03 20.6 C 11.28 g/m*3 20.6 C 0 km/h
1680 10-09-2008 22:08:03 20.5 C 11.21 g/m*3 20.5 C 0 km/h
1681 10-09-2008 22:13:03 20.4 C 11.14 g/m*3 20.4 C 0 km/h
1682 10-09-2008 22:18:03 20.4 C 11.14 g/m*3 20.4 C 0 km/h
1683 10-09-2008 22:23:03 20.4 C 11.14 g/m*3 20.4 C 0 km/h
1684 10-09-2008 22:28:03 20.4 C 11.32 g/m*3 20.4 C 0 km/h
1685 10-09-2008 22:33:03 20.3 C 11.26 g/m*3 20.3 C 0 km/h
1686 10-09-2008 22:38:03 20.2 C 11.19 g/m*3 20.2 C 0 km/h
1687 10-09-2008 22:43:03 20.1 C 11.13 g/m*3 20.1 C 0 km/h
1688 10-09-2008 22:48:03 20.1 C 11.3 g/m*3 20.1 C 0 km/h
1689 10-09-2008 22:53:03 20 C 11.23 g/m*3 20 C 0 km/h
1690 10-09-2008 22:58:03 19.9 C 11.51 g/m*3 19.9 C 0 km/h
1691 10-09-2008 23:03:03 19.8 C 11.61 g/m*3 19.8 C 0 km/h
1692 10-09-2008 23:08:03 19.9 C 11.85 g/m*3 19.9 C 0 km/h
1693 10-09-2008 23:13:03 19.9 C 11.85 g/m*3 19.9 C 0 km/h
1694 10-09-2008 23:18:04 20 C 11.75 g/m*3 20 C 0 km/h
1695 10-09-2008 23:23:04 19.7 C 11.72 g/m*3 19.7 C 0 km/h
1696 10-09-2008 23:28:04 19.7 C 11.72 g/m*3 19.7 C 0 km/h
1697 10-09-2008 23:33:04 19.6 C 11.82 g/m*3 19.6 C 0 km/h
1698 10-09-2008 23:38:04 19.6 C 11.99 g/m*3 19.6 C 0 km/h
1699 10-09-2008 23:43:04 19.5 C 11.92 g/m*3 19.5 C 0 km/h
1700 10-09-2008 23:48:04 19.5 C 11.92 g/m*3 19.5 C 0 km/h
Sensor: Nr:Datum:Temp:Abs-Feuchte:Windchill:Wind:
Aussen-T/F 1701 10-09-2008 23:53:04 19.4 C 12.01 g/m*3 19.4 C 0 km/h
1702 10-09-2008 23:58:04 19.3 C 11.94 g/m*3 19.3 C 0 km/h
1703 11-09-2008 00:03:04 19.2 C 12.04 g/m*3 19.2 C 0 km/h
1704 11-09-2008 00:08:04 19.1 C 11.97 g/m*3 19.1 C 0 km/h
1705 11-09-2008 00:13:04 19.1 C 12.13 g/m*3 19.1 C 0 km/h
1706 11-09-2008 00:18:04 18.9 C 12.15 g/m*3 18.9 C 0 km/h
1707 11-09-2008 00:23:04 18.7 C 12.17 g/m*3 18.7 C 0 km/h
1708 11-09-2008 00:28:04 18.7 C 12.17 g/m*3 18.7 C 0 km/h
1709 11-09-2008 00:33:04 18.7 C 12.17 g/m*3 18.7 C 0 km/h
1710 11-09-2008 00:38:04 18.5 C 12.02 g/m*3 18.5 C 0 km/h
1711 11-09-2008 00:43:04 18.4 C 11.95 g/m*3 18.4 C 0 km/h
1712 11-09-2008 00:48:04 18.3 C 11.88 g/m*3 18.3 C 0 km/h
1713 11-09-2008 00:53:05 18.2 C 11.81 g/m*3 18.2 C 0 km/h
1714 11-09-2008 00:58:05 18 C 11.67 g/m*3 18 C 0 km/h
1715 11-09-2008 01:03:05 18 C 11.67 g/m*3 18 C 0 km/h
1716 11-09-2008 01:08:05 17.8 C 11.69 g/m*3 17.8 C 0 km/h
1717 11-09-2008 01:13:05 17.6 C 11.7 g/m*3 17.6 C 0 km/h
1718 11-09-2008 01:18:05 17.5 C 11.63 g/m*3 17.5 C 0 km/h
1719 11-09-2008 01:23:05 17.5 C 11.63 g/m*3 17.5 C 0 km/h
1720 11-09-2008 01:28:05 17.5 C 11.63 g/m*3 17.5 C 0 km/h
1721 11-09-2008 01:33:05 17.4 C 11.56 g/m*3 17.4 C 0 km/h
1722 11-09-2008 01:38:05 17.3 C 11.49 g/m*3 17.3 C 0 km/h
1723 11-09-2008 01:43:05 17.2 C 11.42 g/m*3 17.2 C 0 km/h
1724 11-09-2008 01:48:05 17.2 C 11.57 g/m*3 17.2 C 0 km/h
1725 11-09-2008 01:53:05 17.2 C 11.57 g/m*3 17.2 C 0 km/h
Sensor: Nr:Datum:Temp:Abs-Feuchte:Windchill:Wind:
Aussen-T/F 1726 11-09-2008 01:58:05 17.3 C 11.64 g/m*3 17.3 C 0 km/h
1727 11-09-2008 02:03:05 17.1 C 11.5 g/m*3 17.1 C 0 km/h
1728 11-09-2008 02:08:05 17 C 11.43 g/m*3 17 C 0 km/h
1729 11-09-2008 02:13:05 16.9 C 11.65 g/m*3 16.9 C 0 km/h
1730 11-09-2008 02:18:05 16.7 C 11.51 g/m*3 16.7 C 0 km/h
1731 11-09-2008 02:23:05 16.6 C 11.44 g/m*3 16.6 C 0 km/h
1732 11-09-2008 02:28:06 16.6 C 11.44 g/m*3 16.6 C 0 km/h
1733 11-09-2008 02:33:06 16.5 C 11.51 g/m*3 16.5 C 0 km/h
1734 11-09-2008 02:38:06 16.4 C 11.45 g/m*3 16.4 C 0 km/h
1735 11-09-2008 02:43:06 16.4 C 11.31 g/m*3 16.4 C 0 km/h
1736 11-09-2008 02:48:06 16.3 C 11.24 g/m*3 16.3 C 0 km/h
1737 11-09-2008 02:53:06 16.3 C 11.24 g/m*3 16.3 C 0 km/h
1738 11-09-2008 02:58:06 16.2 C 11.17 g/m*3 16.2 C 0 km/h
1739 11-09-2008 03:03:06 16.2 C 11.17 g/m*3 16.2 C 0 km/h
1740 11-09-2008 03:08:06 16.1 C 11.1 g/m*3 16.1 C 0 km/h
1741 11-09-2008 03:13:06 16.1 C 11.1 g/m*3 16.1 C 0 km/h
1742 11-09-2008 03:18:06 16 C 11.04 g/m*3 16 C 0 km/h
1743 11-09-2008 03:23:06 16 C 11.04 g/m*3 16 C 0 km/h
1744 11-09-2008 03:28:06 16 C 11.17 g/m*3 16 C 0 km/h
1745 11-09-2008 03:33:06 15.9 C 11.1 g/m*3 15.9 C 0 km/h
1746 11-09-2008 03:38:06 15.9 C 11.1 g/m*3 15.9 C 0 km/h
1747 11-09-2008 03:43:06 15.8 C 11.04 g/m*3 15.8 C 0 km/h
1748 11-09-2008 03:48:06 15.8 C 11.04 g/m*3 15.8 C 0 km/h
1749 11-09-2008 03:53:06 15.8 C 11.04 g/m*3 15.8 C 0 km/h
1750 11-09-2008 03:58:06 15.7 C 10.97 g/m*3 15.7 C 0 km/h
Sensor: Nr:Datum:Temp:Abs-Feuchte:Windchill:Wind:
Aussen-T/F 1751 11-09-2008 04:03:06 15.6 C 10.91 g/m*3 15.6 C 0 km/h
1752 11-09-2008 04:08:07 15.7 C 10.97 g/m*3 15.7 C 0 km/h
1753 11-09-2008 04:13:07 15.5 C 10.84 g/m*3 15.5 C 0 km/h
1754 11-09-2008 04:18:07 15.4 C 10.9 g/m*3 15.4 C 0 km/h
1755 11-09-2008 04:23:07 15.4 C 10.9 g/m*3 15.4 C 0 km/h
1756 11-09-2008 04:28:07 15.4 C 10.9 g/m*3 15.4 C 0 km/h
1757 11-09-2008 04:33:07 15.3 C 10.84 g/m*3 15.3 C 0 km/h
1758 11-09-2008 04:38:07 15.3 C 10.84 g/m*3 15.3 C 0 km/h
1759 11-09-2008 04:43:07 15.3 C 10.84 g/m*3 15.3 C 0 km/h
1760 11-09-2008 04:48:07 15.3 C 10.97 g/m*3 15.3 C 0 km/h
1761 11-09-2008 04:53:07 15.3 C 10.97 g/m*3 15.3 C 0 km/h
1762 11-09-2008 04:58:07 15.3 C 10.97 g/m*3 15.3 C 0 km/h
1763 11-09-2008 05:03:07 15.4 C 11.04 g/m*3 15.4 C 0 km/h
1764 11-09-2008 05:08:07 15.5 C 11.1 g/m*3 15.5 C 0 km/h
1765 11-09-2008 05:13:07 15.5 C 11.1 g/m*3 15.5 C 0 km/h
1766 11-09-2008 05:18:07 15.6 C 11.17 g/m*3 15.6 C 0 km/h
1767 11-09-2008 05:23:07 15.6 C 11.17 g/m*3 15.6 C 0 km/h
1768 11-09-2008 05:28:07 15.6 C 11.17 g/m*3 15.6 C 0 km/h
1769 11-09-2008 05:33:07 15.6 C 11.17 g/m*3 15.6 C 0 km/h
1770 11-09-2008 05:38:07 15.5 C 11.1 g/m*3 15.5 C 0 km/h
1771 11-09-2008 05:43:08 15.5 C 11.1 g/m*3 15.5 C 0 km/h
1772 11-09-2008 05:48:08 15.5 C 11.1 g/m*3 15.5 C 0 km/h
1773 11-09-2008 05:53:08 15.5 C 10.97 g/m*3 15.5 C 0 km/h
1774 11-09-2008 05:58:08 15.4 C 11.04 g/m*3 15.4 C 0 km/h
1775 11-09-2008 06:03:08 15.4 C 11.04 g/m*3 15.4 C 0 km/h
Sensor: Nr:Datum:Temp:Abs-Feuchte:Windchill:Wind:
Aussen-T/F 1776 11-09-2008 06:08:08 15.3 C 10.97 g/m*3 15.3 C 0 km/h
1777 11-09-2008 06:13:08 15.2 C 10.9 g/m*3 15.2 C 0 km/h
1778 11-09-2008 06:18:08 15.1 C 10.84 g/m*3 15.1 C 0 km/h
1779 11-09-2008 06:23:08 15.1 C 10.84 g/m*3 15.1 C 0 km/h
1780 11-09-2008 06:28:08 15.2 C 11.03 g/m*3 15.2 C 0 km/h
1781 11-09-2008 06:33:08 15.1 C 10.97 g/m*3 15.1 C 0 km/h
1782 11-09-2008 06:38:08 15.1 C 10.97 g/m*3 15.1 C 0 km/h
1783 11-09-2008 06:43:08 15.2 C 11.03 g/m*3 15.2 C 0 km/h
1784 11-09-2008 06:48:08 15.3 C 11.1 g/m*3 15.3 C 0 km/h
1785 11-09-2008 06:53:08 15.3 C 11.1 g/m*3 15.3 C 0 km/h
1786 11-09-2008 06:58:08 15.4 C 11.17 g/m*3 15.4 C 0 km/h
1787 11-09-2008 07:03:02 15.4 C 11.17 g/m*3 15.4 C 0 km/h
1788 11-09-2008 07:08:02 15.4 C 11.17 g/m*3 15.4 C 0 km/h
1789 11-09-2008 07:13:02 15.4 C 11.17 g/m*3 15.4 C 0 km/h
1790 11-09-2008 07:18:02 15.4 C 11.17 g/m*3 15.4 C 0 km/h
1791 11-09-2008 07:23:02 15.4 C 11.17 g/m*3 15.4 C 0 km/h
1792 11-09-2008 07:28:02 15.4 C 11.17 g/m*3 15.4 C 0 km/h
1793 11-09-2008 07:33:02 15.4 C 11.17 g/m*3 15.4 C 0 km/h
1794 11-09-2008 07:38:02 15.4 C 11.3 g/m*3 15.4 C 0 km/h
1795 11-09-2008 07:43:02 15.5 C 11.37 g/m*3 15.5 C 0 km/h
1796 11-09-2008 07:48:02 15.6 C 11.44 g/m*3 15.6 C 0 km/h
1797 11-09-2008 07:53:02 15.7 C 11.51 g/m*3 15.7 C 0 km/h
1798 11-09-2008 07:58:02 15.8 C 11.58 g/m*3 15.8 C 0 km/h
1799 11-09-2008 08:03:02 15.8 C 11.58 g/m*3 15.8 C 0 km/h
1800 11-09-2008 08:08:02 15.8 C 11.44 g/m*3 15.8 C 0 km/h
Sensor: Nr:Datum:Temp:Abs-Feuchte:Windchill:Wind:
Aussen-T/F 1801 11-09-2008 08:13:02 15.9 C 11.51 g/m*3 15.9 C 0 km/h
1802 11-09-2008 08:18:02 16 C 11.44 g/m*3 16 C 0 km/h
1803 11-09-2008 08:23:02 16 C 11.44 g/m*3 16 C 0 km/h
1804 11-09-2008 08:28:02 16.1 C 11.65 g/m*3 16.1 C 0 km/h
1805 11-09-2008 08:33:03 16.2 C 11.72 g/m*3 16.2 C 0 km/h
1806 11-09-2008 08:38:03 16.4 C 11.86 g/m*3 16.4 C 0 km/h
1807 11-09-2008 08:43:03 16.5 C 11.8 g/m*3 16.5 C 0 km/h
1808 11-09-2008 08:48:02 16.6 C 11.87 g/m*3 16.6 C 0 km/h
1809 11-09-2008 08:53:02 16.6 C 11.87 g/m*3 16.6 C 0 km/h
1810 11-09-2008 08:58:02 16.7 C 11.94 g/m*3 16.7 C 0 km/h
1811 11-09-2008 09:03:02 16.8 C 11.87 g/m*3 16.8 C 0 km/h
1812 11-09-2008 09:08:02 16.8 C 11.87 g/m*3 16.8 C 0 km/h
1813 11-09-2008 09:13:02 17 C 12.01 g/m*3 17 C 0 km/h
1814 11-09-2008 09:18:02 17.2 C 12.15 g/m*3 17.2 C 0 km/h
1815 11-09-2008 09:23:02 17.3 C 12.08 g/m*3 17.3 C 0 km/h
1816 11-09-2008 09:28:02 17.5 C 12.23 g/m*3 17.5 C 0 km/h
1817 11-09-2008 09:33:03 17.6 C 12.15 g/m*3 17.6 C 0 km/h
1818 11-09-2008 09:38:03 17.6 C 12 g/m*3 17.6 C 0 km/h
1819 11-09-2008 09:43:03 17.7 C 12.07 g/m*3 17.7 C 0 km/h
1820 11-09-2008 09:48:02 17.8 C 11.99 g/m*3 17.8 C 0 km/h
1821 11-09-2008 09:53:02 17.9 C 12.06 g/m*3 17.9 C 0 km/h
1822 11-09-2008 09:58:02 18.2 C 12.12 g/m*3 18.2 C 0 km/h
1823 11-09-2008 10:03:03 18.4 C 12.11 g/m*3 18.4 C 0 km/h
1824 11-09-2008 10:08:03 18.7 C 12.33 g/m*3 18.7 C 0 km/h
1825 11-09-2008 10:13:03 18.8 C 12.24 g/m*3 18.8 C 0 km/h
Sensor: Nr:Datum:Temp:Abs-Feuchte:Windchill:Wind:
Aussen-T/F 1826 11-09-2008 10:18:02 19 C 12.06 g/m*3 19 C 0 km/h
1827 11-09-2008 10:23:02 19.2 C 12.04 g/m*3 19.2 C 0 km/h
1828 11-09-2008 10:28:02 19.3 C 12.11 g/m*3 19.3 C 0 km/h
1829 11-09-2008 10:33:02 19.5 C 12.08 g/m*3 19.5 C 0 km/h
1830 11-09-2008 10:38:02 19.7 C 12.06 g/m*3 19.7 C 0 km/h
1831 11-09-2008 10:43:02 19.9 C 12.03 g/m*3 19.9 C 0 km/h
1832 11-09-2008 10:48:03 20.1 C 11.82 g/m*3 20.1 C 0 km/h
1833 11-09-2008 10:53:03 20.5 C 12.1 g/m*3 20.5 C 0 km/h
1834 11-09-2008 10:58:03 20.4 C 11.85 g/m*3 20.4 C 0 km/h
1835 11-09-2008 11:03:02 20.5 C 11.74 g/m*3 20.5 C 0 km/h
1836 11-09-2008 11:08:02 20.8 C 11.95 g/m*3 20.8 C 0 km/h
1837 11-09-2008 11:13:02 20.9 C 11.84 g/m*3 20.9 C 0 km/h
1838 11-09-2008 11:18:02 21 C 11.72 g/m*3 21 C 0 km/h
1839 11-09-2008 11:23:02 21.1 C 11.79 g/m*3 21.1 C 0 km/h
1840 11-09-2008 11:28:02 21.2 C 11.68 g/m*3 21.2 C 0 km/h
1841 11-09-2008 11:33:02 21.1 C 11.61 g/m*3 21.1 C 0 km/h
1842 11-09-2008 11:38:02 20.9 C 11.66 g/m*3 20.9 C 0 km/h
1843 11-09-2008 11:43:03 20.8 C 11.95 g/m*3 20.8 C 0 km/h
1844 11-09-2008 11:48:01 20.9 C 12.02 g/m*3 20.9 C 0 km/h
1845 11-09-2008 11:53:01 21 C 11.91 g/m*3 21 C 0 km/h
1846 11-09-2008 11:58:01 21.1 C 11.79 g/m*3 21.1 C 0 km/h
1847 11-09-2008 12:03:02 21.1 C 11.98 g/m*3 21.1 C 0 km/h
1848 11-09-2008 12:08:02 21.2 C 12.05 g/m*3 21.2 C 0 km/h
1849 11-09-2008 12:13:02 21.2 C 12.05 g/m*3 21.2 C 0 km/h
1850 11-09-2008 12:18:02 21.5 C 12.26 g/m*3 21.5 C 0 km/h
Sensor: Nr:Datum:Temp:Abs-Feuchte:Windchill:Wind:
Aussen-T/F 1851 11-09-2008 12:23:02 21.6 C 12.14 g/m*3 21.6 C 0 km/h
1852 11-09-2008 12:28:03 21.9 C 12.35 g/m*3 21.9 C 0 km/h
1853 11-09-2008 12:33:01 22.2 C 12.17 g/m*3 22.2 C 0 km/h
1854 11-09-2008 12:38:01 22.5 C 12.38 g/m*3 22.5 C 0 km/h
1855 11-09-2008 12:43:01 22.8 C 12.19 g/m*3 22.8 C 0 km/h
1856 11-09-2008 12:48:02 23 C 12.13 g/m*3 23 C 0 km/h
1857 11-09-2008 12:53:02 23.1 C 12.2 g/m*3 23.1 C 0 km/h
1858 11-09-2008 12:58:02 23.3 C 12.13 g/m*3 23.3 C 0 km/h
1859 11-09-2008 13:03:01 23.7 C 12.19 g/m*3 23.7 C 0 km/h
1860 11-09-2008 13:08:01 24.1 C 12.03 g/m*3 24.1 C 0 km/h
1861 11-09-2008 13:13:01 24.3 C 12.17 g/m*3 24.3 C 0 km/h
1862 11-09-2008 13:18:01 24.7 C 12.22 g/m*3 24.7 C 0 km/h
1863 11-09-2008 13:23:01 24.9 C 12.13 g/m*3 24.9 C 0 km/h
1864 11-09-2008 13:28:01 24.9 C 11.9 g/m*3 24.9 C 0 km/h
1865 11-09-2008 13:33:02 25.4 C 11.77 g/m*3 25.4 C 0 km/h
1866 11-09-2008 13:38:02 25.7 C 11.73 g/m*3 25.7 C 0 km/h
1867 11-09-2008 13:43:02 25.9 C 11.86 g/m*3 25.9 C 0 km/h
1868 11-09-2008 13:48:02 26.1 C 12 g/m*3 26.1 C 0 km/h
1869 11-09-2008 13:53:02 26.4 C 11.7 g/m*3 26.4 C 0 km/h
1870 11-09-2008 13:58:02 26.5 C 11.77 g/m*3 26.5 C 0 km/h
1871 11-09-2008 14:03:01 26.9 C 11.77 g/m*3 26.9 C 0 km/h
1872 11-09-2008 14:08:01 27.2 C 11.45 g/m*3 27.2 C 0 km/h
1873 11-09-2008 14:13:01 27.5 C 11.38 g/m*3 27.5 C 0 km/h
1874 11-09-2008 14:18:02 27.7 C 11.5 g/m*3 27.7 C 0 km/h
1875 11-09-2008 14:23:02 27.8 C 11.3 g/m*3 27.8 C 0 km/h
Sensor: Nr:Datum:Temp:Abs-Feuchte:Windchill:Wind:
Aussen-T/F 1876 11-09-2008 14:28:02 27.9 C 11.09 g/m*3 27.9 C 0 km/h
1877 11-09-2008 14:33:02 27.8 C 11.03 g/m*3 27.8 C 0 km/h
1878 11-09-2008 14:38:02 28.2 C 11.27 g/m*3 28.2 C 0 km/h
1879 11-09-2008 14:43:02 28.3 C 11.06 g/m*3 28.3 C 0 km/h
1880 11-09-2008 14:48:01 28.3 C 11.33 g/m*3 28.3 C 0 km/h
1881 11-09-2008 14:53:01 28.7 C 11.3 g/m*3 28.7 C 0 km/h
1882 11-09-2008 14:58:01 29 C 10.63 g/m*3 29 C 0 km/h
1883 11-09-2008 15:03:02 29.4 C 10.27 g/m*3 29.4 C 0 km/h
1884 11-09-2008 15:08:03 29.6 C 10.68 g/m*3 29.6 C 0 km/h
1885 11-09-2008 15:13:03 29.4 C 9.98 g/m*3 29.4 C 0 km/h
1886 11-09-2008 15:18:02 29 C 10.63 g/m*3 29 C 0 km/h
1887 11-09-2008 15:23:02 28.8 C 10.51 g/m*3 28.8 C 0 km/h
1888 11-09-2008 15:28:02 28.7 C 10.17 g/m*3 28.7 C 0 km/h
1889 11-09-2008 15:33:02 28.8 C 10.51 g/m*3 28.8 C 0 km/h
1890 11-09-2008 15:38:02 28.9 C 10.86 g/m*3 28.9 C 0 km/h
1891 11-09-2008 15:43:02 29 C 9.77 g/m*3 29 C 0 km/h
1892 11-09-2008 15:48:02 29.2 C 9.29 g/m*3 29.2 C 0 km/h
1893 11-09-2008 15:53:02 29 C 8.9 g/m*3 29 C 0 km/h
1894 11-09-2008 15:58:02 28.6 C 8.99 g/m*3 28.6 C 0 km/h
1895 11-09-2008 16:03:01 28.3 C 9.68 g/m*3 28.3 C 0 km/h
1896 11-09-2008 16:08:01 28 C 10.06 g/m*3 28 C 0 km/h
1897 11-09-2008 16:13:01 27.7 C 10.7 g/m*3 27.7 C 0 km/h
1898 11-09-2008 16:18:02 27.1 C 10.61 g/m*3 27.1 C 0 km/h
1899 11-09-2008 16:23:02 26.6 C 11.08 g/m*3 26.6 C 0 km/h
1900 11-09-2008 16:28:02 26.5 C 10.51 g/m*3 26.5 C 0 km/h
Sensor: Nr:Datum:Temp:Abs-Feuchte:Windchill:Wind:
Aussen-T/F 1901 11-09-2008 16:33:02 26.3 C 11.39 g/m*3 26.3 C 0 km/h
1902 11-09-2008 16:38:02 26 C 11.2 g/m*3 26 C 0 km/h
1903 11-09-2008 16:43:02 25.9 C 11.62 g/m*3 25.9 C 0 km/h
1904 11-09-2008 16:48:02 25.8 C 11.56 g/m*3 25.8 C 0 km/h
1905 11-09-2008 16:53:02 25.6 C 10.95 g/m*3 25.6 C 0 km/h
1906 11-09-2008 16:58:02 25.4 C 11.06 g/m*3 25.4 C 0 km/h
1907 11-09-2008 17:03:02 25.1 C 11.11 g/m*3 25.1 C 0 km/h
1908 11-09-2008 17:08:02 25.3 C 10.77 g/m*3 25.3 C 0 km/h
1909 11-09-2008 17:13:02 25.2 C 10.94 g/m*3 25.2 C 0 km/h
1910 11-09-2008 17:18:02 25.1 C 10.88 g/m*3 25.1 C 0 km/h
1911 11-09-2008 17:23:02 25.1 C 10.88 g/m*3 25.1 C 0 km/h
1912 11-09-2008 17:28:02 24.8 C 11.38 g/m*3 24.8 C 0 km/h
1913 11-09-2008 17:33:02 24.7 C 11.54 g/m*3 24.7 C 0 km/h
1914 11-09-2008 17:38:02 24.6 C 11.7 g/m*3 24.6 C 0 km/h
1915 11-09-2008 17:43:02 23.2 C 13.1 g/m*3 23.2 C 0 km/h
1916 11-09-2008 17:48:02 22.7 C 13.74 g/m*3 22.7 C 0 km/h
1917 11-09-2008 17:53:02 21.6 C 14.22 g/m*3 21.6 C 0 km/h
1918 11-09-2008 17:58:02 21.1 C 14.56 g/m*3 21.1 C 0 km/h
1919 11-09-2008 18:03:01 20.9 C 14.75 g/m*3 20.9 C 0 km/h
1920 11-09-2008 18:08:01 20.8 C 14.85 g/m*3 20.8 C 0 km/h
1921 11-09-2008 18:13:01 20.9 C 15.12 g/m*3 20.9 C 0 km/h
1922 11-09-2008 18:18:02 21 C 15.02 g/m*3 21 C 0 km/h
1923 11-09-2008 18:23:02 21.1 C 15.11 g/m*3 21.1 C 0 km/h
1924 11-09-2008 18:28:02 21.4 C 15.37 g/m*3 21.4 C 0 km/h
1925 11-09-2008 18:33:02 21.6 C 15.36 g/m*3 21.6 C 0 km/h
Sensor: Nr:Datum:Temp:Abs-Feuchte:Windchill:Wind:
Aussen-T/F 1926 11-09-2008 18:38:02 21.8 C 15.54 g/m*3 21.8 C 0 km/h
1927 11-09-2008 18:43:02 22.1 C 15.42 g/m*3 22.1 C 0 km/h
1928 11-09-2008 18:48:02 22.2 C 15.31 g/m*3 22.2 C 0 km/h
1929 11-09-2008 18:53:02 22.2 C 15.31 g/m*3 22.2 C 0 km/h
1930 11-09-2008 18:58:02 22.2 C 15.12 g/m*3 22.2 C 0 km/h
1931 11-09-2008 19:03:02 22.2 C 15.12 g/m*3 22.2 C 0 km/h
1932 11-09-2008 19:08:02 22.1 C 15.03 g/m*3 22.1 C 0 km/h
1933 11-09-2008 19:13:02 22 C 14.94 g/m*3 22 C 0 km/h
1934 11-09-2008 19:18:02 21.8 C 15.16 g/m*3 21.8 C 0 km/h
1935 11-09-2008 19:23:02 21.6 C 14.98 g/m*3 21.6 C 0 km/h
1936 11-09-2008 19:28:02 21.4 C 14.81 g/m*3 21.4 C 0 km/h
1937 11-09-2008 19:33:01 21.2 C 14.83 g/m*3 21.2 C 0 km/h
1938 11-09-2008 19:38:01 21.1 C 14.74 g/m*3 21.1 C 0 km/h
1939 11-09-2008 19:43:01 21.1 C 14.92 g/m*3 21.1 C 0 km/h
1940 11-09-2008 19:48:02 20.9 C 14.93 g/m*3 20.9 C 0 km/h
1941 11-09-2008 19:53:02 20.8 C 14.85 g/m*3 20.8 C 0 km/h
1942 11-09-2008 19:58:02 20.7 C 14.76 g/m*3 20.7 C 0 km/h
1943 11-09-2008 20:03:02 20.6 C 14.68 g/m*3 20.6 C 0 km/h
1944 11-09-2008 20:08:02 20.4 C 14.51 g/m*3 20.4 C 0 km/h
1945 11-09-2008 20:13:02 20.3 C 14.42 g/m*3 20.3 C 0 km/h
1946 11-09-2008 20:18:02 20.1 C 14.25 g/m*3 20.1 C 0 km/h
1947 11-09-2008 20:23:02 20 C 14.17 g/m*3 20 C 0 km/h
1948 11-09-2008 20:28:02 19.9 C 14.26 g/m*3 19.9 C 0 km/h
1949 11-09-2008 20:33:02 19.9 C 14.26 g/m*3 19.9 C 0 km/h
1950 11-09-2008 20:38:02 19.9 C 14.26 g/m*3 19.9 C 0 km/h
Sensor: Nr:Datum:Temp:Abs-Feuchte:Windchill:Wind:
Aussen-T/F 1951 11-09-2008 20:43:02 19.9 C 14.26 g/m*3 19.9 C 0 km/h
1952 11-09-2008 20:48:01 20 C 14.17 g/m*3 20 C 0 km/h
1953 11-09-2008 20:53:01 19.7 C 14.26 g/m*3 19.7 C 0 km/h
1954 11-09-2008 20:58:01 19.6 C 14.18 g/m*3 19.6 C 0 km/h
1955 11-09-2008 21:03:01 19.5 C 14.1 g/m*3 19.5 C 0 km/h
1956 11-09-2008 21:08:01 19.6 C 14.18 g/m*3 19.6 C 0 km/h
1957 11-09-2008 21:13:01 19.5 C 14.1 g/m*3 19.5 C 0 km/h
1958 11-09-2008 21:18:01 19.5 C 14.1 g/m*3 19.5 C 0 km/h
1959 11-09-2008 21:23:01 19.5 C 14.1 g/m*3 19.5 C 0 km/h
1960 11-09-2008 21:28:01 19.4 C 14.01 g/m*3 19.4 C 0 km/h
1961 11-09-2008 21:33:01 19.3 C 13.93 g/m*3 19.3 C 0 km/h
1962 11-09-2008 21:38:01 19.3 C 13.93 g/m*3 19.3 C 0 km/h
1963 11-09-2008 21:43:01 19.3 C 14.1 g/m*3 19.3 C 0 km/h
1964 11-09-2008 21:49:03 19.2 C 14.02 g/m*3 19.2 C 0 km/h
1965 11-09-2008 21:54:03 19.2 C 14.02 g/m*3 19.2 C 0 km/h
1966 11-09-2008 21:59:03 19.1 C 13.93 g/m*3 19.1 C 0 km/h
1967 11-09-2008 22:04:03 19 C 13.85 g/m*3 19 C 0 km/h
1968 11-09-2008 22:09:03 19 C 13.85 g/m*3 19 C 0 km/h
1969 11-09-2008 22:14:03 19 C 13.85 g/m*3 19 C 0 km/h
1970 11-09-2008 22:19:03 18.9 C 13.93 g/m*3 18.9 C 0 km/h
1971 11-09-2008 22:24:03 18.9 C 13.93 g/m*3 18.9 C 0 km/h
1972 11-09-2008 22:29:03 18.8 C 13.85 g/m*3 18.8 C 0 km/h
1973 11-09-2008 22:34:03 18.8 C 13.85 g/m*3 18.8 C 0 km/h
1974 11-09-2008 22:39:03 18.7 C 13.93 g/m*3 18.7 C 0 km/h
1975 11-09-2008 22:44:03 18.7 C 13.93 g/m*3 18.7 C 0 km/h
Sensor: Nr:Datum:Temp:Abs-Feuchte:Windchill:Wind:
Aussen-T/F 1976 11-09-2008 22:49:03 18.7 C 13.77 g/m*3 18.7 C 0 km/h
1977 11-09-2008 22:54:03 18.6 C 13.69 g/m*3 18.6 C 0 km/h
1978 11-09-2008 22:59:03 18.6 C 13.85 g/m*3 18.6 C 0 km/h
1979 11-09-2008 23:04:04 18.6 C 13.85 g/m*3 18.6 C 0 km/h
1980 11-09-2008 23:09:04 18.5 C 13.77 g/m*3 18.5 C 0 km/h
1981 11-09-2008 23:14:04 18.5 C 13.77 g/m*3 18.5 C 0 km/h
1982 11-09-2008 23:19:04 18.5 C 13.77 g/m*3 18.5 C 0 km/h
1983 11-09-2008 23:24:04 18.4 C 13.68 g/m*3 18.4 C 0 km/h
1984 11-09-2008 23:29:04 18.3 C 13.6 g/m*3 18.3 C 0 km/h
1985 11-09-2008 23:34:04 18.2 C 13.52 g/m*3 18.2 C 0 km/h
1986 11-09-2008 23:39:04 18.1 C 13.44 g/m*3 18.1 C 0 km/h
1987 11-09-2008 23:44:04 18.1 C 13.44 g/m*3 18.1 C 0 km/h
1988 11-09-2008 23:49:04 18.1 C 13.44 g/m*3 18.1 C 0 km/h
1989 11-09-2008 23:54:04 18 C 13.36 g/m*3 18 C 0 km/h
1990 11-09-2008 23:59:04 18 C 13.52 g/m*3 18 C 0 km/h
1991 12-09-2008 00:04:04 18 C 13.52 g/m*3 18 C 0 km/h
1992 12-09-2008 00:09:04 18.1 C 13.6 g/m*3 18.1 C 0 km/h
1993 12-09-2008 00:14:04 18.1 C 13.6 g/m*3 18.1 C 0 km/h
1994 12-09-2008 00:19:04 18.1 C 13.6 g/m*3 18.1 C 0 km/h
1995 12-09-2008 00:24:04 18.1 C 13.6 g/m*3 18.1 C 0 km/h
1996 12-09-2008 00:29:04 18.1 C 13.6 g/m*3 18.1 C 0 km/h
1997 12-09-2008 00:34:04 18.1 C 13.6 g/m*3 18.1 C 0 km/h
1998 12-09-2008 00:39:05 18.1 C 13.6 g/m*3 18.1 C 0 km/h
1999 12-09-2008 00:44:05 18.1 C 13.6 g/m*3 18.1 C 0 km/h
2000 12-09-2008 00:49:05 18.1 C 13.6 g/m*3 18.1 C 0 km/h
Sensor: Nr:Datum:Temp:Abs-Feuchte:Windchill:Wind:
Aussen-T/F 2001 12-09-2008 00:54:05 18.1 C 13.6 g/m*3 18.1 C 0 km/h
2002 12-09-2008 00:59:05 18.1 C 13.6 g/m*3 18.1 C 0 km/h
2003 12-09-2008 01:04:05 18.1 C 13.6 g/m*3 18.1 C 0 km/h
2004 12-09-2008 01:09:05 18.1 C 13.6 g/m*3 18.1 C 0 km/h
2005 12-09-2008 01:14:05 18.1 C 13.6 g/m*3 18.1 C 0 km/h
2006 12-09-2008 01:19:05 18.2 C 13.68 g/m*3 18.2 C 0 km/h
2007 12-09-2008 01:24:05 18.2 C 13.68 g/m*3 18.2 C 0 km/h
2008 12-09-2008 01:29:05 18.2 C 13.68 g/m*3 18.2 C 0 km/h
2009 12-09-2008 01:34:05 18.2 C 13.52 g/m*3 18.2 C 0 km/h
2010 12-09-2008 01:39:05 18.3 C 13.6 g/m*3 18.3 C 0 km/h
2011 12-09-2008 01:44:05 18.3 C 13.6 g/m*3 18.3 C 0 km/h
2012 12-09-2008 01:49:05 18.3 C 13.6 g/m*3 18.3 C 0 km/h
2013 12-09-2008 01:54:05 18.3 C 13.45 g/m*3 18.3 C 0 km/h
2014 12-09-2008 01:59:05 18.3 C 13.45 g/m*3 18.3 C 0 km/h
2015 12-09-2008 02:04:05 18.2 C 13.37 g/m*3 18.2 C 0 km/h
2016 12-09-2008 02:09:05 18.3 C 13.45 g/m*3 18.3 C 0 km/h
2017 12-09-2008 02:14:06 18.2 C 13.37 g/m*3 18.2 C 0 km/h
2018 12-09-2008 02:19:06 18.3 C 13.45 g/m*3 18.3 C 0 km/h
2019 12-09-2008 02:24:06 18.3 C 13.45 g/m*3 18.3 C 0 km/h
2020 12-09-2008 02:29:06 18.3 C 13.45 g/m*3 18.3 C 0 km/h
2021 12-09-2008 02:34:06 18.3 C 13.45 g/m*3 18.3 C 0 km/h
2022 12-09-2008 02:39:06 18.3 C 13.45 g/m*3 18.3 C 0 km/h
2023 12-09-2008 02:44:06 18.3 C 13.45 g/m*3 18.3 C 0 km/h
2024 12-09-2008 02:49:06 18.3 C 13.45 g/m*3 18.3 C 0 km/h
2025 12-09-2008 02:54:06 18.3 C 13.45 g/m*3 18.3 C 0 km/h
Sensor: Nr:Datum:Temp:Abs-Feuchte:Windchill:Wind:
Aussen-T/F 2026 12-09-2008 02:59:06 18.3 C 13.45 g/m*3 18.3 C 0 km/h
2027 12-09-2008 03:04:06 18.3 C 13.45 g/m*3 18.3 C 0 km/h
2028 12-09-2008 03:09:06 18.2 C 13.37 g/m*3 18.2 C 0 km/h
2029 12-09-2008 03:14:06 18.1 C 13.44 g/m*3 18.1 C 0 km/h
2030 12-09-2008 03:19:06 18.1 C 13.44 g/m*3 18.1 C 0 km/h
2031 12-09-2008 03:24:06 18.1 C 13.44 g/m*3 18.1 C 0 km/h
2032 12-09-2008 03:29:06 18.2 C 13.52 g/m*3 18.2 C 0 km/h
2033 12-09-2008 03:34:06 18 C 13.36 g/m*3 18 C 0 km/h
2034 12-09-2008 03:39:06 17.9 C 13.44 g/m*3 17.9 C 0 km/h
2035 12-09-2008 03:44:06 17.9 C 13.59 g/m*3 17.9 C 0 km/h
2036 12-09-2008 03:49:07 17.8 C 13.51 g/m*3 17.8 C 0 km/h
2037 12-09-2008 03:54:07 17.8 C 13.51 g/m*3 17.8 C 0 km/h
2038 12-09-2008 03:59:07 17.8 C 13.51 g/m*3 17.8 C 0 km/h
2039 12-09-2008 04:04:07 17.9 C 13.59 g/m*3 17.9 C 0 km/h
2040 12-09-2008 04:09:07 17.9 C 13.59 g/m*3 17.9 C 0 km/h
2041 12-09-2008 04:14:07 17.9 C 13.59 g/m*3 17.9 C 0 km/h
2042 12-09-2008 04:19:07 17.8 C 13.51 g/m*3 17.8 C 0 km/h
2043 12-09-2008 04:24:07 17.8 C 13.51 g/m*3 17.8 C 0 km/h
2044 12-09-2008 04:29:07 17.8 C 13.51 g/m*3 17.8 C 0 km/h
2045 12-09-2008 04:34:07 17.8 C 13.51 g/m*3 17.8 C 0 km/h
2046 12-09-2008 04:39:07 17.8 C 13.51 g/m*3 17.8 C 0 km/h
2047 12-09-2008 04:44:07 17.7 C 13.43 g/m*3 17.7 C 0 km/h
2048 12-09-2008 04:49:07 17.7 C 13.43 g/m*3 17.7 C 0 km/h
2049 12-09-2008 04:54:07 17.7 C 13.43 g/m*3 17.7 C 0 km/h
2050 12-09-2008 04:59:07 17.7 C 13.58 g/m*3 17.7 C 0 km/h
Sensor: Nr:Datum:Temp:Abs-Feuchte:Windchill:Wind:
Aussen-T/F 2051 12-09-2008 05:04:07 17.7 C 13.58 g/m*3 17.7 C 0 km/h
2052 12-09-2008 05:09:07 17.7 C 13.58 g/m*3 17.7 C 0 km/h
2053 12-09-2008 05:14:07 17.7 C 13.58 g/m*3 17.7 C 0 km/h
2054 12-09-2008 05:19:07 17.5 C 13.27 g/m*3 17.5 C 0 km/h
2055 12-09-2008 05:24:07 17.5 C 13.27 g/m*3 17.5 C 0 km/h
2056 12-09-2008 05:29:08 17.5 C 13.42 g/m*3 17.5 C 0 km/h
2057 12-09-2008 05:34:08 17.4 C 13.19 g/m*3 17.4 C 0 km/h
2058 12-09-2008 05:39:08 17.4 C 13.19 g/m*3 17.4 C 0 km/h
2059 12-09-2008 05:44:08 17.4 C 13.19 g/m*3 17.4 C 0 km/h
2060 12-09-2008 05:49:08 17.4 C 13.34 g/m*3 17.4 C 0 km/h
2061 12-09-2008 05:54:08 17.2 C 13.03 g/m*3 17.2 C 0 km/h
2062 12-09-2008 05:59:08 17.2 C 13.03 g/m*3 17.2 C 0 km/h
2063 12-09-2008 06:04:08 17.3 C 13.26 g/m*3 17.3 C 0 km/h
2064 12-09-2008 06:09:08 17.5 C 13.42 g/m*3 17.5 C 0 km/h
2065 12-09-2008 06:14:08 17.5 C 13.42 g/m*3 17.5 C 0 km/h
2066 12-09-2008 06:19:08 17.4 C 13.34 g/m*3 17.4 C 0 km/h
2067 12-09-2008 06:24:08 17.4 C 13.34 g/m*3 17.4 C 0 km/h
2068 12-09-2008 06:29:08 17.5 C 13.42 g/m*3 17.5 C 0 km/h
2069 12-09-2008 06:34:08 17.4 C 13.34 g/m*3 17.4 C 0 km/h
2070 12-09-2008 06:39:08 17.2 C 13.18 g/m*3 17.2 C 0 km/h
2071 12-09-2008 06:44:08 17.2 C 13.18 g/m*3 17.2 C 0 km/h
2072 12-09-2008 06:49:08 17.2 C 13.03 g/m*3 17.2 C 0 km/h
2073 12-09-2008 06:54:08 17 C 12.88 g/m*3 17 C 0 km/h
2074 12-09-2008 06:59:08 16.9 C 12.94 g/m*3 16.9 C 0 km/h
2075 12-09-2008 07:04:02 16.9 C 12.94 g/m*3 16.9 C 0 km/h
Sensor: Nr:Datum:Temp:Abs-Feuchte:Windchill:Wind:
Aussen-T/F 2076 12-09-2008 07:09:02 16.9 C 12.94 g/m*3 16.9 C 0 km/h
2077 12-09-2008 07:14:02 17 C 12.88 g/m*3 17 C 0 km/h
2078 12-09-2008 07:19:03 17 C 12.88 g/m*3 17 C 0 km/h
2079 12-09-2008 07:24:03 16.9 C 12.94 g/m*3 16.9 C 0 km/h
2080 12-09-2008 07:29:03 16.9 C 12.94 g/m*3 16.9 C 0 km/h
2081 12-09-2008 07:34:02 17 C 12.88 g/m*3 17 C 0 km/h
2082 12-09-2008 07:39:02 16.8 C 12.87 g/m*3 16.8 C 0 km/h
2083 12-09-2008 07:44:02 16.9 C 12.8 g/m*3 16.9 C 0 km/h
2084 12-09-2008 07:49:01 16.8 C 12.87 g/m*3 16.8 C 0 km/h
2085 12-09-2008 07:54:01 16.8 C 12.87 g/m*3 16.8 C 0 km/h
2086 12-09-2008 07:59:01 16.9 C 12.94 g/m*3 16.9 C 0 km/h
2087 12-09-2008 08:04:02 16.9 C 12.94 g/m*3 16.9 C 0 km/h
2088 12-09-2008 08:09:02 16.9 C 12.94 g/m*3 16.9 C 0 km/h
2089 12-09-2008 08:14:02 17 C 12.88 g/m*3 17 C 0 km/h
2090 12-09-2008 08:19:01 17.1 C 12.96 g/m*3 17.1 C 0 km/h
2091 12-09-2008 08:24:01 17.1 C 12.96 g/m*3 17.1 C 0 km/h
2092 12-09-2008 08:29:01 17.1 C 12.81 g/m*3 17.1 C 0 km/h
2093 12-09-2008 08:34:02 17.2 C 12.89 g/m*3 17.2 C 0 km/h
2094 12-09-2008 08:39:02 17.3 C 12.96 g/m*3 17.3 C 0 km/h
2095 12-09-2008 08:44:02 17.5 C 13.12 g/m*3 17.5 C 0 km/h
2096 12-09-2008 08:49:02 17.4 C 12.89 g/m*3 17.4 C 0 km/h
2097 12-09-2008 08:54:02 17.5 C 12.97 g/m*3 17.5 C 0 km/h
2098 12-09-2008 08:59:02 17.4 C 12.89 g/m*3 17.4 C 0 km/h
2099 12-09-2008 09:04:02 17.2 C 12.74 g/m*3 17.2 C 0 km/h
2100 12-09-2008 09:09:02 17 C 12.73 g/m*3 17 C 0 km/h
Sensor: Nr:Datum:Temp:Abs-Feuchte:Windchill:Wind:
Aussen-T/F 2101 12-09-2008 09:14:02 16.9 C 12.8 g/m*3 16.9 C 0 km/h
2102 12-09-2008 09:19:02 16.9 C 12.8 g/m*3 16.9 C 0 km/h
2103 12-09-2008 09:24:02 17 C 12.88 g/m*3 17 C 0 km/h
2104 12-09-2008 09:29:02 17 C 12.88 g/m*3 17 C 0 km/h
2105 12-09-2008 09:34:02 16.9 C 12.94 g/m*3 16.9 C 0 km/h
2106 12-09-2008 09:39:02 16.8 C 12.87 g/m*3 16.8 C 0 km/h
2107 12-09-2008 09:44:02 16.9 C 13.09 g/m*3 16.9 C 0 km/h
2108 12-09-2008 09:49:02 17 C 13.02 g/m*3 17 C 0 km/h
2109 12-09-2008 09:54:02 17.3 C 13.41 g/m*3 17.3 C 0 km/h
2110 12-09-2008 09:59:02 17.5 C 13.57 g/m*3 17.5 C 0 km/h
2111 12-09-2008 10:04:01 17.5 C 13.57 g/m*3 17.5 C 0 km/h
2112 12-09-2008 10:09:01 17.3 C 13.26 g/m*3 17.3 C 0 km/h
2113 12-09-2008 10:14:01 17.3 C 13.26 g/m*3 17.3 C 0 km/h
2114 12-09-2008 10:19:02 17.4 C 13.34 g/m*3 17.4 C 0 km/h
2115 12-09-2008 10:24:02 17.7 C 13.73 g/m*3 17.7 C 0 km/h
2116 12-09-2008 10:29:02 17.6 C 13.65 g/m*3 17.6 C 0 km/h
2117 12-09-2008 10:34:01 17.5 C 13.57 g/m*3 17.5 C 0 km/h
2118 12-09-2008 10:39:01 17.6 C 13.65 g/m*3 17.6 C 0 km/h
2119 12-09-2008 10:44:01 17.6 C 13.65 g/m*3 17.6 C 0 km/h
2120 12-09-2008 10:49:01 17.6 C 13.65 g/m*3 17.6 C 0 km/h
2121 12-09-2008 10:54:01 17.7 C 13.73 g/m*3 17.7 C 0 km/h
2122 12-09-2008 10:59:01 17.7 C 13.73 g/m*3 17.7 C 0 km/h
2123 12-09-2008 11:04:02 17.7 C 13.73 g/m*3 17.7 C 0 km/h
2124 12-09-2008 11:09:02 17.6 C 13.65 g/m*3 17.6 C 0 km/h
2125 12-09-2008 11:14:02 17.5 C 13.57 g/m*3 17.5 C 0 km/h
Sensor: Nr:Datum:Temp:Abs-Feuchte:Windchill:Wind:
Aussen-T/F 2126 12-09-2008 11:19:01 17.6 C 13.65 g/m*3 17.6 C 0 km/h
2127 12-09-2008 11:24:01 17.6 C 13.65 g/m*3 17.6 C 0 km/h
2128 12-09-2008 11:29:01 17.7 C 13.73 g/m*3 17.7 C 0 km/h
2129 12-09-2008 11:34:02 17.6 C 13.65 g/m*3 17.6 C 0 km/h
2130 12-09-2008 11:39:02 17.6 C 13.8 g/m*3 17.6 C 0 km/h
2131 12-09-2008 11:44:02 17.7 C 13.88 g/m*3 17.7 C 0 km/h
2132 12-09-2008 11:49:02 17.7 C 13.88 g/m*3 17.7 C 0 km/h
2133 12-09-2008 11:54:02 17.7 C 13.88 g/m*3 17.7 C 0 km/h
2134 12-09-2008 11:59:02 17.7 C 13.88 g/m*3 17.7 C 0 km/h
2135 12-09-2008 12:04:02 17.7 C 13.88 g/m*3 17.7 C 0 km/h
2136 12-09-2008 12:09:02 17.9 C 14.05 g/m*3 17.9 C 0 km/h
2137 12-09-2008 12:14:02 17.9 C 14.05 g/m*3 17.9 C 0 km/h
2138 12-09-2008 12:19:02 17.7 C 13.88 g/m*3 17.7 C 0 km/h
2139 12-09-2008 12:24:02 17.7 C 13.88 g/m*3 17.7 C 0 km/h
2140 12-09-2008 12:29:02 17.7 C 13.88 g/m*3 17.7 C 0 km/h
2141 12-09-2008 12:34:02 17.8 C 13.96 g/m*3 17.8 C 0 km/h
2142 12-09-2008 12:39:02 17.9 C 14.05 g/m*3 17.9 C 0 km/h
2143 12-09-2008 12:44:02 17.9 C 14.05 g/m*3 17.9 C 0 km/h
2144 12-09-2008 12:49:02 18 C 13.98 g/m*3 18 C 0 km/h
2145 12-09-2008 12:54:02 18 C 13.98 g/m*3 18 C 0 km/h
2146 12-09-2008 12:59:02 18 C 13.98 g/m*3 18 C 0 km/h
2147 12-09-2008 13:04:02 17.9 C 14.05 g/m*3 17.9 C 0 km/h
2148 12-09-2008 13:09:02 18 C 13.98 g/m*3 18 C 0 km/h
2149 12-09-2008 13:14:02 18.1 C 14.06 g/m*3 18.1 C 0 km/h
2150 12-09-2008 13:19:02 18.1 C 14.06 g/m*3 18.1 C 0 km/h
Sensor: Nr:Datum:Temp:Abs-Feuchte:Windchill:Wind:
Aussen-T/F 2151 12-09-2008 13:24:02 18.1 C 14.06 g/m*3 18.1 C 0 km/h
2152 12-09-2008 13:29:02 18 C 13.98 g/m*3 18 C 0 km/h
2153 12-09-2008 13:34:02 17.9 C 14.05 g/m*3 17.9 C 0 km/h
2154 12-09-2008 13:39:02 17.9 C 14.05 g/m*3 17.9 C 0 km/h
2155 12-09-2008 13:44:02 17.9 C 14.05 g/m*3 17.9 C 0 km/h
2156 12-09-2008 13:49:02 18 C 13.98 g/m*3 18 C 0 km/h
2157 12-09-2008 13:54:02 18.1 C 14.21 g/m*3 18.1 C 0 km/h
2158 12-09-2008 13:59:02 18.2 C 14.3 g/m*3 18.2 C 0 km/h
2159 12-09-2008 14:04:02 18.1 C 14.21 g/m*3 18.1 C 0 km/h
2160 12-09-2008 14:09:02 18.2 C 14.3 g/m*3 18.2 C 0 km/h
2161 12-09-2008 14:14:02 18.2 C 14.3 g/m*3 18.2 C 0 km/h
2162 12-09-2008 14:19:02 18.1 C 14.21 g/m*3 18.1 C 0 km/h
2163 12-09-2008 14:24:02 17.9 C 14.2 g/m*3 17.9 C 0 km/h
2164 12-09-2008 14:29:02 17.4 C 13.63 g/m*3 17.4 C 0 km/h
2165 12-09-2008 14:34:02 17 C 13.17 g/m*3 17 C 0 km/h
2166 12-09-2008 14:39:03 17 C 13.17 g/m*3 17 C 0 km/h
2167 12-09-2008 14:44:03 16.8 C 13.15 g/m*3 16.8 C 0 km/h
2168 12-09-2008 14:49:02 16.7 C 13.07 g/m*3 16.7 C 0 km/h
2169 12-09-2008 14:54:02 16.7 C 13.07 g/m*3 16.7 C 0 km/h
2170 12-09-2008 14:59:02 16.6 C 13 g/m*3 16.6 C 0 km/h
2171 12-09-2008 15:04:03 16.4 C 12.84 g/m*3 16.4 C 0 km/h
2172 12-09-2008 15:09:03 16.2 C 12.69 g/m*3 16.2 C 0 km/h
2173 12-09-2008 15:14:03 16.1 C 12.61 g/m*3 16.1 C 0 km/h
2174 12-09-2008 15:19:02 15.8 C 12.38 g/m*3 15.8 C 0 km/h
2175 12-09-2008 15:24:03 15.7 C 12.31 g/m*3 15.7 C 0 km/h
Sensor: Nr:Datum:Temp:Abs-Feuchte:Windchill:Wind:
Aussen-T/F 2176 12-09-2008 15:29:03 15.7 C 12.31 g/m*3 15.7 C 0 km/h
2177 12-09-2008 15:34:02 15.7 C 12.31 g/m*3 15.7 C 0 km/h
2178 12-09-2008 15:39:02 15.8 C 12.52 g/m*3 15.8 C 0 km/h
2179 12-09-2008 15:44:02 15.8 C 12.52 g/m*3 15.8 C 0 km/h
2180 12-09-2008 15:49:03 15.8 C 12.52 g/m*3 15.8 C 0 km/h
2181 12-09-2008 15:54:03 15.9 C 12.59 g/m*3 15.9 C 0 km/h
2182 12-09-2008 15:59:03 15.8 C 12.52 g/m*3 15.8 C 0 km/h
2183 12-09-2008 16:04:02 15.8 C 12.52 g/m*3 15.8 C 0 km/h
2184 12-09-2008 16:09:02 15.8 C 12.52 g/m*3 15.8 C 0 km/h
2185 12-09-2008 16:14:02 15.7 C 12.44 g/m*3 15.7 C 0 km/h
2186 12-09-2008 16:19:02 15.8 C 12.52 g/m*3 15.8 C 0 km/h
2187 12-09-2008 16:24:02 15.8 C 12.52 g/m*3 15.8 C 0 km/h
2188 12-09-2008 16:29:02 15.8 C 12.52 g/m*3 15.8 C 0 km/h
2189 12-09-2008 16:34:02 15.8 C 12.52 g/m*3 15.8 C 0 km/h
2190 12-09-2008 16:39:03 15.8 C 12.65 g/m*3 15.8 C 0 km/h
2191 12-09-2008 16:44:03 15.8 C 12.65 g/m*3 15.8 C 0 km/h
2192 12-09-2008 16:49:01 15.9 C 12.73 g/m*3 15.9 C 0 km/h
2193 12-09-2008 16:54:01 15.8 C 12.65 g/m*3 15.8 C 0 km/h
2194 12-09-2008 16:59:01 15.6 C 12.5 g/m*3 15.6 C 0 km/h
2195 12-09-2008 17:04:02 15.6 C 12.5 g/m*3 15.6 C 0 km/h
2196 12-09-2008 17:09:02 15.7 C 12.58 g/m*3 15.7 C 0 km/h
2197 12-09-2008 17:14:02 15.7 C 12.58 g/m*3 15.7 C 0 km/h
2198 12-09-2008 17:19:01 15.7 C 12.58 g/m*3 15.7 C 0 km/h
2199 12-09-2008 17:24:01 15.7 C 12.58 g/m*3 15.7 C 0 km/h
2200 12-09-2008 17:29:01 15.7 C 12.58 g/m*3 15.7 C 0 km/h
Sensor: Nr:Datum:Temp:Abs-Feuchte:Windchill:Wind:
Aussen-T/F 2201 12-09-2008 17:34:01 15.8 C 12.65 g/m*3 15.8 C 0 km/h
2202 12-09-2008 17:39:01 15.7 C 12.58 g/m*3 15.7 C 0 km/h
2203 12-09-2008 17:44:01 15.7 C 12.58 g/m*3 15.7 C 0 km/h
2204 12-09-2008 17:49:03 15.5 C 12.43 g/m*3 15.5 C 0 km/h
2205 12-09-2008 17:54:03 15.5 C 12.43 g/m*3 15.5 C 0 km/h
2206 12-09-2008 17:59:03 15.5 C 12.43 g/m*3 15.5 C 0 km/h
2207 12-09-2008 18:04:02 15.6 C 12.5 g/m*3 15.6 C 0 km/h
2208 12-09-2008 18:09:02 15.6 C 12.5 g/m*3 15.6 C 0 km/h
2209 12-09-2008 18:14:02 15.6 C 12.5 g/m*3 15.6 C 0 km/h
2210 12-09-2008 18:19:03 15.6 C 12.5 g/m*3 15.6 C 0 km/h
2211 12-09-2008 18:24:03 15.6 C 12.5 g/m*3 15.6 C 0 km/h
2212 12-09-2008 18:29:03 15.6 C 12.5 g/m*3 15.6 C 0 km/h
2213 12-09-2008 18:34:02 15.6 C 12.5 g/m*3 15.6 C 0 km/h
2214 12-09-2008 18:39:02 15.5 C 12.43 g/m*3 15.5 C 0 km/h
2215 12-09-2008 18:44:02 15.4 C 12.35 g/m*3 15.4 C 0 km/h
2216 12-09-2008 18:49:01 15.4 C 12.35 g/m*3 15.4 C 0 km/h
2217 12-09-2008 18:54:01 15.4 C 12.35 g/m*3 15.4 C 0 km/h
2218 12-09-2008 18:59:01 15.3 C 12.28 g/m*3 15.3 C 0 km/h
2219 12-09-2008 19:04:02 15.3 C 12.28 g/m*3 15.3 C 0 km/h
2220 12-09-2008 19:09:02 15.2 C 12.2 g/m*3 15.2 C 0 km/h
2221 12-09-2008 19:14:02 15.2 C 12.2 g/m*3 15.2 C 0 km/h
2222 12-09-2008 19:19:01 15.2 C 12.2 g/m*3 15.2 C 0 km/h
2223 12-09-2008 19:24:01 15.2 C 12.2 g/m*3 15.2 C 0 km/h
2224 12-09-2008 19:29:01 15.2 C 12.2 g/m*3 15.2 C 0 km/h
2225 12-09-2008 19:34:02 15.2 C 12.2 g/m*3 15.2 C 0 km/h
Sensor: Nr:Datum:Temp:Abs-Feuchte:Windchill:Wind:
Aussen-T/F 2226 12-09-2008 19:39:02 15.1 C 12.13 g/m*3 15.1 C 0 km/h
2227 12-09-2008 19:44:02 15 C 12.05 g/m*3 15 C 0 km/h
2228 12-09-2008 19:49:03 14.9 C 12.11 g/m*3 14.9 C 0 km/h
2229 12-09-2008 19:54:03 14.9 C 12.11 g/m*3 14.9 C 0 km/h
2230 12-09-2008 19:59:03 14.9 C 12.11 g/m*3 14.9 C 0 km/h
2231 12-09-2008 20:04:02 15 C 12.05 g/m*3 15 C 0 km/h
2232 12-09-2008 20:09:02 14.8 C 12.03 g/m*3 14.8 C 0 km/h
2233 12-09-2008 20:14:02 14.8 C 12.03 g/m*3 14.8 C 0 km/h
2234 12-09-2008 20:19:03 15 C 12.05 g/m*3 15 C 0 km/h
2235 12-09-2008 20:24:03 15 C 12.05 g/m*3 15 C 0 km/h
2236 12-09-2008 20:29:03 15 C 12.05 g/m*3 15 C 0 km/h
2237 12-09-2008 20:34:02 14.8 C 11.91 g/m*3 14.8 C 0 km/h
2238 12-09-2008 20:39:02 14.8 C 11.91 g/m*3 14.8 C 0 km/h
2239 12-09-2008 20:44:02 14.8 C 11.91 g/m*3 14.8 C 0 km/h
2240 12-09-2008 20:49:01 14.8 C 11.91 g/m*3 14.8 C 0 km/h
2241 12-09-2008 20:54:01 14.8 C 11.91 g/m*3 14.8 C 0 km/h
2242 12-09-2008 20:59:01 14.7 C 11.83 g/m*3 14.7 C 0 km/h
2243 12-09-2008 21:04:02 14.6 C 11.64 g/m*3 14.6 C 0 km/h
2244 12-09-2008 21:09:02 14.7 C 11.71 g/m*3 14.7 C 0 km/h
2245 12-09-2008 21:14:02 14.6 C 11.64 g/m*3 14.6 C 0 km/h
2246 12-09-2008 21:19:01 14.6 C 11.64 g/m*3 14.6 C 0 km/h
2247 12-09-2008 21:24:01 14.6 C 11.64 g/m*3 14.6 C 0 km/h
2248 12-09-2008 21:29:01 14.6 C 11.64 g/m*3 14.6 C 0 km/h
2249 12-09-2008 21:34:02 14.6 C 11.64 g/m*3 14.6 C 0 km/h
2250 12-09-2008 21:39:02 14.5 C 11.57 g/m*3 14.5 C 0 km/h
Sensor: Nr:Datum:Temp:Abs-Feuchte:Windchill:Wind:
Aussen-T/F 2251 12-09-2008 21:44:02 14.5 C 11.57 g/m*3 14.5 C 0 km/h
2252 12-09-2008 21:49:02 14.5 C 11.57 g/m*3 14.5 C 0 km/h
2253 12-09-2008 21:54:02 14.5 C 11.57 g/m*3 14.5 C 0 km/h
2254 12-09-2008 21:59:02 14.4 C 11.5 g/m*3 14.4 C 0 km/h
2255 12-09-2008 22:04:02 14.4 C 11.5 g/m*3 14.4 C 0 km/h
2256 12-09-2008 22:09:02 14.4 C 11.5 g/m*3 14.4 C 0 km/h
2257 12-09-2008 22:14:02 14.4 C 11.5 g/m*3 14.4 C 0 km/h
2258 12-09-2008 22:19:02 14.4 C 11.5 g/m*3 14.4 C 0 km/h
2259 12-09-2008 22:24:02 14.4 C 11.5 g/m*3 14.4 C 0 km/h
2260 12-09-2008 22:29:02 14.4 C 11.5 g/m*3 14.4 C 0 km/h
2261 12-09-2008 22:34:02 14.4 C 11.5 g/m*3 14.4 C 0 km/h
2262 12-09-2008 22:39:02 14.3 C 11.3 g/m*3 14.3 C 0 km/h
2263 12-09-2008 22:44:02 14.3 C 11.43 g/m*3 14.3 C 0 km/h
2264 12-09-2008 22:49:02 14.2 C 11.23 g/m*3 14.2 C 0 km/h
2265 12-09-2008 22:54:02 14.2 C 11.23 g/m*3 14.2 C 0 km/h
2266 12-09-2008 22:59:02 14.2 C 11.23 g/m*3 14.2 C 0 km/h
2267 12-09-2008 23:04:02 14.2 C 11.23 g/m*3 14.2 C 0 km/h
2268 12-09-2008 23:09:02 14.2 C 11.23 g/m*3 14.2 C 0 km/h
2269 12-09-2008 23:14:02 14.2 C 11.23 g/m*3 14.2 C 0 km/h
2270 12-09-2008 23:19:02 14.2 C 11.23 g/m*3 14.2 C 0 km/h
2271 12-09-2008 23:24:02 14.2 C 11.23 g/m*3 14.2 C 0 km/h
2272 12-09-2008 23:29:02 14.2 C 11.23 g/m*3 14.2 C 0 km/h
2273 12-09-2008 23:34:02 14.2 C 11.23 g/m*3 14.2 C 0 km/h
2274 12-09-2008 23:39:02 14.1 C 11.17 g/m*3 14.1 C 0 km/h
2275 12-09-2008 23:44:02 14.1 C 11.17 g/m*3 14.1 C 0 km/h
Sensor: Nr:Datum:Temp:Abs-Feuchte:Windchill:Wind:
Aussen-T/F 2276 12-09-2008 23:49:02 14.2 C 11.23 g/m*3 14.2 C 0 km/h
2277 12-09-2008 23:54:02 14.2 C 11.23 g/m*3 14.2 C 0 km/h
2278 12-09-2008 23:59:03 14.2 C 11.23 g/m*3 14.2 C 0 km/h
2279 13-09-2008 00:04:01 14.1 C 11.04 g/m*3 14.1 C 0 km/h
2280 13-09-2008 00:09:01 14.1 C 11.04 g/m*3 14.1 C 0 km/h
2281 13-09-2008 00:14:01 14.1 C 11.04 g/m*3 14.1 C 0 km/h
2282 13-09-2008 00:19:02 14.2 C 11.11 g/m*3 14.2 C 0 km/h
2283 13-09-2008 00:24:02 14.1 C 11.04 g/m*3 14.1 C 0 km/h
2284 13-09-2008 00:29:02 14.1 C 11.04 g/m*3 14.1 C 0 km/h
2285 13-09-2008 00:34:02 14.1 C 11.04 g/m*3 14.1 C 0 km/h
2286 13-09-2008 00:39:02 14.1 C 11.04 g/m*3 14.1 C 0 km/h
2287 13-09-2008 00:44:02 14.1 C 11.04 g/m*3 14.1 C 0 km/h
2288 13-09-2008 00:49:02 14.1 C 11.04 g/m*3 14.1 C 0 km/h
2289 13-09-2008 00:54:02 14.1 C 11.04 g/m*3 14.1 C 0 km/h
2290 13-09-2008 00:59:02 14.1 C 11.04 g/m*3 14.1 C 0 km/h
2291 13-09-2008 01:04:01 14.1 C 11.04 g/m*3 14.1 C 0 km/h
2292 13-09-2008 01:09:01 14.1 C 11.04 g/m*3 14.1 C 0 km/h
2293 13-09-2008 01:14:01 14.1 C 11.04 g/m*3 14.1 C 0 km/h
2294 13-09-2008 01:19:02 14.1 C 11.04 g/m*3 14.1 C 0 km/h
2295 13-09-2008 01:24:02 14.1 C 11.04 g/m*3 14.1 C 0 km/h
2296 13-09-2008 01:29:02 14.2 C 11.11 g/m*3 14.2 C 0 km/h
2297 13-09-2008 01:34:01 14.2 C 11.11 g/m*3 14.2 C 0 km/h
2298 13-09-2008 01:39:01 14.2 C 11.11 g/m*3 14.2 C 0 km/h
2299 13-09-2008 01:44:01 14.1 C 11.04 g/m*3 14.1 C 0 km/h
2300 13-09-2008 01:49:01 14.1 C 11.04 g/m*3 14.1 C 0 km/h
Sensor: Nr:Datum:Temp:Abs-Feuchte:Windchill:Wind:
Aussen-T/F 2301 13-09-2008 01:54:01 14.1 C 10.92 g/m*3 14.1 C 0 km/h
2302 13-09-2008 01:59:01 14 C 10.86 g/m*3 14 C 0 km/h
2303 13-09-2008 02:04:02 13.9 C 10.91 g/m*3 13.9 C 0 km/h
2304 13-09-2008 02:09:02 13.9 C 10.91 g/m*3 13.9 C 0 km/h
2305 13-09-2008 02:14:02 13.9 C 10.91 g/m*3 13.9 C 0 km/h
2306 13-09-2008 02:19:01 13.8 C 10.84 g/m*3 13.8 C 0 km/h
2307 13-09-2008 02:24:01 13.9 C 10.91 g/m*3 13.9 C 0 km/h
2308 13-09-2008 02:29:01 13.9 C 11.03 g/m*3 13.9 C 0 km/h
2309 13-09-2008 02:34:02 13.8 C 10.96 g/m*3 13.8 C 0 km/h
2310 13-09-2008 02:39:02 13.8 C 10.96 g/m*3 13.8 C 0 km/h
2311 13-09-2008 02:44:02 13.8 C 10.96 g/m*3 13.8 C 0 km/h
2312 13-09-2008 02:50:04 13.7 C 11.01 g/m*3 13.7 C 0 km/h
2313 13-09-2008 02:55:05 13.7 C 11.01 g/m*3 13.7 C 0 km/h
2314 13-09-2008 03:00:05 13.7 C 11.01 g/m*3 13.7 C 0 km/h
2315 13-09-2008 03:05:05 13.7 C 11.01 g/m*3 13.7 C 0 km/h
2316 13-09-2008 03:10:03 13.7 C 11.01 g/m*3 13.7 C 0 km/h
2317 13-09-2008 03:15:03 13.7 C 11.01 g/m*3 13.7 C 0 km/h
2318 13-09-2008 03:20:03 13.7 C 11.13 g/m*3 13.7 C 0 km/h
2319 13-09-2008 03:25:03 13.7 C 11.13 g/m*3 13.7 C 0 km/h
2320 13-09-2008 03:30:03 13.7 C 11.13 g/m*3 13.7 C 0 km/h
2321 13-09-2008 03:35:01 13.7 C 11.13 g/m*3 13.7 C 0 km/h
2322 13-09-2008 03:40:01 13.7 C 11.13 g/m*3 13.7 C 0 km/h
2323 13-09-2008 03:45:01 13.7 C 11.13 g/m*3 13.7 C 0 km/h
2324 13-09-2008 03:50:01 13.7 C 11.13 g/m*3 13.7 C 0 km/h
2325 13-09-2008 03:55:01 13.6 C 11.06 g/m*3 13.6 C 0 km/h
Sensor: Nr:Datum:Temp:Abs-Feuchte:Windchill:Wind:
Aussen-T/F 2326 13-09-2008 04:00:01 13.7 C 11.13 g/m*3 13.7 C 0 km/h
2327 13-09-2008 04:05:02 13.6 C 11.06 g/m*3 13.6 C 0 km/h
2328 13-09-2008 04:10:02 13.7 C 11.13 g/m*3 13.7 C 0 km/h
2329 13-09-2008 04:15:02 13.7 C 11.13 g/m*3 13.7 C 0 km/h
2330 13-09-2008 04:20:02 13.7 C 11.13 g/m*3 13.7 C 0 km/h
2331 13-09-2008 04:25:02 13.8 C 11.2 g/m*3 13.8 C 0 km/h
2332 13-09-2008 04:30:02 13.8 C 11.2 g/m*3 13.8 C 0 km/h
2333 13-09-2008 04:35:02 13.9 C 11.27 g/m*3 13.9 C 0 km/h
2334 13-09-2008 04:40:02 13.9 C 11.27 g/m*3 13.9 C 0 km/h
2335 13-09-2008 04:45:02 13.9 C 11.27 g/m*3 13.9 C 0 km/h
2336 13-09-2008 04:50:02 14 C 11.34 g/m*3 14 C 0 km/h
2337 13-09-2008 04:55:02 13.9 C 11.27 g/m*3 13.9 C 0 km/h
2338 13-09-2008 05:00:02 13.9 C 11.27 g/m*3 13.9 C 0 km/h
2339 13-09-2008 05:05:01 13.9 C 11.27 g/m*3 13.9 C 0 km/h
2340 13-09-2008 05:10:01 13.8 C 11.2 g/m*3 13.8 C 0 km/h
2341 13-09-2008 05:15:02 13.8 C 11.2 g/m*3 13.8 C 0 km/h
2342 13-09-2008 05:20:02 13.9 C 11.27 g/m*3 13.9 C 0 km/h
2343 13-09-2008 05:25:02 13.7 C 11.13 g/m*3 13.7 C 0 km/h
2344 13-09-2008 05:30:02 13.7 C 11.13 g/m*3 13.7 C 0 km/h
2345 13-09-2008 05:35:01 13.6 C 11.06 g/m*3 13.6 C 0 km/h
2346 13-09-2008 05:40:01 13.6 C 11.06 g/m*3 13.6 C 0 km/h
2347 13-09-2008 05:45:02 13.6 C 10.95 g/m*3 13.6 C 0 km/h
2348 13-09-2008 05:50:02 13.6 C 10.95 g/m*3 13.6 C 0 km/h
2349 13-09-2008 05:55:02 13.6 C 10.95 g/m*3 13.6 C 0 km/h
2350 13-09-2008 06:00:02 13.6 C 10.95 g/m*3 13.6 C 0 km/h
Sensor: Nr:Datum:Temp:Abs-Feuchte:Windchill:Wind:
Aussen-T/F 2351 13-09-2008 06:05:01 13.5 C 10.88 g/m*3 13.5 C 0 km/h
2352 13-09-2008 06:10:01 13.5 C 10.88 g/m*3 13.5 C 0 km/h
2353 13-09-2008 06:15:01 13.5 C 10.88 g/m*3 13.5 C 0 km/h
2354 13-09-2008 06:20:01 13.5 C 10.88 g/m*3 13.5 C 0 km/h
2355 13-09-2008 06:25:01 13.6 C 10.95 g/m*3 13.6 C 0 km/h
2356 13-09-2008 06:30:01 13.5 C 10.88 g/m*3 13.5 C 0 km/h
2357 13-09-2008 06:35:01 13.5 C 10.99 g/m*3 13.5 C 0 km/h
2358 13-09-2008 06:40:02 13.6 C 11.06 g/m*3 13.6 C 0 km/h
2359 13-09-2008 06:45:02 13.5 C 10.99 g/m*3 13.5 C 0 km/h
2360 13-09-2008 06:50:02 13.6 C 11.06 g/m*3 13.6 C 0 km/h
2361 13-09-2008 06:55:02 13.5 C 10.99 g/m*3 13.5 C 0 km/h
2362 13-09-2008 07:00:02 13.6 C 11.06 g/m*3 13.6 C 0 km/h
2363 13-09-2008 07:05:01 13.5 C 10.99 g/m*3 13.5 C 0 km/h
2364 13-09-2008 07:10:01 13.5 C 10.99 g/m*3 13.5 C 0 km/h
2365 13-09-2008 07:15:02 13.5 C 10.99 g/m*3 13.5 C 0 km/h
2366 13-09-2008 07:20:02 13.5 C 11.11 g/m*3 13.5 C 0 km/h
2367 13-09-2008 07:25:02 13.5 C 11.11 g/m*3 13.5 C 0 km/h
2368 13-09-2008 07:30:03 13.5 C 11.11 g/m*3 13.5 C 0 km/h
2369 13-09-2008 07:35:01 13.6 C 11.18 g/m*3 13.6 C 0 km/h
2370 13-09-2008 07:40:01 13.6 C 11.18 g/m*3 13.6 C 0 km/h
2371 13-09-2008 07:45:02 13.6 C 11.18 g/m*3 13.6 C 0 km/h
2372 13-09-2008 07:50:02 13.7 C 11.25 g/m*3 13.7 C 0 km/h
2373 13-09-2008 07:55:02 13.7 C 11.25 g/m*3 13.7 C 0 km/h
2374 13-09-2008 08:00:02 13.7 C 11.25 g/m*3 13.7 C 0 km/h
2375 13-09-2008 08:05:01 13.7 C 11.25 g/m*3 13.7 C 0 km/h
Sensor: Nr:Datum:Temp:Abs-Feuchte:Windchill:Wind:
Aussen-T/F 2376 13-09-2008 08:10:01 13.7 C 11.25 g/m*3 13.7 C 0 km/h
2377 13-09-2008 08:15:01 13.7 C 11.25 g/m*3 13.7 C 0 km/h
2378 13-09-2008 08:20:01 13.8 C 11.32 g/m*3 13.8 C 0 km/h
2379 13-09-2008 08:25:01 13.8 C 11.32 g/m*3 13.8 C 0 km/h
2380 13-09-2008 08:30:01 13.7 C 11.25 g/m*3 13.7 C 0 km/h
2381 13-09-2008 08:35:01 13.6 C 11.18 g/m*3 13.6 C 0 km/h
2382 13-09-2008 08:40:01 13.5 C 11.11 g/m*3 13.5 C 0 km/h
2383 13-09-2008 08:45:01 13.4 C 11.04 g/m*3 13.4 C 0 km/h
2384 13-09-2008 08:50:01 13.4 C 11.04 g/m*3 13.4 C 0 km/h
2385 13-09-2008 08:55:01 13.4 C 11.04 g/m*3 13.4 C 0 km/h
2386 13-09-2008 09:00:01 13.4 C 11.04 g/m*3 13.4 C 0 km/h
2387 13-09-2008 09:05:02 13.4 C 11.04 g/m*3 13.4 C 0 km/h
2388 13-09-2008 09:10:02 13.4 C 11.04 g/m*3 13.4 C 0 km/h
2389 13-09-2008 09:15:01 13.3 C 10.98 g/m*3 13.3 C 0 km/h
2390 13-09-2008 09:20:01 13.3 C 10.98 g/m*3 13.3 C 0 km/h
2391 13-09-2008 09:25:01 13.1 C 10.84 g/m*3 13.1 C 0 km/h
2392 13-09-2008 09:30:01 13.1 C 10.84 g/m*3 13.1 C 0 km/h
2393 13-09-2008 09:35:01 13.1 C 10.84 g/m*3 13.1 C 0 km/h
2394 13-09-2008 09:40:01 13 C 10.77 g/m*3 13 C 0 km/h
2395 13-09-2008 09:45:02 13 C 10.77 g/m*3 13 C 0 km/h
2396 13-09-2008 09:50:02 13 C 10.77 g/m*3 13 C 0 km/h
2397 13-09-2008 09:55:02 13 C 10.77 g/m*3 13 C 0 km/h
2398 13-09-2008 10:00:02 12.9 C 10.71 g/m*3 12.9 C 0 km/h
2399 13-09-2008 10:05:02 13 C 10.77 g/m*3 13 C 0 km/h
2400 13-09-2008 10:10:02 13 C 10.77 g/m*3 13 C 0 km/h
Sensor: Nr:Datum:Temp:Abs-Feuchte:Windchill:Wind:
Aussen-T/F 2401 13-09-2008 10:15:02 13.1 C 10.84 g/m*3 13.1 C 0 km/h
2402 13-09-2008 10:20:02 13.1 C 10.84 g/m*3 13.1 C 0 km/h
2403 13-09-2008 10:25:02 13.1 C 10.84 g/m*3 13.1 C 0 km/h
2404 13-09-2008 10:30:02 13.1 C 10.84 g/m*3 13.1 C 0 km/h
2405 13-09-2008 10:35:02 13 C 10.77 g/m*3 13 C 0 km/h
2406 13-09-2008 10:40:02 12.9 C 10.71 g/m*3 12.9 C 0 km/h
2407 13-09-2008 10:45:02 12.8 C 10.64 g/m*3 12.8 C 0 km/h
2408 13-09-2008 10:50:02 12.8 C 10.64 g/m*3 12.8 C 0 km/h
2409 13-09-2008 10:55:02 12.8 C 10.64 g/m*3 12.8 C 0 km/h
2410 13-09-2008 11:00:02 12.7 C 10.58 g/m*3 12.7 C 0 km/h
2411 13-09-2008 11:05:02 12.5 C 10.44 g/m*3 12.5 C 0 km/h
2412 13-09-2008 11:10:02 12.5 C 10.44 g/m*3 12.5 C 0 km/h
2413 13-09-2008 11:15:02 12.5 C 10.44 g/m*3 12.5 C 0 km/h
2414 13-09-2008 11:20:02 12.5 C 10.44 g/m*3 12.5 C 0 km/h
2415 13-09-2008 11:25:02 12.5 C 10.44 g/m*3 12.5 C 0 km/h
2416 13-09-2008 11:30:02 12.3 C 10.32 g/m*3 12.3 C 0 km/h
2417 13-09-2008 11:35:02 12.3 C 10.32 g/m*3 12.3 C 0 km/h
2418 13-09-2008 11:40:02 12.4 C 10.38 g/m*3 12.4 C 0 km/h
2419 13-09-2008 11:45:02 12.2 C 10.25 g/m*3 12.2 C 0 km/h
2420 13-09-2008 11:50:02 12.2 C 10.25 g/m*3 12.2 C 0 km/h
2421 13-09-2008 11:55:02 12.2 C 10.25 g/m*3 12.2 C 0 km/h
2422 13-09-2008 12:00:02 12.3 C 10.32 g/m*3 12.3 C 0 km/h
2423 13-09-2008 12:05:01 12.3 C 10.32 g/m*3 12.3 C 0 km/h
2424 13-09-2008 12:10:01 12.2 C 10.25 g/m*3 12.2 C 0 km/h
2425 13-09-2008 12:15:02 12.2 C 10.25 g/m*3 12.2 C 0 km/h
Sensor: Nr:Datum:Temp:Abs-Feuchte:Windchill:Wind:
Aussen-T/F 2426 13-09-2008 12:20:02 12.2 C 10.25 g/m*3 12.2 C 0 km/h
2427 13-09-2008 12:25:02 12.2 C 10.25 g/m*3 12.2 C 0 km/h
2428 13-09-2008 12:30:02 12.1 C 10.19 g/m*3 12.1 C 0 km/h
2429 13-09-2008 12:35:01 12 C 10.12 g/m*3 12 C 0 km/h
2430 13-09-2008 12:40:01 12 C 10.12 g/m*3 12 C 0 km/h
2431 13-09-2008 12:45:01 11.9 C 10.06 g/m*3 11.9 C 0 km/h
2432 13-09-2008 12:50:01 11.9 C 10.06 g/m*3 11.9 C 0 km/h
2433 13-09-2008 12:55:01 11.9 C 10.06 g/m*3 11.9 C 0 km/h
2434 13-09-2008 13:00:01 12 C 10.12 g/m*3 12 C 0 km/h
2435 13-09-2008 13:05:02 11.9 C 10.06 g/m*3 11.9 C 0 km/h
2436 13-09-2008 13:10:02 11.9 C 10.06 g/m*3 11.9 C 0 km/h
2437 13-09-2008 13:15:01 11.9 C 10.06 g/m*3 11.9 C 0 km/h
2438 13-09-2008 13:20:01 11.9 C 10.06 g/m*3 11.9 C 0 km/h
2439 13-09-2008 13:25:01 12 C 10.02 g/m*3 12 C 0 km/h
2440 13-09-2008 13:30:01 12 C 10.02 g/m*3 12 C 0 km/h
2441 13-09-2008 13:35:02 11.7 C 9.94 g/m*3 11.7 C 0 km/h
2442 13-09-2008 13:40:02 11.7 C 9.94 g/m*3 11.7 C 0 km/h
2443 13-09-2008 13:45:02 11.7 C 9.94 g/m*3 11.7 C 0 km/h
2444 13-09-2008 13:50:02 11.7 C 9.94 g/m*3 11.7 C 0 km/h
2445 13-09-2008 13:55:03 11.6 C 9.77 g/m*3 11.6 C 0 km/h
2446 13-09-2008 14:00:03 11.6 C 9.77 g/m*3 11.6 C 0 km/h
2447 13-09-2008 14:05:02 11.8 C 9.89 g/m*3 11.8 C 0 km/h
2448 13-09-2008 14:10:02 11.9 C 9.96 g/m*3 11.9 C 0 km/h
2449 13-09-2008 14:15:02 11.9 C 9.96 g/m*3 11.9 C 0 km/h
2450 13-09-2008 14:20:02 12 C 10.02 g/m*3 12 C 0 km/h
Sensor: Nr:Datum:Temp:Abs-Feuchte:Windchill:Wind:
Aussen-T/F 2451 13-09-2008 14:25:02 12.1 C 10.08 g/m*3 12.1 C 0 km/h
2452 13-09-2008 14:30:02 12.1 C 9.97 g/m*3 12.1 C 0 km/h
2453 13-09-2008 14:35:02 12.1 C 9.97 g/m*3 12.1 C 0 km/h
2454 13-09-2008 14:40:02 12.1 C 9.97 g/m*3 12.1 C 0 km/h
2455 13-09-2008 14:45:01 12.2 C 10.04 g/m*3 12.2 C 0 km/h
2456 13-09-2008 14:50:01 12.3 C 10.1 g/m*3 12.3 C 0 km/h
2457 13-09-2008 14:55:01 12.5 C 10.22 g/m*3 12.5 C 0 km/h
2458 13-09-2008 15:00:01 12.8 C 10.3 g/m*3 12.8 C 0 km/h
2459 13-09-2008 15:05:02 13 C 10.43 g/m*3 13 C 0 km/h
2460 13-09-2008 15:10:02 13.5 C 10.76 g/m*3 13.5 C 0 km/h
2461 13-09-2008 15:15:02 13.7 C 10.78 g/m*3 13.7 C 0 km/h
2462 13-09-2008 15:20:02 13.9 C 10.91 g/m*3 13.9 C 0 km/h
2463 13-09-2008 15:25:02 14 C 10.86 g/m*3 14 C 0 km/h
2464 13-09-2008 15:30:02 14.3 C 11.06 g/m*3 14.3 C 0 km/h
2465 13-09-2008 15:35:02 14.4 C 11.13 g/m*3 14.4 C 0 km/h
2466 13-09-2008 15:40:02 14.4 C 11 g/m*3 14.4 C 0 km/h
2467 13-09-2008 15:45:02 14.4 C 11 g/m*3 14.4 C 0 km/h
2468 13-09-2008 15:50:02 14.5 C 11.07 g/m*3 14.5 C 0 km/h
2469 13-09-2008 15:55:02 14.5 C 11.07 g/m*3 14.5 C 0 km/h
2470 13-09-2008 16:00:03 14.8 C 11.15 g/m*3 14.8 C 0 km/h
2471 13-09-2008 16:05:02 14.9 C 11.09 g/m*3 14.9 C 0 km/h
2472 13-09-2008 16:10:02 15.1 C 10.97 g/m*3 15.1 C 0 km/h
2473 13-09-2008 16:15:02 15 C 10.64 g/m*3 15 C 0 km/h
2474 13-09-2008 16:20:03 14.7 C 10.45 g/m*3 14.7 C 0 km/h
2475 13-09-2008 16:25:03 15 C 10.51 g/m*3 15 C 0 km/h
Sensor: Nr:Datum:Temp:Abs-Feuchte:Windchill:Wind:
Aussen-T/F 2476 13-09-2008 16:30:03 15 C 10.39 g/m*3 15 C 0 km/h
2477 13-09-2008 16:35:02 15 C 10.39 g/m*3 15 C 0 km/h
2478 13-09-2008 16:40:02 15 C 10.39 g/m*3 15 C 0 km/h
2479 13-09-2008 16:45:03 14.9 C 10.45 g/m*3 14.9 C 0 km/h
2480 13-09-2008 16:50:03 14.8 C 10.51 g/m*3 14.8 C 0 km/h
2481 13-09-2008 16:55:03 14.9 C 10.58 g/m*3 14.9 C 0 km/h
2482 13-09-2008 17:00:03 14.9 C 10.58 g/m*3 14.9 C 0 km/h
2483 13-09-2008 17:05:02 14.8 C 10.39 g/m*3 14.8 C 0 km/h
2484 13-09-2008 17:10:02 14.7 C 10.32 g/m*3 14.7 C 0 km/h
2485 13-09-2008 17:15:02 14.6 C 10.26 g/m*3 14.6 C 0 km/h
2486 13-09-2008 17:20:02 14.4 C 10.14 g/m*3 14.4 C 0 km/h
2487 13-09-2008 17:25:02 14.3 C 10.07 g/m*3 14.3 C 0 km/h
2488 13-09-2008 17:30:02 14.3 C 9.95 g/m*3 14.3 C 0 km/h
2489 13-09-2008 17:35:03 14.3 C 9.95 g/m*3 14.3 C 0 km/h
2490 13-09-2008 17:40:03 14.2 C 9.89 g/m*3 14.2 C 0 km/h
2491 13-09-2008 17:45:02 14.2 C 10.01 g/m*3 14.2 C 0 km/h
2492 13-09-2008 17:50:02 14.1 C 9.95 g/m*3 14.1 C 0 km/h
2493 13-09-2008 17:55:02 14 C 9.89 g/m*3 14 C 0 km/h
2494 13-09-2008 18:00:03 13.9 C 9.95 g/m*3 13.9 C 0 km/h
2495 13-09-2008 18:05:01 13.8 C 9.77 g/m*3 13.8 C 0 km/h
2496 13-09-2008 18:10:01 13.7 C 9.71 g/m*3 13.7 C 0 km/h
2497 13-09-2008 18:15:02 13.5 C 9.59 g/m*3 13.5 C 0 km/h
2498 13-09-2008 18:20:03 13.4 C 9.65 g/m*3 13.4 C 0 km/h
2499 13-09-2008 18:25:03 13.4 C 9.65 g/m*3 13.4 C 0 km/h
2500 13-09-2008 18:30:03 13.2 C 9.64 g/m*3 13.2 C 0 km/h
Sensor: Nr:Datum:Temp:Abs-Feuchte:Windchill:Wind:
Aussen-T/F 2501 13-09-2008 18:35:02 13.1 C 9.59 g/m*3 13.1 C 0 km/h
2502 13-09-2008 18:40:02 13 C 9.64 g/m*3 13 C 0 km/h
2503 13-09-2008 18:45:01 12.9 C 9.69 g/m*3 12.9 C 0 km/h
2504 13-09-2008 18:50:01 12.9 C 9.69 g/m*3 12.9 C 0 km/h
2505 13-09-2008 18:55:01 12.9 C 9.69 g/m*3 12.9 C 0 km/h
2506 13-09-2008 19:00:01 12.8 C 9.74 g/m*3 12.8 C 0 km/h
2507 13-09-2008 19:05:02 12.8 C 9.74 g/m*3 12.8 C 0 km/h
2508 13-09-2008 19:10:02 12.7 C 9.68 g/m*3 12.7 C 0 km/h
2509 13-09-2008 19:15:01 12.5 C 9.57 g/m*3 12.5 C 0 km/h
2510 13-09-2008 19:20:01 12.4 C 9.4 g/m*3 12.4 C 0 km/h
2511 13-09-2008 19:25:01 12.1 C 9.22 g/m*3 12.1 C 0 km/h
2512 13-09-2008 19:30:01 12.1 C 9.22 g/m*3 12.1 C 0 km/h
2513 13-09-2008 19:35:02 11.8 C 9.05 g/m*3 11.8 C 0 km/h
2514 13-09-2008 19:40:02 11.7 C 9.1 g/m*3 11.7 C 0 km/h
2515 13-09-2008 19:45:02 11.6 C 9.04 g/m*3 11.6 C 0 km/h
2516 13-09-2008 19:50:02 11.4 C 8.93 g/m*3 11.4 C 0 km/h
2517 13-09-2008 19:55:02 11.2 C 8.82 g/m*3 11.2 C 0 km/h
2518 13-09-2008 20:00:02 11.2 C 8.82 g/m*3 11.2 C 0 km/h
2519 13-09-2008 20:05:02 11 C 8.71 g/m*3 11 C 0 km/h
2520 13-09-2008 20:10:02 10.8 C 8.7 g/m*3 10.8 C 0 km/h
2521 13-09-2008 20:15:02 10.7 C 8.64 g/m*3 10.7 C 0 km/h
2522 13-09-2008 20:20:02 10.6 C 8.59 g/m*3 10.6 C 0 km/h
2523 13-09-2008 20:25:03 10.4 C 8.48 g/m*3 10.4 C 0 km/h
2524 13-09-2008 20:30:03 10.2 C 8.37 g/m*3 10.2 C 0 km/h
2525 13-09-2008 20:35:02 10.1 C 8.32 g/m*3 10.1 C 0 km/h
Sensor: Nr:Datum:Temp:Abs-Feuchte:Windchill:Wind:
Aussen-T/F 2526 13-09-2008 20:40:02 10 C 8.27 g/m*3 10 C 0 km/h
2527 13-09-2008 20:45:03 9.9 C 8.31 g/m*3 9.9 C 0 km/h
2528 13-09-2008 20:50:03 9.9 C 8.31 g/m*3 9.9 C 0 km/h
2529 13-09-2008 20:55:03 9.7 C 8.2 g/m*3 9.7 C 0 km/h
2530 13-09-2008 21:00:03 9.6 C 8.06 g/m*3 9.6 C 0 km/h
2531 13-09-2008 21:05:02 9.6 C 8.06 g/m*3 9.6 C 0 km/h
2532 13-09-2008 21:10:02 9.5 C 8.01 g/m*3 9.5 C 0 km/h
2533 13-09-2008 21:15:02 9.4 C 7.96 g/m*3 9.4 C 0 km/h
2534 13-09-2008 21:20:02 9.4 C 7.96 g/m*3 9.4 C 0 km/h
2535 13-09-2008 21:25:02 9.2 C 7.86 g/m*3 9.2 C 0 km/h
2536 13-09-2008 21:30:02 9.2 C 7.86 g/m*3 9.2 C 0 km/h
2537 13-09-2008 21:35:02 9.1 C 7.81 g/m*3 9.1 C 0 km/h
2538 13-09-2008 21:40:02 9 C 7.76 g/m*3 9 C 0 km/h
2539 13-09-2008 21:45:02 8.9 C 7.8 g/m*3 8.9 C 0 km/h
2540 13-09-2008 21:50:02 8.8 C 7.75 g/m*3 8.8 C 0 km/h
2541 13-09-2008 21:55:02 8.8 C 7.75 g/m*3 8.8 C 0 km/h
2542 13-09-2008 22:00:02 8.7 C 7.7 g/m*3 8.7 C 0 km/h
2543 13-09-2008 22:05:01 8.6 C 7.65 g/m*3 8.6 C 0 km/h
2544 13-09-2008 22:10:01 8.6 C 7.65 g/m*3 8.6 C 0 km/h
2545 13-09-2008 22:15:02 8.5 C 7.6 g/m*3 8.5 C 0 km/h
2546 13-09-2008 22:20:02 8.5 C 7.51 g/m*3 8.5 C 0 km/h
2547 13-09-2008 22:25:03 8.5 C 7.51 g/m*3 8.5 C 0 km/h
2548 13-09-2008 22:30:03 8.5 C 7.51 g/m*3 8.5 C 0 km/h
2549 13-09-2008 22:35:01 8.5 C 7.43 g/m*3 8.5 C 0 km/h
2550 13-09-2008 22:40:01 8.4 C 7.38 g/m*3 8.4 C 0 km/h
Sensor: Nr:Datum:Temp:Abs-Feuchte:Windchill:Wind:
Aussen-T/F 2551 13-09-2008 22:45:02 8.4 C 7.3 g/m*3 8.4 C 0 km/h
2552 13-09-2008 22:50:02 8.5 C 7.26 g/m*3 8.5 C 0 km/h
2553 13-09-2008 22:55:02 8.4 C 7.13 g/m*3 8.4 C 0 km/h
2554 13-09-2008 23:00:02 8.4 C 7.13 g/m*3 8.4 C 0 km/h
2555 13-09-2008 23:06:01 8.4 C 7.04 g/m*3 8.4 C 0 km/h
2556 13-09-2008 23:11:01 8.4 C 6.96 g/m*3 8.4 C 0 km/h
2557 13-09-2008 23:16:01 8.3 C 6.91 g/m*3 8.3 C 0 km/h
2558 13-09-2008 23:21:01 8.2 C 6.87 g/m*3 8.2 C 0 km/h
2559 13-09-2008 23:26:01 8.1 C 6.82 g/m*3 8.1 C 0 km/h
2560 13-09-2008 23:31:01 8.1 C 6.82 g/m*3 8.1 C 0 km/h
2561 13-09-2008 23:36:01 8.1 C 6.82 g/m*3 8.1 C 0 km/h
2562 13-09-2008 23:41:01 8.1 C 6.82 g/m*3 8.1 C 0 km/h
2563 13-09-2008 23:46:01 8 C 6.78 g/m*3 8 C 0 km/h
2564 13-09-2008 23:51:01 8 C 6.78 g/m*3 8 C 0 km/h
2565 13-09-2008 23:56:02 7.9 C 6.82 g/m*3 7.9 C 0 km/h
2566 14-09-2008 00:01:02 8 C 6.78 g/m*3 8 C 0 km/h
2567 14-09-2008 00:06:02 8 C 6.7 g/m*3 8 C 0 km/h
2568 14-09-2008 00:11:02 7.9 C 6.74 g/m*3 7.9 C 0 km/h
2569 14-09-2008 00:16:02 8 C 6.7 g/m*3 8 C 0 km/h
2570 14-09-2008 00:21:02 8 C 6.61 g/m*3 8 C 0 km/h
2571 14-09-2008 00:26:02 8 C 6.53 g/m*3 8 C 0 km/h
2572 14-09-2008 00:31:02 8.1 C 6.57 g/m*3 8.1 C 0 km/h
2573 14-09-2008 00:36:02 8.1 C 6.49 g/m*3 8.1 C 0 km/h
2574 14-09-2008 00:41:02 8.2 C 6.53 g/m*3 8.2 C 0 km/h
2575 14-09-2008 00:46:02 8.2 C 6.36 g/m*3 8.2 C 0 km/h
Sensor: Nr:Datum:Temp:Abs-Feuchte:Windchill:Wind:
Aussen-T/F 2576 14-09-2008 00:51:02 8.2 C 6.36 g/m*3 8.2 C 0 km/h
2577 14-09-2008 00:56:02 8.2 C 6.36 g/m*3 8.2 C 0 km/h
2578 14-09-2008 01:01:02 8.2 C 6.28 g/m*3 8.2 C 0 km/h
2579 14-09-2008 01:06:02 8.2 C 6.2 g/m*3 8.2 C 0 km/h
2580 14-09-2008 01:11:02 8.1 C 6.16 g/m*3 8.1 C 0 km/h
2581 14-09-2008 01:16:02 8.1 C 6.16 g/m*3 8.1 C 0 km/h
2582 14-09-2008 01:21:02 8.1 C 6.24 g/m*3 8.1 C 0 km/h
2583 14-09-2008 01:26:02 8.1 C 6.24 g/m*3 8.1 C 0 km/h
2584 14-09-2008 01:31:02 8.1 C 6.24 g/m*3 8.1 C 0 km/h
2585 14-09-2008 01:36:03 8.1 C 6.24 g/m*3 8.1 C 0 km/h
2586 14-09-2008 01:41:03 8.3 C 6.24 g/m*3 8.3 C 0 km/h
2587 14-09-2008 01:46:03 8.3 C 6.15 g/m*3 8.3 C 0 km/h
2588 14-09-2008 01:51:03 8.4 C 6.19 g/m*3 8.4 C 0 km/h
2589 14-09-2008 01:56:03 8.4 C 6.19 g/m*3 8.4 C 0 km/h
2590 14-09-2008 02:01:03 8.4 C 6.19 g/m*3 8.4 C 0 km/h
2591 14-09-2008 02:06:03 8.5 C 6.23 g/m*3 8.5 C 0 km/h
2592 14-09-2008 02:11:03 8.4 C 6.19 g/m*3 8.4 C 0 km/h
2593 14-09-2008 02:16:03 8.4 C 6.19 g/m*3 8.4 C 0 km/h
2594 14-09-2008 02:21:03 8.4 C 6.28 g/m*3 8.4 C 0 km/h
2595 14-09-2008 02:26:03 8.3 C 6.15 g/m*3 8.3 C 0 km/h
2596 14-09-2008 02:31:03 8.2 C 6.2 g/m*3 8.2 C 0 km/h
2597 14-09-2008 02:36:03 8.2 C 6.2 g/m*3 8.2 C 0 km/h
2598 14-09-2008 02:41:03 8.2 C 6.11 g/m*3 8.2 C 0 km/h
2599 14-09-2008 02:46:03 8.2 C 6.11 g/m*3 8.2 C 0 km/h
2600 14-09-2008 02:51:03 8.2 C 6.11 g/m*3 8.2 C 0 km/h
Sensor: Nr:Datum:Temp:Abs-Feuchte:Windchill:Wind:
Aussen-T/F 2601 14-09-2008 02:56:03 8.5 C 6.06 g/m*3 8.5 C 0 km/h
2602 14-09-2008 03:01:03 8.4 C 6.02 g/m*3 8.4 C 0 km/h
2603 14-09-2008 03:06:03 8.5 C 5.98 g/m*3 8.5 C 0 km/h
2604 14-09-2008 03:11:03 8.4 C 6.02 g/m*3 8.4 C 0 km/h
2605 14-09-2008 03:16:04 8.3 C 6.07 g/m*3 8.3 C 0 km/h
2606 14-09-2008 03:21:04 8.3 C 5.98 g/m*3 8.3 C 0 km/h
2607 14-09-2008 03:26:04 8.2 C 6.03 g/m*3 8.2 C 0 km/h
2608 14-09-2008 03:31:04 8.2 C 6.03 g/m*3 8.2 C 0 km/h
2609 14-09-2008 03:36:04 8.2 C 6.03 g/m*3 8.2 C 0 km/h
2610 14-09-2008 03:41:04 8 C 6.04 g/m*3 8 C 0 km/h
2611 14-09-2008 03:46:04 8 C 6.04 g/m*3 8 C 0 km/h
2612 14-09-2008 03:51:04 8 C 6.04 g/m*3 8 C 0 km/h
2613 14-09-2008 03:56:04 8 C 6.04 g/m*3 8 C 0 km/h
2614 14-09-2008 04:01:04 7.9 C 6.08 g/m*3 7.9 C 0 km/h
2615 14-09-2008 04:06:04 7.8 C 6.04 g/m*3 7.8 C 0 km/h
2616 14-09-2008 04:11:04 7.7 C 6.08 g/m*3 7.7 C 0 km/h
2617 14-09-2008 04:16:04 7.5 C 6.08 g/m*3 7.5 C 0 km/h
2618 14-09-2008 04:21:04 7.4 C 6.12 g/m*3 7.4 C 0 km/h
2619 14-09-2008 04:26:04 7.3 C 6.08 g/m*3 7.3 C 0 km/h
2620 14-09-2008 04:31:04 7.2 C 6.12 g/m*3 7.2 C 0 km/h
2621 14-09-2008 04:36:04 7.2 C 6.12 g/m*3 7.2 C 0 km/h
2622 14-09-2008 04:41:04 7.1 C 6.08 g/m*3 7.1 C 0 km/h
2623 14-09-2008 04:46:04 7 C 6.12 g/m*3 7 C 0 km/h
2624 14-09-2008 04:51:05 7.1 C 6.16 g/m*3 7.1 C 0 km/h
2625 14-09-2008 04:56:05 7.1 C 6.16 g/m*3 7.1 C 0 km/h
Sensor: Nr:Datum:Temp:Abs-Feuchte:Windchill:Wind:
Aussen-T/F 2626 14-09-2008 05:01:05 7.3 C 6.16 g/m*3 7.3 C 0 km/h
2627 14-09-2008 05:06:05 7.3 C 6.16 g/m*3 7.3 C 0 km/h
2628 14-09-2008 05:11:05 7.7 C 6.32 g/m*3 7.7 C 0 km/h
2629 14-09-2008 05:16:05 7.3 C 6.08 g/m*3 7.3 C 0 km/h
2630 14-09-2008 05:21:05 7.1 C 6.01 g/m*3 7.1 C 0 km/h
2631 14-09-2008 05:26:05 7.1 C 6.08 g/m*3 7.1 C 0 km/h
2632 14-09-2008 05:31:05 7.1 C 6.01 g/m*3 7.1 C 0 km/h
2633 14-09-2008 05:36:05 6.9 C 6 g/m*3 6.9 C 0 km/h
2634 14-09-2008 05:41:05 6.9 C 6.08 g/m*3 6.9 C 0 km/h
2635 14-09-2008 05:46:05 6.8 C 6.12 g/m*3 6.8 C 0 km/h
2636 14-09-2008 05:51:05 6.8 C 6.12 g/m*3 6.8 C 0 km/h
2637 14-09-2008 05:56:05 6.8 C 6.12 g/m*3 6.8 C 0 km/h
2638 14-09-2008 06:01:05 6.8 C 6.19 g/m*3 6.8 C 0 km/h
2639 14-09-2008 06:06:05 6.8 C 6.12 g/m*3 6.8 C 0 km/h
2640 14-09-2008 06:11:05 6.8 C 6.19 g/m*3 6.8 C 0 km/h
2641 14-09-2008 06:16:05 6.7 C 6.15 g/m*3 6.7 C 0 km/h
2642 14-09-2008 06:21:05 6.7 C 6.15 g/m*3 6.7 C 0 km/h
2643 14-09-2008 06:26:06 6.8 C 6.12 g/m*3 6.8 C 0 km/h
2644 14-09-2008 06:31:06 6.8 C 6.04 g/m*3 6.8 C 0 km/h
2645 14-09-2008 06:36:06 6.8 C 5.97 g/m*3 6.8 C 0 km/h
2646 14-09-2008 06:41:06 6.7 C 5.93 g/m*3 6.7 C 0 km/h
2647 14-09-2008 06:46:06 6.6 C 5.96 g/m*3 6.6 C 0 km/h
2648 14-09-2008 06:51:06 6.5 C 6 g/m*3 6.5 C 0 km/h
2649 14-09-2008 06:56:06 6.4 C 5.96 g/m*3 6.4 C 0 km/h
2650 14-09-2008 07:01:02 6.4 C 5.96 g/m*3 6.4 C 0 km/h
Sensor: Nr:Datum:Temp:Abs-Feuchte:Windchill:Wind:
Aussen-T/F 2651 14-09-2008 07:06:02 6.2 C 5.96 g/m*3 6.2 C 0 km/h
2652 14-09-2008 07:11:02 6 C 5.88 g/m*3 6 C 0 km/h
2653 14-09-2008 07:16:02 5.9 C 5.98 g/m*3 5.9 C 0 km/h
2654 14-09-2008 07:21:02 5.8 C 5.95 g/m*3 5.8 C 0 km/h
2655 14-09-2008 07:26:02 5.8 C 5.95 g/m*3 5.8 C 0 km/h
2656 14-09-2008 07:31:01 5.8 C 6.02 g/m*3 5.8 C 0 km/h
2657 14-09-2008 07:36:01 5.8 C 6.02 g/m*3 5.8 C 0 km/h
2658 14-09-2008 07:41:01 5.7 C 5.98 g/m*3 5.7 C 0 km/h
2659 14-09-2008 07:46:02 5.8 C 6.09 g/m*3 5.8 C 0 km/h
2660 14-09-2008 07:51:02 5.8 C 6.09 g/m*3 5.8 C 0 km/h
2661 14-09-2008 07:56:02 5.8 C 6.09 g/m*3 5.8 C 0 km/h
2662 14-09-2008 08:01:02 5.8 C 6.09 g/m*3 5.8 C 0 km/h
2663 14-09-2008 08:06:02 5.7 C 6.05 g/m*3 5.7 C 0 km/h
2664 14-09-2008 08:11:02 5.7 C 6.12 g/m*3 5.7 C 0 km/h
2665 14-09-2008 08:16:01 5.8 C 6.16 g/m*3 5.8 C 0 km/h
2666 14-09-2008 08:21:01 5.9 C 6.2 g/m*3 5.9 C 0 km/h
2667 14-09-2008 08:26:01 5.9 C 6.2 g/m*3 5.9 C 0 km/h
2668 14-09-2008 08:31:02 5.9 C 6.27 g/m*3 5.9 C 0 km/h
2669 14-09-2008 08:36:03 5.9 C 6.27 g/m*3 5.9 C 0 km/h
2670 14-09-2008 08:41:03 5.9 C 6.27 g/m*3 5.9 C 0 km/h
2671 14-09-2008 08:46:02 6 C 6.24 g/m*3 6 C 0 km/h
2672 14-09-2008 08:51:02 6.2 C 6.4 g/m*3 6.2 C 0 km/h
2673 14-09-2008 08:56:02 6.2 C 6.4 g/m*3 6.2 C 0 km/h
2674 14-09-2008 09:01:02 6.3 C 6.44 g/m*3 6.3 C 0 km/h
2675 14-09-2008 09:06:02 6.4 C 6.48 g/m*3 6.4 C 0 km/h
Sensor: Nr:Datum:Temp:Abs-Feuchte:Windchill:Wind:
Aussen-T/F 2676 14-09-2008 09:11:02 6.6 C 6.64 g/m*3 6.6 C 0 km/h
2677 14-09-2008 09:16:02 6.7 C 6.69 g/m*3 6.7 C 0 km/h
2678 14-09-2008 09:21:02 6.8 C 6.65 g/m*3 6.8 C 0 km/h
2679 14-09-2008 09:26:03 7 C 6.66 g/m*3 7 C 0 km/h
2680 14-09-2008 09:31:01 7.1 C 6.71 g/m*3 7.1 C 0 km/h
2681 14-09-2008 09:36:01 7.3 C 6.79 g/m*3 7.3 C 0 km/h
2682 14-09-2008 09:41:01 7.6 C 6.85 g/m*3 7.6 C 0 km/h
2683 14-09-2008 09:46:02 7.6 C 6.85 g/m*3 7.6 C 0 km/h
2684 14-09-2008 09:51:02 7.7 C 6.89 g/m*3 7.7 C 0 km/h
2685 14-09-2008 09:56:02 8.1 C 6.91 g/m*3 8.1 C 0 km/h
2686 14-09-2008 10:01:02 8.4 C 7.04 g/m*3 8.4 C 0 km/h
2687 14-09-2008 10:06:02 8.5 C 7.09 g/m*3 8.5 C 0 km/h
2688 14-09-2008 10:11:02 8.8 C 7.14 g/m*3 8.8 C 0 km/h
2689 14-09-2008 10:16:01 9.2 C 7.05 g/m*3 9.2 C 0 km/h
2690 14-09-2008 10:21:01 9.4 C 7.05 g/m*3 9.4 C 0 km/h
2691 14-09-2008 10:26:01 9.6 C 6.96 g/m*3 9.6 C 0 km/h
2692 14-09-2008 10:31:02 9.8 C 6.96 g/m*3 9.8 C 0 km/h
2693 14-09-2008 10:36:02 10 C 6.86 g/m*3 10 C 0 km/h
2694 14-09-2008 10:41:03 10.3 C 6.7 g/m*3 10.3 C 0 km/h
2695 14-09-2008 10:46:02 10.7 C 6.48 g/m*3 10.7 C 0 km/h
2696 14-09-2008 10:51:02 10.9 C 6.56 g/m*3 10.9 C 0 km/h
2697 14-09-2008 10:56:02 11.1 C 6.25 g/m*3 11.1 C 0 km/h
2698 14-09-2008 11:01:03 11.4 C 6.16 g/m*3 11.4 C 0 km/h
2699 14-09-2008 11:06:03 11.8 C 6.1 g/m*3 11.8 C 0 km/h
2700 14-09-2008 11:11:03 12 C 6.18 g/m*3 12 C 0 km/h
Sensor: Nr:Datum:Temp:Abs-Feuchte:Windchill:Wind:
Aussen-T/F 2701 14-09-2008 11:16:02 12.2 C 5.5 g/m*3 12.2 C 0 km/h
2702 14-09-2008 11:21:02 12.5 C 5.5 g/m*3 12.5 C 0 km/h
2703 14-09-2008 11:26:03 12.6 C 5.42 g/m*3 12.6 C 0 km/h
2704 14-09-2008 11:31:02 12.8 C 5.6 g/m*3 12.8 C 0 km/h
2705 14-09-2008 11:36:02 13.1 C 5.36 g/m*3 13.1 C 0 km/h
2706 14-09-2008 11:41:02 13.2 C 5.4 g/m*3 13.2 C 0 km/h
2707 14-09-2008 11:46:02 13.6 C 5.41 g/m*3 13.6 C 0 km/h
2708 14-09-2008 11:51:02 13.7 C 5.09 g/m*3 13.7 C 0 km/h
2709 14-09-2008 11:56:02 13.7 C 5.09 g/m*3 13.7 C 0 km/h
2710 14-09-2008 12:01:02 14.1 C 4.85 g/m*3 14.1 C 0 km/h
2711 14-09-2008 12:06:02 14.3 C 4.79 g/m*3 14.3 C 0 km/h
2712 14-09-2008 12:11:02 14.4 C 4.7 g/m*3 14.4 C 0 km/h
2713 14-09-2008 12:16:02 14.5 C 4.6 g/m*3 14.5 C 0 km/h
2714 14-09-2008 12:21:02 14.7 C 4.78 g/m*3 14.7 C 0 km/h
2715 14-09-2008 12:26:02 14.6 C 4.63 g/m*3 14.6 C 0 km/h
2716 14-09-2008 12:31:02 14.6 C 4.63 g/m*3 14.6 C 0 km/h
2717 14-09-2008 12:36:02 14.2 C 4.52 g/m*3 14.2 C 0 km/h
2718 14-09-2008 12:41:02 14.2 C 4.88 g/m*3 14.2 C 0 km/h
2719 14-09-2008 12:46:02 14.4 C 4.7 g/m*3 14.4 C 0 km/h
2720 14-09-2008 12:51:02 14.9 C 4.72 g/m*3 14.9 C 0 km/h
2721 14-09-2008 12:56:02 15.3 C 4.83 g/m*3 15.3 C 0 km/h
2722 14-09-2008 13:01:01 15.8 C 4.71 g/m*3 15.8 C 0 km/h
2723 14-09-2008 13:06:01 16 C 4.77 g/m*3 16 C 0 km/h
2724 14-09-2008 13:11:01 16.4 C 5.02 g/m*3 16.4 C 0 km/h
2725 14-09-2008 13:16:02 16.1 C 4.8 g/m*3 16.1 C 0 km/h
Sensor: Nr:Datum:Temp:Abs-Feuchte:Windchill:Wind:
Aussen-T/F 2726 14-09-2008 13:21:02 15.9 C 4.74 g/m*3 15.9 C 0 km/h
2727 14-09-2008 13:26:02 15.5 C 4.76 g/m*3 15.5 C 0 km/h
2728 14-09-2008 13:31:01 15.2 C 4.67 g/m*3 15.2 C 0 km/h
2729 14-09-2008 13:36:01 15.1 C 4.64 g/m*3 15.1 C 0 km/h
2730 14-09-2008 13:41:01 15.8 C 5.12 g/m*3 15.8 C 0 km/h
2731 14-09-2008 13:46:01 16.3 C 4.86 g/m*3 16.3 C 0 km/h
2732 14-09-2008 13:51:01 16.5 C 5.06 g/m*3 16.5 C 0 km/h
2733 14-09-2008 13:56:01 16.9 C 4.75 g/m*3 16.9 C 0 km/h
2734 14-09-2008 14:01:02 17.4 C 4.74 g/m*3 17.4 C 0 km/h
2735 14-09-2008 14:06:03 17 C 4.63 g/m*3 17 C 0 km/h
2736 14-09-2008 14:11:03 16.8 C 4.58 g/m*3 16.8 C 0 km/h
2737 14-09-2008 14:16:01 17.5 C 4.92 g/m*3 17.5 C 0 km/h
2738 14-09-2008 14:21:01 18.3 C 4.85 g/m*3 18.3 C 0 km/h
2739 14-09-2008 14:26:01 18.6 C 4.62 g/m*3 18.6 C 0 km/h
2740 14-09-2008 14:31:02 18.9 C 4.86 g/m*3 18.9 C 0 km/h
2741 14-09-2008 14:36:02 19.1 C 4.92 g/m*3 19.1 C 0 km/h
2742 14-09-2008 14:41:02 19.4 C 5.01 g/m*3 19.4 C 0 km/h
2743 14-09-2008 14:46:01 19.6 C 4.56 g/m*3 19.6 C 0 km/h
2744 14-09-2008 14:51:01 19.5 C 4.53 g/m*3 19.5 C 0 km/h
2745 14-09-2008 14:56:01 19.3 C 4.81 g/m*3 19.3 C 0 km/h
2746 14-09-2008 15:01:02 19.3 C 4.64 g/m*3 19.3 C 0 km/h
2747 14-09-2008 15:06:02 19.3 C 4.81 g/m*3 19.3 C 0 km/h
2748 14-09-2008 15:11:02 19.1 C 4.43 g/m*3 19.1 C 0 km/h
2749 14-09-2008 15:16:02 19 C 4.73 g/m*3 19 C 0 km/h
2750 14-09-2008 15:21:02 19 C 4.73 g/m*3 19 C 0 km/h
Sensor: Nr:Datum:Temp:Abs-Feuchte:Windchill:Wind:
Aussen-T/F 2751 14-09-2008 15:26:02 18.7 C 4.64 g/m*3 18.7 C 0 km/h
2752 14-09-2008 15:31:01 18.5 C 4.75 g/m*3 18.5 C 0 km/h
2753 14-09-2008 15:36:01 18.5 C 4.9 g/m*3 18.5 C 0 km/h
2754 14-09-2008 15:41:01 18.2 C 4.82 g/m*3 18.2 C 0 km/h
2755 14-09-2008 15:46:02 18.1 C 4.79 g/m*3 18.1 C 0 km/h
2756 14-09-2008 15:51:02 17.9 C 4.89 g/m*3 17.9 C 0 km/h
2757 14-09-2008 15:56:02 17.8 C 5.01 g/m*3 17.8 C 0 km/h
2758 14-09-2008 16:01:02 18.1 C 5.25 g/m*3 18.1 C 0 km/h
2759 14-09-2008 16:06:02 18.5 C 5.22 g/m*3 18.5 C 0 km/h
2760 14-09-2008 16:11:02 19.1 C 4.92 g/m*3 19.1 C 0 km/h
2761 14-09-2008 16:16:02 18.8 C 4.83 g/m*3 18.8 C 0 km/h
2762 14-09-2008 16:21:02 18.9 C 4.86 g/m*3 18.9 C 0 km/h
2763 14-09-2008 16:26:02 18.7 C 4.8 g/m*3 18.7 C 0 km/h
2764 14-09-2008 16:31:01 18.6 C 4.77 g/m*3 18.6 C 0 km/h
2765 14-09-2008 16:36:01 18.5 C 4.75 g/m*3 18.5 C 0 km/h
2766 14-09-2008 16:41:01 19 C 4.89 g/m*3 19 C 0 km/h
2767 14-09-2008 16:46:02 20 C 5.01 g/m*3 20 C 0 km/h
2768 14-09-2008 16:51:02 20 C 4.84 g/m*3 20 C 0 km/h
2769 14-09-2008 16:56:02 20.3 C 4.75 g/m*3 20.3 C 0 km/h
2770 14-09-2008 17:01:02 21.3 C 4.66 g/m*3 21.3 C 0 km/h
2771 14-09-2008 17:06:02 20.6 C 4.47 g/m*3 20.6 C 0 km/h
2772 14-09-2008 17:11:02 20.4 C 4.6 g/m*3 20.4 C 0 km/h
2773 14-09-2008 17:16:02 19.7 C 4.75 g/m*3 19.7 C 0 km/h
2774 14-09-2008 17:21:02 19.2 C 4.95 g/m*3 19.2 C 0 km/h
2775 14-09-2008 17:26:02 18.7 C 4.8 g/m*3 18.7 C 0 km/h
Sensor: Nr:Datum:Temp:Abs-Feuchte:Windchill:Wind:
Aussen-T/F 2776 14-09-2008 17:31:02 18.4 C 5.35 g/m*3 18.4 C 0 km/h
2777 14-09-2008 17:36:02 18.2 C 5.44 g/m*3 18.2 C 0 km/h
2778 14-09-2008 17:41:02 18 C 5.53 g/m*3 18 C 0 km/h
2779 14-09-2008 17:46:02 17.7 C 5.73 g/m*3 17.7 C 0 km/h
2780 14-09-2008 17:51:02 17.6 C 5.55 g/m*3 17.6 C 0 km/h
2781 14-09-2008 17:56:02 17.9 C 6.11 g/m*3 17.9 C 0 km/h
2782 14-09-2008 18:01:02 17.9 C 6.11 g/m*3 17.9 C 0 km/h
2783 14-09-2008 18:06:02 17.8 C 5.62 g/m*3 17.8 C 0 km/h
2784 14-09-2008 18:11:03 17.6 C 5.55 g/m*3 17.6 C 0 km/h
2785 14-09-2008 18:16:01 17.5 C 5.52 g/m*3 17.5 C 0 km/h
2786 14-09-2008 18:21:01 17 C 5.5 g/m*3 17 C 0 km/h
2787 14-09-2008 18:26:01 16.9 C 5.9 g/m*3 16.9 C 0 km/h
2788 14-09-2008 18:31:02 16.8 C 5.72 g/m*3 16.8 C 0 km/h
2789 14-09-2008 18:36:02 16.6 C 5.79 g/m*3 16.6 C 0 km/h
2790 14-09-2008 18:41:02 16.1 C 5.35 g/m*3 16.1 C 0 km/h
2791 14-09-2008 18:46:02 16 C 5.18 g/m*3 16 C 0 km/h
2792 14-09-2008 18:51:02 15.8 C 5.25 g/m*3 15.8 C 0 km/h
2793 14-09-2008 18:56:02 15.5 C 5.42 g/m*3 15.5 C 0 km/h
2794 14-09-2008 19:01:02 15.4 C 5.39 g/m*3 15.4 C 0 km/h
2795 14-09-2008 19:06:02 15.3 C 5.35 g/m*3 15.3 C 0 km/h
2796 14-09-2008 19:11:02 15.2 C 5.58 g/m*3 15.2 C 0 km/h
2797 14-09-2008 19:16:02 15 C 5.26 g/m*3 15 C 0 km/h
2798 14-09-2008 19:21:02 14.9 C 5.48 g/m*3 14.9 C 0 km/h
2799 14-09-2008 19:26:02 14.8 C 5.57 g/m*3 14.8 C 0 km/h
2800 14-09-2008 19:31:02 14.7 C 5.67 g/m*3 14.7 C 0 km/h
Sensor: Nr:Datum:Temp:Abs-Feuchte:Windchill:Wind:
Aussen-T/F 2801 14-09-2008 19:36:02 14.4 C 5.81 g/m*3 14.4 C 0 km/h
2802 14-09-2008 19:41:02 14.3 C 5.65 g/m*3 14.3 C 0 km/h
2803 14-09-2008 19:46:02 14.1 C 5.34 g/m*3 14.1 C 0 km/h
2804 14-09-2008 19:51:02 13.8 C 5.48 g/m*3 13.8 C 0 km/h
2805 14-09-2008 19:56:03 13.7 C 5.45 g/m*3 13.7 C 0 km/h
2806 14-09-2008 20:01:01 13.5 C 5.38 g/m*3 13.5 C 0 km/h
2807 14-09-2008 20:06:01 13.2 C 5.28 g/m*3 13.2 C 0 km/h
2808 14-09-2008 20:11:01 13.1 C 5.25 g/m*3 13.1 C 0 km/h
2809 14-09-2008 20:16:02 13 C 5.33 g/m*3 13 C 0 km/h
2810 14-09-2008 20:21:02 12.8 C 5.38 g/m*3 12.8 C 0 km/h
2811 14-09-2008 20:26:02 12.7 C 5.57 g/m*3 12.7 C 0 km/h
2812 14-09-2008 20:31:01 12.5 C 5.72 g/m*3 12.5 C 0 km/h
2813 14-09-2008 20:36:01 12.4 C 5.68 g/m*3 12.4 C 0 km/h
2814 14-09-2008 20:41:01 12.3 C 5.65 g/m*3 12.3 C 0 km/h
2815 14-09-2008 20:46:01 12.2 C 5.61 g/m*3 12.2 C 0 km/h
2816 14-09-2008 20:51:01 12.3 C 5.75 g/m*3 12.3 C 0 km/h
2817 14-09-2008 20:56:01 12.2 C 5.83 g/m*3 12.2 C 0 km/h
2818 14-09-2008 21:01:02 12.2 C 5.94 g/m*3 12.2 C 0 km/h
2819 14-09-2008 21:06:02 12.3 C 6.08 g/m*3 12.3 C 0 km/h
2820 14-09-2008 21:11:02 12.4 C 6.01 g/m*3 12.4 C 0 km/h
2821 14-09-2008 21:16:01 12.2 C 5.94 g/m*3 12.2 C 0 km/h
2822 14-09-2008 21:21:01 12.4 C 6.01 g/m*3 12.4 C 0 km/h
2823 14-09-2008 21:26:01 12.4 C 6.01 g/m*3 12.4 C 0 km/h
2824 14-09-2008 21:31:02 12.2 C 6.04 g/m*3 12.2 C 0 km/h
2825 14-09-2008 21:36:02 12.2 C 6.04 g/m*3 12.2 C 0 km/h
Sensor: Nr:Datum:Temp:Abs-Feuchte:Windchill:Wind:
Aussen-T/F 2826 14-09-2008 21:41:02 12.4 C 6.23 g/m*3 12.4 C 0 km/h
2827 14-09-2008 21:46:02 12.4 C 6.23 g/m*3 12.4 C 0 km/h
2828 14-09-2008 21:51:02 12.4 C 6.12 g/m*3 12.4 C 0 km/h
2829 14-09-2008 21:56:02 12.2 C 6.04 g/m*3 12.2 C 0 km/h
2830 14-09-2008 22:02:02 12.2 C 6.15 g/m*3 12.2 C 0 km/h
2831 14-09-2008 22:07:02 12.2 C 6.15 g/m*3 12.2 C 0 km/h
2832 14-09-2008 22:12:02 12.1 C 6.11 g/m*3 12.1 C 0 km/h
2833 14-09-2008 22:17:02 12.1 C 6.33 g/m*3 12.1 C 0 km/h
2834 14-09-2008 22:22:02 12.1 C 6.33 g/m*3 12.1 C 0 km/h
2835 14-09-2008 22:27:02 12.1 C 6.43 g/m*3 12.1 C 0 km/h
2836 14-09-2008 22:32:02 12 C 6.39 g/m*3 12 C 0 km/h
2837 14-09-2008 22:37:02 11.8 C 6.31 g/m*3 11.8 C 0 km/h
2838 14-09-2008 22:42:02 11.7 C 6.48 g/m*3 11.7 C 0 km/h
2839 14-09-2008 22:47:02 11.5 C 6.4 g/m*3 11.5 C 0 km/h
2840 14-09-2008 22:52:02 11.3 C 6.32 g/m*3 11.3 C 0 km/h
2841 14-09-2008 22:57:03 11.2 C 6.28 g/m*3 11.2 C 0 km/h
2842 14-09-2008 23:02:03 11 C 6.31 g/m*3 11 C 0 km/h
2843 14-09-2008 23:07:03 10.9 C 6.47 g/m*3 10.9 C 0 km/h
2844 14-09-2008 23:12:03 10.8 C 6.42 g/m*3 10.8 C 0 km/h
2845 14-09-2008 23:17:03 10.8 C 6.52 g/m*3 10.8 C 0 km/h
2846 14-09-2008 23:22:03 10.9 C 6.56 g/m*3 10.9 C 0 km/h
2847 14-09-2008 23:27:03 10.8 C 6.52 g/m*3 10.8 C 0 km/h
2848 14-09-2008 23:32:03 10.8 C 6.52 g/m*3 10.8 C 0 km/h
2849 14-09-2008 23:37:03 10.7 C 6.48 g/m*3 10.7 C 0 km/h
2850 14-09-2008 23:42:03 10.7 C 6.58 g/m*3 10.7 C 0 km/h
Sensor: Nr:Datum:Temp:Abs-Feuchte:Windchill:Wind:
Aussen-T/F 2851 14-09-2008 23:47:03 10.7 C 6.58 g/m*3 10.7 C 0 km/h
2852 14-09-2008 23:52:03 10.5 C 6.6 g/m*3 10.5 C 0 km/h
2853 14-09-2008 23:57:03 10.4 C 6.55 g/m*3 10.4 C 0 km/h
2854 15-09-2008 00:02:03 10.3 C 6.51 g/m*3 10.3 C 0 km/h
2855 15-09-2008 00:07:03 10.1 C 6.43 g/m*3 10.1 C 0 km/h
2856 15-09-2008 00:12:03 9.9 C 6.54 g/m*3 9.9 C 0 km/h
2857 15-09-2008 00:17:03 9.8 C 6.49 g/m*3 9.8 C 0 km/h
2858 15-09-2008 00:22:03 9.7 C 6.55 g/m*3 9.7 C 0 km/h
2859 15-09-2008 00:27:03 9.6 C 6.6 g/m*3 9.6 C 0 km/h
2860 15-09-2008 00:32:03 9.6 C 6.6 g/m*3 9.6 C 0 km/h
2861 15-09-2008 00:37:04 9.4 C 6.51 g/m*3 9.4 C 0 km/h
2862 15-09-2008 00:42:04 9.3 C 6.56 g/m*3 9.3 C 0 km/h
2863 15-09-2008 00:47:04 9.3 C 6.56 g/m*3 9.3 C 0 km/h
2864 15-09-2008 00:52:04 9.2 C 6.52 g/m*3 9.2 C 0 km/h
2865 15-09-2008 00:57:04 9.1 C 6.57 g/m*3 9.1 C 0 km/h
2866 15-09-2008 01:02:04 9 C 6.52 g/m*3 9 C 0 km/h
2867 15-09-2008 01:07:04 9 C 6.52 g/m*3 9 C 0 km/h
2868 15-09-2008 01:12:04 9 C 6.61 g/m*3 9 C 0 km/h
2869 15-09-2008 01:17:04 9 C 6.61 g/m*3 9 C 0 km/h
2870 15-09-2008 01:22:04 9 C 6.52 g/m*3 9 C 0 km/h
2871 15-09-2008 01:27:04 9.1 C 6.48 g/m*3 9.1 C 0 km/h
2872 15-09-2008 01:32:04 9 C 6.44 g/m*3 9 C 0 km/h
2873 15-09-2008 01:37:04 9 C 6.44 g/m*3 9 C 0 km/h
2874 15-09-2008 01:42:04 8.9 C 6.48 g/m*3 8.9 C 0 km/h
2875 15-09-2008 01:47:04 8.9 C 6.57 g/m*3 8.9 C 0 km/h
Sensor: Nr:Datum:Temp:Abs-Feuchte:Windchill:Wind:
Aussen-T/F 2876 15-09-2008 01:52:04 8.9 C 6.48 g/m*3 8.9 C 0 km/h
2877 15-09-2008 01:57:04 8.8 C 6.44 g/m*3 8.8 C 0 km/h
2878 15-09-2008 02:02:04 8.7 C 6.4 g/m*3 8.7 C 0 km/h
2879 15-09-2008 02:07:04 8.7 C 6.49 g/m*3 8.7 C 0 km/h
2880 15-09-2008 02:12:05 8.7 C 6.49 g/m*3 8.7 C 0 km/h
2881 15-09-2008 02:17:05 8.8 C 6.53 g/m*3 8.8 C 0 km/h
2882 15-09-2008 02:22:05 8.8 C 6.53 g/m*3 8.8 C 0 km/h
2883 15-09-2008 02:27:05 8.8 C 6.44 g/m*3 8.8 C 0 km/h
2884 15-09-2008 02:32:05 8.8 C 6.44 g/m*3 8.8 C 0 km/h
2885 15-09-2008 02:37:05 8.7 C 6.31 g/m*3 8.7 C 0 km/h
2886 15-09-2008 02:42:05 8.7 C 6.31 g/m*3 8.7 C 0 km/h
2887 15-09-2008 02:47:05 8.7 C 6.31 g/m*3 8.7 C 0 km/h
2888 15-09-2008 02:52:05 8.6 C 6.27 g/m*3 8.6 C 0 km/h
2889 15-09-2008 02:57:05 8.6 C 6.27 g/m*3 8.6 C 0 km/h
2890 15-09-2008 03:02:05 8.5 C 6.23 g/m*3 8.5 C 0 km/h
2891 15-09-2008 03:07:05 8.4 C 6.28 g/m*3 8.4 C 0 km/h
2892 15-09-2008 03:12:05 8.2 C 6.28 g/m*3 8.2 C 0 km/h
2893 15-09-2008 03:17:05 8.2 C 6.36 g/m*3 8.2 C 0 km/h
2894 15-09-2008 03:22:05 8.2 C 6.36 g/m*3 8.2 C 0 km/h
2895 15-09-2008 03:27:05 8.3 C 6.49 g/m*3 8.3 C 0 km/h
2896 15-09-2008 03:32:05 8.2 C 6.45 g/m*3 8.2 C 0 km/h
2897 15-09-2008 03:37:05 8.2 C 6.45 g/m*3 8.2 C 0 km/h
2898 15-09-2008 03:42:05 8.2 C 6.53 g/m*3 8.2 C 0 km/h
2899 15-09-2008 03:47:06 8.2 C 6.53 g/m*3 8.2 C 0 km/h
2900 15-09-2008 03:52:06 8.2 C 6.53 g/m*3 8.2 C 0 km/h
Sensor: Nr:Datum:Temp:Abs-Feuchte:Windchill:Wind:
Aussen-T/F 2901 15-09-2008 03:57:06 8.1 C 6.49 g/m*3 8.1 C 0 km/h
2902 15-09-2008 04:02:06 8.1 C 6.57 g/m*3 8.1 C 0 km/h
2903 15-09-2008 04:07:06 8 C 6.53 g/m*3 8 C 0 km/h
2904 15-09-2008 04:12:06 7.9 C 6.57 g/m*3 7.9 C 0 km/h
2905 15-09-2008 04:17:06 7.8 C 6.53 g/m*3 7.8 C 0 km/h
2906 15-09-2008 04:22:06 7.7 C 6.49 g/m*3 7.7 C 0 km/h
2907 15-09-2008 04:27:06 7.6 C 6.44 g/m*3 7.6 C 0 km/h
2908 15-09-2008 04:32:06 7.5 C 6.48 g/m*3 7.5 C 0 km/h
2909 15-09-2008 04:37:06 7.4 C 6.44 g/m*3 7.4 C 0 km/h
2910 15-09-2008 04:42:06 7.4 C 6.52 g/m*3 7.4 C 0 km/h
2911 15-09-2008 04:47:06 7.5 C 6.56 g/m*3 7.5 C 0 km/h
2912 15-09-2008 04:52:06 7.3 C 6.48 g/m*3 7.3 C 0 km/h
2913 15-09-2008 04:57:06 7.3 C 6.56 g/m*3 7.3 C 0 km/h
2914 15-09-2008 05:02:06 7.3 C 6.56 g/m*3 7.3 C 0 km/h
2915 15-09-2008 05:07:06 7.3 C 6.56 g/m*3 7.3 C 0 km/h
2916 15-09-2008 05:12:06 7.2 C 6.52 g/m*3 7.2 C 0 km/h
2917 15-09-2008 05:17:06 7.2 C 6.52 g/m*3 7.2 C 0 km/h
2918 15-09-2008 05:22:07 7.2 C 6.59 g/m*3 7.2 C 0 km/h
2919 15-09-2008 05:27:07 7.3 C 6.64 g/m*3 7.3 C 0 km/h
2920 15-09-2008 05:32:07 7.4 C 6.68 g/m*3 7.4 C 0 km/h
2921 15-09-2008 05:37:07 7.4 C 6.68 g/m*3 7.4 C 0 km/h
2922 15-09-2008 05:42:07 7.2 C 6.59 g/m*3 7.2 C 0 km/h
2923 15-09-2008 05:47:07 7.1 C 6.55 g/m*3 7.1 C 0 km/h
2924 15-09-2008 05:52:07 7 C 6.51 g/m*3 7 C 0 km/h
2925 15-09-2008 05:57:07 6.9 C 6.62 g/m*3 6.9 C 0 km/h
Sensor: Nr:Datum:Temp:Abs-Feuchte:Windchill:Wind:
Aussen-T/F 2926 15-09-2008 06:02:07 6.9 C 6.62 g/m*3 6.9 C 0 km/h
2927 15-09-2008 06:07:07 6.9 C 6.62 g/m*3 6.9 C 0 km/h
2928 15-09-2008 06:12:07 6.9 C 6.62 g/m*3 6.9 C 0 km/h
2929 15-09-2008 06:17:07 6.8 C 6.58 g/m*3 6.8 C 0 km/h
2930 15-09-2008 06:22:07 6.8 C 6.58 g/m*3 6.8 C 0 km/h
2931 15-09-2008 06:27:07 6.8 C 6.58 g/m*3 6.8 C 0 km/h
2932 15-09-2008 06:32:07 6.7 C 6.61 g/m*3 6.7 C 0 km/h
2933 15-09-2008 06:37:07 6.6 C 6.57 g/m*3 6.6 C 0 km/h
2934 15-09-2008 06:42:07 6.6 C 6.57 g/m*3 6.6 C 0 km/h
2935 15-09-2008 06:47:07 6.5 C 6.52 g/m*3 6.5 C 0 km/h
2936 15-09-2008 06:52:07 6.4 C 6.48 g/m*3 6.4 C 0 km/h
2937 15-09-2008 06:57:08 6.4 C 6.48 g/m*3 6.4 C 0 km/h
2938 15-09-2008 07:02:02 6.3 C 6.51 g/m*3 6.3 C 0 km/h
2939 15-09-2008 07:07:02 6.3 C 6.51 g/m*3 6.3 C 0 km/h
2940 15-09-2008 07:12:02 6.2 C 6.47 g/m*3 6.2 C 0 km/h
2941 15-09-2008 07:17:02 6.2 C 6.47 g/m*3 6.2 C 0 km/h
2942 15-09-2008 07:22:02 6.2 C 6.47 g/m*3 6.2 C 0 km/h
2943 15-09-2008 07:27:02 6.2 C 6.47 g/m*3 6.2 C 0 km/h
2944 15-09-2008 07:32:02 6.2 C 6.55 g/m*3 6.2 C 0 km/h
2945 15-09-2008 07:37:02 6.1 C 6.43 g/m*3 6.1 C 0 km/h
2946 15-09-2008 07:42:02 6.1 C 6.5 g/m*3 6.1 C 0 km/h
2947 15-09-2008 07:47:02 6.1 C 6.5 g/m*3 6.1 C 0 km/h
2948 15-09-2008 07:52:02 6.1 C 6.5 g/m*3 6.1 C 0 km/h
2949 15-09-2008 07:57:02 6.1 C 6.5 g/m*3 6.1 C 0 km/h
2950 15-09-2008 08:02:02 6.1 C 6.5 g/m*3 6.1 C 0 km/h
Sensor: Nr:Datum:Temp:Abs-Feuchte:Windchill:Wind:
Aussen-T/F 2951 15-09-2008 08:07:02 6.2 C 6.55 g/m*3 6.2 C 0 km/h
2952 15-09-2008 08:12:02 6.2 C 6.55 g/m*3 6.2 C 0 km/h
2953 15-09-2008 08:17:02 6.2 C 6.55 g/m*3 6.2 C 0 km/h
2954 15-09-2008 08:22:02 6.3 C 6.59 g/m*3 6.3 C 0 km/h
2955 15-09-2008 08:27:02 6.3 C 6.59 g/m*3 6.3 C 0 km/h
2956 15-09-2008 08:32:02 6.4 C 6.63 g/m*3 6.4 C 0 km/h
2957 15-09-2008 08:37:02 6.5 C 6.67 g/m*3 6.5 C 0 km/h
2958 15-09-2008 08:42:02 6.6 C 6.72 g/m*3 6.6 C 0 km/h
2959 15-09-2008 08:47:02 6.8 C 6.81 g/m*3 6.8 C 0 km/h
2960 15-09-2008 08:52:03 6.9 C 6.85 g/m*3 6.9 C 0 km/h
2961 15-09-2008 08:57:03 7.1 C 6.86 g/m*3 7.1 C 0 km/h
2962 15-09-2008 09:02:01 7.3 C 6.95 g/m*3 7.3 C 0 km/h
2963 15-09-2008 09:07:01 7.3 C 6.95 g/m*3 7.3 C 0 km/h
2964 15-09-2008 09:12:01 7.4 C 6.92 g/m*3 7.4 C 0 km/h
2965 15-09-2008 09:17:02 7.6 C 6.93 g/m*3 7.6 C 0 km/h
2966 15-09-2008 09:22:02 7.6 C 6.93 g/m*3 7.6 C 0 km/h
2967 15-09-2008 09:27:02 7.6 C 6.93 g/m*3 7.6 C 0 km/h
2968 15-09-2008 09:32:01 7.7 C 6.89 g/m*3 7.7 C 0 km/h
2969 15-09-2008 09:37:01 7.8 C 6.94 g/m*3 7.8 C 0 km/h
2970 15-09-2008 09:42:01 8 C 6.94 g/m*3 8 C 0 km/h
2971 15-09-2008 09:47:01 8.2 C 7.03 g/m*3 8.2 C 0 km/h
2972 15-09-2008 09:52:01 8.5 C 7.09 g/m*3 8.5 C 0 km/h
2973 15-09-2008 09:57:01 8.7 C 7.09 g/m*3 8.7 C 0 km/h
2974 15-09-2008 10:02:02 9 C 7.05 g/m*3 9 C 0 km/h
2975 15-09-2008 10:07:02 9.2 C 7.05 g/m*3 9.2 C 0 km/h
Sensor: Nr:Datum:Temp:Abs-Feuchte:Windchill:Wind:
Aussen-T/F 2976 15-09-2008 10:12:02 9.4 C 7.05 g/m*3 9.4 C 0 km/h
2977 15-09-2008 10:17:01 9.7 C 7.01 g/m*3 9.7 C 0 km/h
2978 15-09-2008 10:22:01 10 C 6.95 g/m*3 10 C 0 km/h
2979 15-09-2008 10:27:01 10 C 6.86 g/m*3 10 C 0 km/h
2980 15-09-2008 10:32:02 10.2 C 6.85 g/m*3 10.2 C 0 km/h
2981 15-09-2008 10:37:02 10.4 C 6.75 g/m*3 10.4 C 0 km/h
2982 15-09-2008 10:42:02 10.7 C 6.88 g/m*3 10.7 C 0 km/h
2983 15-09-2008 10:47:02 10.8 C 6.92 g/m*3 10.8 C 0 km/h
2984 15-09-2008 10:52:03 11.3 C 7.04 g/m*3 11.3 C 0 km/h
2985 15-09-2008 10:57:03 11.8 C 7.05 g/m*3 11.8 C 0 km/h
2986 15-09-2008 11:02:02 12 C 6.93 g/m*3 12 C 0 km/h
2987 15-09-2008 11:07:02 12.1 C 6.65 g/m*3 12.1 C 0 km/h
2988 15-09-2008 11:12:02 12.1 C 6.54 g/m*3 12.1 C 0 km/h
2989 15-09-2008 11:17:02 12.1 C 6.54 g/m*3 12.1 C 0 km/h
2990 15-09-2008 11:22:02 12 C 6.39 g/m*3 12 C 0 km/h
2991 15-09-2008 11:27:02 11.8 C 6.53 g/m*3 11.8 C 0 km/h
2992 15-09-2008 11:32:02 11.8 C 6.53 g/m*3 11.8 C 0 km/h
2993 15-09-2008 11:37:02 11.9 C 6.57 g/m*3 11.9 C 0 km/h
2994 15-09-2008 11:42:02 12.2 C 6.47 g/m*3 12.2 C 0 km/h
2995 15-09-2008 11:47:02 12.5 C 6.38 g/m*3 12.5 C 0 km/h
2996 15-09-2008 11:52:02 12.6 C 6.2 g/m*3 12.6 C 0 km/h
2997 15-09-2008 11:57:02 12.8 C 6.16 g/m*3 12.8 C 0 km/h
2998 15-09-2008 12:02:02 13.1 C 6.05 g/m*3 13.1 C 0 km/h
2999 15-09-2008 12:07:02 13.2 C 6.09 g/m*3 13.2 C 0 km/h
3000 15-09-2008 12:12:02 13.3 C 5.89 g/m*3 13.3 C 0 km/h
Sensor: Nr:Datum:Temp:Abs-Feuchte:Windchill:Wind:
Aussen-T/F 3001 15-09-2008 12:17:02 13.4 C 5.93 g/m*3 13.4 C 0 km/h
3002 15-09-2008 12:22:02 13.4 C 5.81 g/m*3 13.4 C 0 km/h
3003 15-09-2008 12:27:02 13.4 C 5.81 g/m*3 13.4 C 0 km/h
3004 15-09-2008 12:32:02 13.4 C 5.93 g/m*3 13.4 C 0 km/h
3005 15-09-2008 12:37:02 13.8 C 6.08 g/m*3 13.8 C 0 km/h
3006 15-09-2008 12:42:02 14 C 6.03 g/m*3 14 C 0 km/h
3007 15-09-2008 12:47:02 14.2 C 5.74 g/m*3 14.2 C 0 km/h
3008 15-09-2008 12:52:03 14 C 5.67 g/m*3 14 C 0 km/h
3009 15-09-2008 12:57:03 14 C 5.67 g/m*3 14 C 0 km/h
3010 15-09-2008 13:02:01 14.2 C 5.74 g/m*3 14.2 C 0 km/h
3011 15-09-2008 13:07:01 14.1 C 5.83 g/m*3 14.1 C 0 km/h
3012 15-09-2008 13:12:01 14.2 C 5.86 g/m*3 14.2 C 0 km/h
3013 15-09-2008 13:17:02 14.5 C 5.85 g/m*3 14.5 C 0 km/h
3014 15-09-2008 13:22:02 14.8 C 5.83 g/m*3 14.8 C 0 km/h
3015 15-09-2008 13:27:02 14.7 C 5.79 g/m*3 14.7 C 0 km/h
3016 15-09-2008 13:32:01 14.4 C 5.81 g/m*3 14.4 C 0 km/h
3017 15-09-2008 13:37:01 14 C 6.03 g/m*3 14 C 0 km/h
3018 15-09-2008 13:42:01 13.2 C 6.54 g/m*3 13.2 C 0 km/h
3019 15-09-2008 13:47:01 12.8 C 6.72 g/m*3 12.8 C 0 km/h
3020 15-09-2008 13:52:01 12.2 C 6.8 g/m*3 12.2 C 0 km/h
3021 15-09-2008 13:57:01 12.1 C 7.08 g/m*3 12.1 C 0 km/h
3022 15-09-2008 14:02:02 12.2 C 7.23 g/m*3 12.2 C 0 km/h
3023 15-09-2008 14:07:02 12.8 C 7.28 g/m*3 12.8 C 0 km/h
3024 15-09-2008 14:12:02 13.5 C 6.9 g/m*3 13.5 C 0 km/h
3025 15-09-2008 14:17:02 13.9 C 6.95 g/m*3 13.9 C 0 km/h
Sensor: Nr:Datum:Temp:Abs-Feuchte:Windchill:Wind:
Aussen-T/F 3026 15-09-2008 14:22:02 14 C 6.51 g/m*3 14 C 0 km/h
3027 15-09-2008 14:27:02 14.1 C 6.43 g/m*3 14.1 C 0 km/h
3028 15-09-2008 14:32:02 13.8 C 6.43 g/m*3 13.8 C 0 km/h
3029 15-09-2008 14:37:02 13.7 C 6.51 g/m*3 13.7 C 0 km/h
3030 15-09-2008 14:42:02 13.2 C 6.66 g/m*3 13.2 C 0 km/h
3031 15-09-2008 14:47:02 12.2 C 7.01 g/m*3 12.2 C 0 km/h
3032 15-09-2008 14:52:02 12 C 7.35 g/m*3 12 C 0 km/h
3033 15-09-2008 14:57:02 11.7 C 7.95 g/m*3 11.7 C 0 km/h
3034 15-09-2008 15:02:01 11.8 C 8.31 g/m*3 11.8 C 0 km/h
3035 15-09-2008 15:07:01 11.9 C 8.47 g/m*3 11.9 C 0 km/h
3036 15-09-2008 15:12:01 12.2 C 8.63 g/m*3 12.2 C 0 km/h
3037 15-09-2008 15:17:02 12.2 C 8.74 g/m*3 12.2 C 0 km/h
3038 15-09-2008 15:22:02 12.3 C 8.9 g/m*3 12.3 C 0 km/h
3039 15-09-2008 15:27:02 12.8 C 9.18 g/m*3 12.8 C 0 km/h
3040 15-09-2008 15:32:01 13.4 C 9.3 g/m*3 13.4 C 0 km/h
3041 15-09-2008 15:37:01 14 C 9.17 g/m*3 14 C 0 km/h
3042 15-09-2008 15:42:01 14.2 C 9.28 g/m*3 14.2 C 0 km/h
3043 15-09-2008 15:47:01 14.2 C 9.04 g/m*3 14.2 C 0 km/h
3044 15-09-2008 15:52:01 14.4 C 9.27 g/m*3 14.4 C 0 km/h
3045 15-09-2008 15:57:01 14.4 C 9.15 g/m*3 14.4 C 0 km/h
3046 15-09-2008 16:02:02 14.5 C 9.08 g/m*3 14.5 C 0 km/h
3047 15-09-2008 16:07:02 14.6 C 8.88 g/m*3 14.6 C 0 km/h
3048 15-09-2008 16:12:02 14.5 C 8.71 g/m*3 14.5 C 0 km/h
3049 15-09-2008 16:17:01 14.4 C 8.53 g/m*3 14.4 C 0 km/h
3050 15-09-2008 16:22:01 14.5 C 8.83 g/m*3 14.5 C 0 km/h
Sensor: Nr:Datum:Temp:Abs-Feuchte:Windchill:Wind:
Aussen-T/F 3051 15-09-2008 16:27:01 14.5 C 8.95 g/m*3 14.5 C 0 km/h
3052 15-09-2008 16:32:02 14.5 C 9.2 g/m*3 14.5 C 0 km/h
3053 15-09-2008 16:37:02 14.3 C 9.09 g/m*3 14.3 C 0 km/h
3054 15-09-2008 16:42:02 14 C 8.93 g/m*3 14 C 0 km/h
3055 15-09-2008 16:47:02 13.8 C 8.82 g/m*3 13.8 C 0 km/h
3056 15-09-2008 16:52:03 13.3 C 8.43 g/m*3 13.3 C 0 km/h
3057 15-09-2008 16:57:03 13.3 C 8.55 g/m*3 13.3 C 0 km/h
3058 15-09-2008 17:02:02 13.2 C 8.38 g/m*3 13.2 C 0 km/h
3059 15-09-2008 17:07:02 13.1 C 8.44 g/m*3 13.1 C 0 km/h
3060 15-09-2008 17:12:02 13.1 C 8.22 g/m*3 13.1 C 0 km/h
3061 15-09-2008 17:17:03 13.1 C 8.1 g/m*3 13.1 C 0 km/h
3062 15-09-2008 17:22:03 12.9 C 7.89 g/m*3 12.9 C 0 km/h
3063 15-09-2008 17:27:03 12.6 C 7.74 g/m*3 12.6 C 0 km/h
3064 15-09-2008 17:32:02 12.4 C 7.87 g/m*3 12.4 C 0 km/h
3065 15-09-2008 17:37:02 12.4 C 7.87 g/m*3 12.4 C 0 km/h
3066 15-09-2008 17:42:02 12.4 C 7.87 g/m*3 12.4 C 0 km/h
3067 15-09-2008 17:47:02 12.2 C 7.77 g/m*3 12.2 C 0 km/h
3068 15-09-2008 17:52:03 12.1 C 7.83 g/m*3 12.1 C 0 km/h
3069 15-09-2008 17:57:03 12.1 C 7.83 g/m*3 12.1 C 0 km/h
3070 15-09-2008 18:02:01 12.1 C 7.83 g/m*3 12.1 C 0 km/h
3071 15-09-2008 18:07:01 12.1 C 7.83 g/m*3 12.1 C 0 km/h
3072 15-09-2008 18:12:01 12.1 C 7.83 g/m*3 12.1 C 0 km/h
3073 15-09-2008 18:17:02 12 C 7.67 g/m*3 12 C 0 km/h
3074 15-09-2008 18:22:02 12 C 7.57 g/m*3 12 C 0 km/h
3075 15-09-2008 18:27:02 11.9 C 7.73 g/m*3 11.9 C 0 km/h
Sensor: Nr:Datum:Temp:Abs-Feuchte:Windchill:Wind:
Aussen-T/F 3076 15-09-2008 18:32:01 11.9 C 7.73 g/m*3 11.9 C 0 km/h
3077 15-09-2008 18:37:01 11.8 C 7.58 g/m*3 11.8 C 0 km/h
3078 15-09-2008 18:42:01 11.7 C 7.53 g/m*3 11.7 C 0 km/h
3079 15-09-2008 18:47:01 11.7 C 7.43 g/m*3 11.7 C 0 km/h
3080 15-09-2008 18:52:01 11.6 C 7.38 g/m*3 11.6 C 0 km/h
3081 15-09-2008 18:57:01 11.6 C 7.38 g/m*3 11.6 C 0 km/h
3082 15-09-2008 19:02:02 11.5 C 7.44 g/m*3 11.5 C 0 km/h
3083 15-09-2008 19:07:02 11.4 C 7.39 g/m*3 11.4 C 0 km/h
3084 15-09-2008 19:12:02 11.3 C 7.45 g/m*3 11.3 C 0 km/h
3085 15-09-2008 19:17:01 11.2 C 7.4 g/m*3 11.2 C 0 km/h
3086 15-09-2008 19:22:01 11.2 C 7.4 g/m*3 11.2 C 0 km/h
3087 15-09-2008 19:27:01 11.1 C 7.25 g/m*3 11.1 C 0 km/h
3088 15-09-2008 19:32:02 11.1 C 7.35 g/m*3 11.1 C 0 km/h
3089 15-09-2008 19:37:02 11.1 C 7.35 g/m*3 11.1 C 0 km/h
3090 15-09-2008 19:42:02 11.2 C 7.3 g/m*3 11.2 C 0 km/h
3091 15-09-2008 19:47:02 11.2 C 7.4 g/m*3 11.2 C 0 km/h
3092 15-09-2008 19:52:02 11.2 C 7.4 g/m*3 11.2 C 0 km/h
3093 15-09-2008 19:57:02 11.1 C 7.45 g/m*3 11.1 C 0 km/h
3094 15-09-2008 20:02:02 11.1 C 7.45 g/m*3 11.1 C 0 km/h
3095 15-09-2008 20:07:02 11 C 7.51 g/m*3 11 C 0 km/h
3096 15-09-2008 20:12:02 11.1 C 7.45 g/m*3 11.1 C 0 km/h
3097 15-09-2008 20:17:02 11.1 C 7.45 g/m*3 11.1 C 0 km/h
3098 15-09-2008 20:22:02 11 C 7.51 g/m*3 11 C 0 km/h
3099 15-09-2008 20:27:02 11 C 7.51 g/m*3 11 C 0 km/h
3100 15-09-2008 20:32:02 11 C 7.51 g/m*3 11 C 0 km/h
Sensor: Nr:Datum:Temp:Abs-Feuchte:Windchill:Wind:
Aussen-T/F 3101 15-09-2008 20:37:02 10.9 C 7.56 g/m*3 10.9 C 0 km/h
3102 15-09-2008 20:42:02 10.9 C 7.56 g/m*3 10.9 C 0 km/h
3103 15-09-2008 20:47:02 10.9 C 7.66 g/m*3 10.9 C 0 km/h
3104 15-09-2008 20:52:02 10.8 C 7.61 g/m*3 10.8 C 0 km/h
3105 15-09-2008 20:57:02 10.9 C 7.66 g/m*3 10.9 C 0 km/h
3106 15-09-2008 21:02:02 10.9 C 7.56 g/m*3 10.9 C 0 km/h
3107 15-09-2008 21:07:02 10.9 C 7.56 g/m*3 10.9 C 0 km/h
3108 15-09-2008 21:12:02 10.8 C 7.51 g/m*3 10.8 C 0 km/h
3109 15-09-2008 21:17:02 10.8 C 7.51 g/m*3 10.8 C 0 km/h
3110 15-09-2008 21:22:02 10.8 C 7.51 g/m*3 10.8 C 0 km/h
3111 15-09-2008 21:27:02 10.8 C 7.41 g/m*3 10.8 C 0 km/h
3112 15-09-2008 21:32:02 10.8 C 7.41 g/m*3 10.8 C 0 km/h
3113 15-09-2008 21:37:02 10.9 C 7.46 g/m*3 10.9 C 0 km/h
3114 15-09-2008 21:42:02 10.8 C 7.41 g/m*3 10.8 C 0 km/h
3115 15-09-2008 21:47:02 10.8 C 7.51 g/m*3 10.8 C 0 km/h
3116 15-09-2008 21:52:02 10.9 C 7.56 g/m*3 10.9 C 0 km/h
3117 15-09-2008 21:57:03 10.9 C 7.56 g/m*3 10.9 C 0 km/h
3118 15-09-2008 22:02:01 10.9 C 7.56 g/m*3 10.9 C 0 km/h
3119 15-09-2008 22:07:01 10.8 C 7.51 g/m*3 10.8 C 0 km/h
3120 15-09-2008 22:12:01 10.8 C 7.51 g/m*3 10.8 C 0 km/h
3121 15-09-2008 22:17:02 10.8 C 7.51 g/m*3 10.8 C 0 km/h
3122 15-09-2008 22:22:02 10.8 C 7.51 g/m*3 10.8 C 0 km/h
3123 15-09-2008 22:27:02 10.7 C 7.37 g/m*3 10.7 C 0 km/h
3124 15-09-2008 22:33:02 10.8 C 7.41 g/m*3 10.8 C 0 km/h
3125 15-09-2008 22:38:02 10.8 C 7.41 g/m*3 10.8 C 0 km/h
Sensor: Nr:Datum:Temp:Abs-Feuchte:Windchill:Wind:
Aussen-T/F 3126 15-09-2008 22:43:02 10.8 C 7.41 g/m*3 10.8 C 0 km/h
3127 15-09-2008 22:48:02 10.8 C 7.41 g/m*3 10.8 C 0 km/h
3128 15-09-2008 22:53:02 10.8 C 7.41 g/m*3 10.8 C 0 km/h
3129 15-09-2008 22:58:02 10.7 C 7.46 g/m*3 10.7 C 0 km/h
3130 15-09-2008 23:03:02 10.7 C 7.46 g/m*3 10.7 C 0 km/h
3131 15-09-2008 23:08:02 10.6 C 7.52 g/m*3 10.6 C 0 km/h
3132 15-09-2008 23:13:02 10.5 C 7.47 g/m*3 10.5 C 0 km/h
3133 15-09-2008 23:18:02 10.5 C 7.47 g/m*3 10.5 C 0 km/h
3134 15-09-2008 23:23:02 10.5 C 7.47 g/m*3 10.5 C 0 km/h
3135 15-09-2008 23:28:02 10.5 C 7.57 g/m*3 10.5 C 0 km/h
3136 15-09-2008 23:33:02 10.5 C 7.57 g/m*3 10.5 C 0 km/h
3137 15-09-2008 23:38:02 10.5 C 7.57 g/m*3 10.5 C 0 km/h
3138 15-09-2008 23:43:02 10.5 C 7.57 g/m*3 10.5 C 0 km/h
3139 15-09-2008 23:48:02 10.5 C 7.57 g/m*3 10.5 C 0 km/h
3140 15-09-2008 23:53:02 10.5 C 7.57 g/m*3 10.5 C 0 km/h
3141 15-09-2008 23:58:02 10.4 C 7.61 g/m*3 10.4 C 0 km/h
3142 16-09-2008 00:03:03 10.4 C 7.52 g/m*3 10.4 C 0 km/h
3143 16-09-2008 00:08:03 10.4 C 7.52 g/m*3 10.4 C 0 km/h
3144 16-09-2008 00:13:03 10.4 C 7.61 g/m*3 10.4 C 0 km/h
3145 16-09-2008 00:18:03 10.3 C 7.57 g/m*3 10.3 C 0 km/h
3146 16-09-2008 00:23:03 10.3 C 7.57 g/m*3 10.3 C 0 km/h
3147 16-09-2008 00:28:03 10.2 C 7.52 g/m*3 10.2 C 0 km/h
3148 16-09-2008 00:33:03 10.2 C 7.52 g/m*3 10.2 C 0 km/h
3149 16-09-2008 00:38:03 10.1 C 7.47 g/m*3 10.1 C 0 km/h
3150 16-09-2008 00:43:03 10.1 C 7.47 g/m*3 10.1 C 0 km/h
Sensor: Nr:Datum:Temp:Abs-Feuchte:Windchill:Wind:
Aussen-T/F 3151 16-09-2008 00:48:03 10.1 C 7.47 g/m*3 10.1 C 0 km/h
3152 16-09-2008 00:53:03 10.1 C 7.47 g/m*3 10.1 C 0 km/h
3153 16-09-2008 00:58:03 10 C 7.52 g/m*3 10 C 0 km/h
3154 16-09-2008 01:03:03 10 C 7.52 g/m*3 10 C 0 km/h
3155 16-09-2008 01:08:03 10 C 7.52 g/m*3 10 C 0 km/h
3156 16-09-2008 01:13:03 10 C 7.52 g/m*3 10 C 0 km/h
3157 16-09-2008 01:18:03 10 C 7.52 g/m*3 10 C 0 km/h
3158 16-09-2008 01:23:03 10 C 7.52 g/m*3 10 C 0 km/h
3159 16-09-2008 01:28:03 10 C 7.61 g/m*3 10 C 0 km/h
3160 16-09-2008 01:33:03 10 C 7.61 g/m*3 10 C 0 km/h
3161 16-09-2008 01:38:03 9.9 C 7.66 g/m*3 9.9 C 0 km/h
3162 16-09-2008 01:43:03 9.9 C 7.66 g/m*3 9.9 C 0 km/h
3163 16-09-2008 01:48:04 9.9 C 7.75 g/m*3 9.9 C 0 km/h
3164 16-09-2008 01:53:04 9.8 C 7.61 g/m*3 9.8 C 0 km/h
3165 16-09-2008 01:58:04 9.9 C 7.66 g/m*3 9.9 C 0 km/h
3166 16-09-2008 02:03:04 9.7 C 7.56 g/m*3 9.7 C 0 km/h
3167 16-09-2008 02:08:04 9.6 C 7.51 g/m*3 9.6 C 0 km/h
3168 16-09-2008 02:13:04 9.5 C 7.46 g/m*3 9.5 C 0 km/h
3169 16-09-2008 02:18:04 9.5 C 7.55 g/m*3 9.5 C 0 km/h
3170 16-09-2008 02:23:04 9.4 C 7.51 g/m*3 9.4 C 0 km/h
3171 16-09-2008 02:28:04 9.3 C 7.46 g/m*3 9.3 C 0 km/h
3172 16-09-2008 02:33:04 9.3 C 7.46 g/m*3 9.3 C 0 km/h
3173 16-09-2008 02:38:04 9.3 C 7.46 g/m*3 9.3 C 0 km/h
3174 16-09-2008 02:43:04 9.3 C 7.46 g/m*3 9.3 C 0 km/h
3175 16-09-2008 02:48:04 9.4 C 7.51 g/m*3 9.4 C 0 km/h
Sensor: Nr:Datum:Temp:Abs-Feuchte:Windchill:Wind:
Aussen-T/F 3176 16-09-2008 02:53:04 9.4 C 7.51 g/m*3 9.4 C 0 km/h
3177 16-09-2008 02:58:04 9.4 C 7.51 g/m*3 9.4 C 0 km/h
3178 16-09-2008 03:03:04 9.5 C 7.55 g/m*3 9.5 C 0 km/h
3179 16-09-2008 03:08:04 9.5 C 7.55 g/m*3 9.5 C 0 km/h
3180 16-09-2008 03:13:04 9.5 C 7.55 g/m*3 9.5 C 0 km/h
3181 16-09-2008 03:18:04 9.3 C 7.46 g/m*3 9.3 C 0 km/h
3182 16-09-2008 03:23:04 9.2 C 7.41 g/m*3 9.2 C 0 km/h
3183 16-09-2008 03:28:04 9 C 7.32 g/m*3 9 C 0 km/h
3184 16-09-2008 03:33:05 8.9 C 7.36 g/m*3 8.9 C 0 km/h
3185 16-09-2008 03:38:05 8.6 C 7.22 g/m*3 8.6 C 0 km/h
3186 16-09-2008 03:43:05 8.4 C 7.13 g/m*3 8.4 C 0 km/h
3187 16-09-2008 03:48:05 8.3 C 7.08 g/m*3 8.3 C 0 km/h
3188 16-09-2008 03:53:05 8.2 C 7.03 g/m*3 8.2 C 0 km/h
3189 16-09-2008 03:58:05 8.1 C 6.99 g/m*3 8.1 C 0 km/h
3190 16-09-2008 04:03:05 8 C 6.94 g/m*3 8 C 0 km/h
3191 16-09-2008 04:08:05 7.9 C 7.06 g/m*3 7.9 C 0 km/h
3192 16-09-2008 04:13:05 7.8 C 7.02 g/m*3 7.8 C 0 km/h
3193 16-09-2008 04:18:05 7.7 C 6.97 g/m*3 7.7 C 0 km/h
3194 16-09-2008 04:23:05 7.7 C 7.05 g/m*3 7.7 C 0 km/h
3195 16-09-2008 04:28:05 7.6 C 7.01 g/m*3 7.6 C 0 km/h
3196 16-09-2008 04:33:05 7.5 C 6.96 g/m*3 7.5 C 0 km/h
3197 16-09-2008 04:38:05 7.5 C 6.96 g/m*3 7.5 C 0 km/h
3198 16-09-2008 04:43:05 7.3 C 6.87 g/m*3 7.3 C 0 km/h
3199 16-09-2008 04:48:05 7.4 C 6.92 g/m*3 7.4 C 0 km/h
3200 16-09-2008 04:53:05 7.3 C 6.87 g/m*3 7.3 C 0 km/h
Sensor: Nr:Datum:Temp:Abs-Feuchte:Windchill:Wind:
Aussen-T/F 3201 16-09-2008 04:58:05 7.2 C 6.83 g/m*3 7.2 C 0 km/h
3202 16-09-2008 05:03:05 7.2 C 6.91 g/m*3 7.2 C 0 km/h
3203 16-09-2008 05:08:05 7.1 C 6.86 g/m*3 7.1 C 0 km/h
3204 16-09-2008 05:13:06 7.1 C 6.86 g/m*3 7.1 C 0 km/h
3205 16-09-2008 05:18:06 7 C 6.82 g/m*3 7 C 0 km/h
3206 16-09-2008 05:23:06 6.9 C 6.85 g/m*3 6.9 C 0 km/h
3207 16-09-2008 05:28:06 6.9 C 6.85 g/m*3 6.9 C 0 km/h
3208 16-09-2008 05:33:06 6.9 C 6.85 g/m*3 6.9 C 0 km/h
3209 16-09-2008 05:38:06 6.9 C 6.85 g/m*3 6.9 C 0 km/h
3210 16-09-2008 05:43:06 6.9 C 6.85 g/m*3 6.9 C 0 km/h
3211 16-09-2008 05:48:06 6.8 C 6.81 g/m*3 6.8 C 0 km/h
3212 16-09-2008 05:53:06 6.8 C 6.88 g/m*3 6.8 C 0 km/h
3213 16-09-2008 05:58:06 6.8 C 6.88 g/m*3 6.8 C 0 km/h
3214 16-09-2008 06:03:06 6.7 C 6.84 g/m*3 6.7 C 0 km/h
3215 16-09-2008 06:08:06 6.5 C 6.75 g/m*3 6.5 C 0 km/h
3216 16-09-2008 06:13:06 6.4 C 6.71 g/m*3 6.4 C 0 km/h
3217 16-09-2008 06:18:06 6.4 C 6.71 g/m*3 6.4 C 0 km/h
3218 16-09-2008 06:23:06 6.5 C 6.75 g/m*3 6.5 C 0 km/h
3219 16-09-2008 06:28:06 6.7 C 6.91 g/m*3 6.7 C 0 km/h
3220 16-09-2008 06:33:06 6.7 C 6.91 g/m*3 6.7 C 0 km/h
3221 16-09-2008 06:38:06 6.7 C 6.91 g/m*3 6.7 C 0 km/h
3222 16-09-2008 06:43:06 6.7 C 6.91 g/m*3 6.7 C 0 km/h
3223 16-09-2008 06:48:06 6.7 C 6.99 g/m*3 6.7 C 0 km/h
3224 16-09-2008 06:53:06 6.8 C 7.04 g/m*3 6.8 C 0 km/h
3225 16-09-2008 06:58:07 6.9 C